<?xml version="1.0" encoding="UTF-8" standalone="no" ?>
<gpx xmlns="http://www.topografix.com/GPX/1/1" xmlns:xsi="http://www.w3.org/2001/XMLSchema-instance" xsi:schemaLocation="http://www.topografix.com/GPX/1/1 http://www.topografix.com/GPX/1/1/gpx.xsd" version="1.1" creator="VisuGPX - https://www.visugpx.com">
  <metadata>
    <name>2015-07-07 La Bauche - Mont Grêle - Col Saint Michel - Lépin Plage</name>
    <desc><![CDATA[Grosse chaleur dans le final sur la route, heureusement, le lac est là !]]></desc>
  </metadata>
  <trk>
    <name><![CDATA[yhgg]]></name>
    <trkseg>
      <trkpt lat="45.47667" lon="5.76491">
        <ele>573</ele>
        <time>2015-07-07T10:28:30Z</time>
      </trkpt>
      <trkpt lat="45.47667" lon="5.76489">
        <ele>573</ele>
        <time>2015-07-07T10:28:35Z</time>
      </trkpt>
      <trkpt lat="45.47671" lon="5.76491">
        <ele>573</ele>
        <time>2015-07-07T10:28:41Z</time>
      </trkpt>
      <trkpt lat="45.47682" lon="5.76501">
        <ele>575.082700591</ele>
        <time>2015-07-07T10:28:50Z</time>
      </trkpt>
      <trkpt lat="45.47687" lon="5.76506">
        <ele>575.082700591</ele>
        <time>2015-07-07T10:28:55Z</time>
      </trkpt>
      <trkpt lat="45.47699" lon="5.7651">
        <ele>575.992480139</ele>
        <time>2015-07-07T10:29:10Z</time>
      </trkpt>
      <trkpt lat="45.47702" lon="5.76516">
        <ele>575.992480139</ele>
        <time>2015-07-07T10:29:15Z</time>
      </trkpt>
      <trkpt lat="45.47704" lon="5.76539">
        <ele>578.541529083</ele>
        <time>2015-07-07T10:29:25Z</time>
      </trkpt>
      <trkpt lat="45.47704" lon="5.76545">
        <ele>578.541529083</ele>
        <time>2015-07-07T10:29:30Z</time>
      </trkpt>
      <trkpt lat="45.47706" lon="5.76561">
        <ele>582.23165351</ele>
        <time>2015-07-07T10:29:40Z</time>
      </trkpt>
      <trkpt lat="45.47708" lon="5.76569">
        <ele>582.23165351</ele>
        <time>2015-07-07T10:29:45Z</time>
      </trkpt>
      <trkpt lat="45.47707" lon="5.76585">
        <ele>586.994077797</ele>
        <time>2015-07-07T10:29:55Z</time>
      </trkpt>
      <trkpt lat="45.47706" lon="5.76597">
        <ele>586.994077797</ele>
        <time>2015-07-07T10:30:00Z</time>
      </trkpt>
      <trkpt lat="45.47704" lon="5.76616">
        <ele>591.936534629</ele>
        <time>2015-07-07T10:30:10Z</time>
      </trkpt>
      <trkpt lat="45.47706" lon="5.76623">
        <ele>591.936534629</ele>
        <time>2015-07-07T10:30:15Z</time>
      </trkpt>
      <trkpt lat="45.47709" lon="5.76644">
        <ele>596.604815562</ele>
        <time>2015-07-07T10:30:25Z</time>
      </trkpt>
      <trkpt lat="45.4771" lon="5.76648">
        <ele>596.604815562</ele>
        <time>2015-07-07T10:30:30Z</time>
      </trkpt>
      <trkpt lat="45.47713" lon="5.76653">
        <ele>596.604815562</ele>
        <time>2015-07-07T10:30:35Z</time>
      </trkpt>
      <trkpt lat="45.47703" lon="5.76675">
        <ele>600.504092197</ele>
        <time>2015-07-07T10:30:45Z</time>
      </trkpt>
      <trkpt lat="45.47706" lon="5.7668">
        <ele>600.504092197</ele>
        <time>2015-07-07T10:30:50Z</time>
      </trkpt>
      <trkpt lat="45.47705" lon="5.76696">
        <ele>604.715424477</ele>
        <time>2015-07-07T10:31:00Z</time>
      </trkpt>
      <trkpt lat="45.47705" lon="5.76706">
        <ele>604.715424477</ele>
        <time>2015-07-07T10:31:05Z</time>
      </trkpt>
      <trkpt lat="45.47701" lon="5.76727">
        <ele>607.840591549</ele>
        <time>2015-07-07T10:31:15Z</time>
      </trkpt>
      <trkpt lat="45.47704" lon="5.76735">
        <ele>607.840591549</ele>
        <time>2015-07-07T10:31:20Z</time>
      </trkpt>
      <trkpt lat="45.47704" lon="5.76749">
        <ele>611.134324543</ele>
        <time>2015-07-07T10:31:30Z</time>
      </trkpt>
      <trkpt lat="45.47702" lon="5.76756">
        <ele>611.134324543</ele>
        <time>2015-07-07T10:31:35Z</time>
      </trkpt>
      <trkpt lat="45.477" lon="5.76773">
        <ele>614.085116786</ele>
        <time>2015-07-07T10:31:45Z</time>
      </trkpt>
      <trkpt lat="45.47701" lon="5.7678">
        <ele>614.085116786</ele>
        <time>2015-07-07T10:31:50Z</time>
      </trkpt>
      <trkpt lat="45.47701" lon="5.76794">
        <ele>618.070416484</ele>
        <time>2015-07-07T10:32:00Z</time>
      </trkpt>
      <trkpt lat="45.47704" lon="5.76801">
        <ele>618.070416484</ele>
        <time>2015-07-07T10:32:05Z</time>
      </trkpt>
      <trkpt lat="45.47707" lon="5.7681">
        <ele>622.012562009</ele>
        <time>2015-07-07T10:32:20Z</time>
      </trkpt>
      <trkpt lat="45.47705" lon="5.76813">
        <ele>622.012562009</ele>
        <time>2015-07-07T10:32:25Z</time>
      </trkpt>
      <trkpt lat="45.47704" lon="5.76845">
        <ele>626.256373367</ele>
        <time>2015-07-07T10:32:35Z</time>
      </trkpt>
      <trkpt lat="45.47706" lon="5.76848">
        <ele>626.256373367</ele>
        <time>2015-07-07T10:32:40Z</time>
      </trkpt>
      <trkpt lat="45.47706" lon="5.76873">
        <ele>629.62425386</ele>
        <time>2015-07-07T10:32:50Z</time>
      </trkpt>
      <trkpt lat="45.47711" lon="5.76883">
        <ele>629.62425386</ele>
        <time>2015-07-07T10:32:55Z</time>
      </trkpt>
      <trkpt lat="45.47721" lon="5.76886">
        <ele>632.707742361</ele>
        <time>2015-07-07T10:33:05Z</time>
      </trkpt>
      <trkpt lat="45.47722" lon="5.76897">
        <ele>632.707742361</ele>
        <time>2015-07-07T10:33:10Z</time>
      </trkpt>
      <trkpt lat="45.4773" lon="5.76908">
        <ele>636.195608881</ele>
        <time>2015-07-07T10:33:20Z</time>
      </trkpt>
      <trkpt lat="45.47735" lon="5.7692">
        <ele>639.254524136</ele>
        <time>2015-07-07T10:33:25Z</time>
      </trkpt>
      <trkpt lat="45.47745" lon="5.76948">
        <ele>642.568779278</ele>
        <time>2015-07-07T10:33:41Z</time>
      </trkpt>
      <trkpt lat="45.47746" lon="5.76955">
        <ele>642.568779278</ele>
        <time>2015-07-07T10:33:45Z</time>
      </trkpt>
      <trkpt lat="45.4775" lon="5.76973">
        <ele>646.577468871</ele>
        <time>2015-07-07T10:33:55Z</time>
      </trkpt>
      <trkpt lat="45.47753" lon="5.76978">
        <ele>646.577468871</ele>
        <time>2015-07-07T10:34:00Z</time>
      </trkpt>
      <trkpt lat="45.47754" lon="5.76981">
        <ele>646.577468871</ele>
        <time>2015-07-07T10:34:10Z</time>
      </trkpt>
      <trkpt lat="45.47754" lon="5.76983">
        <ele>646.577468871</ele>
        <time>2015-07-07T10:34:15Z</time>
      </trkpt>
      <trkpt lat="45.47755" lon="5.76987">
        <ele>650.897476226</ele>
        <time>2015-07-07T10:34:25Z</time>
      </trkpt>
      <trkpt lat="45.47755" lon="5.76988">
        <ele>650.897476226</ele>
        <time>2015-07-07T10:34:30Z</time>
      </trkpt>
      <trkpt lat="45.47761" lon="5.77003">
        <ele>655.942289699</ele>
        <time>2015-07-07T10:34:40Z</time>
      </trkpt>
      <trkpt lat="45.47765" lon="5.77016">
        <ele>660.890149499</ele>
        <time>2015-07-07T10:34:45Z</time>
      </trkpt>
      <trkpt lat="45.47771" lon="5.77028">
        <ele>664.729526348</ele>
        <time>2015-07-07T10:34:55Z</time>
      </trkpt>
      <trkpt lat="45.47778" lon="5.77041">
        <ele>667.720029816</ele>
        <time>2015-07-07T10:35:00Z</time>
      </trkpt>
      <trkpt lat="45.47786" lon="5.77053">
        <ele>671.655633668</ele>
        <time>2015-07-07T10:35:10Z</time>
      </trkpt>
      <trkpt lat="45.47789" lon="5.77055">
        <ele>671.655633668</ele>
        <time>2015-07-07T10:35:15Z</time>
      </trkpt>
      <trkpt lat="45.47791" lon="5.77064">
        <ele>676.01958899</ele>
        <time>2015-07-07T10:35:25Z</time>
      </trkpt>
      <trkpt lat="45.47795" lon="5.77065">
        <ele>676.01958899</ele>
        <time>2015-07-07T10:35:30Z</time>
      </trkpt>
      <trkpt lat="45.47802" lon="5.77068">
        <ele>679.649129744</ele>
        <time>2015-07-07T10:35:40Z</time>
      </trkpt>
      <trkpt lat="45.47801" lon="5.77081">
        <ele>682.187550718</ele>
        <time>2015-07-07T10:35:45Z</time>
      </trkpt>
      <trkpt lat="45.47801" lon="5.77083">
        <ele>682.187550718</ele>
        <time>2015-07-07T10:35:55Z</time>
      </trkpt>
      <trkpt lat="45.47801" lon="5.77084">
        <ele>682.187550718</ele>
        <time>2015-07-07T10:36:00Z</time>
      </trkpt>
      <trkpt lat="45.47801" lon="5.77086">
        <ele>682.187550718</ele>
        <time>2015-07-07T10:36:15Z</time>
      </trkpt>
      <trkpt lat="45.47806" lon="5.77092">
        <ele>685.667496889</ele>
        <time>2015-07-07T10:36:20Z</time>
      </trkpt>
      <trkpt lat="45.47814" lon="5.77114">
        <ele>689.04249805</ele>
        <time>2015-07-07T10:36:30Z</time>
      </trkpt>
      <trkpt lat="45.47813" lon="5.77126">
        <ele>689.04249805</ele>
        <time>2015-07-07T10:36:35Z</time>
      </trkpt>
      <trkpt lat="45.47802" lon="5.77143">
        <ele>692.457127914</ele>
        <time>2015-07-07T10:36:45Z</time>
      </trkpt>
      <trkpt lat="45.47796" lon="5.77147">
        <ele>692.457127914</ele>
        <time>2015-07-07T10:36:50Z</time>
      </trkpt>
      <trkpt lat="45.47784" lon="5.77163">
        <ele>695.629042518</ele>
        <time>2015-07-07T10:37:00Z</time>
      </trkpt>
      <trkpt lat="45.47776" lon="5.77173">
        <ele>698.573266538</ele>
        <time>2015-07-07T10:37:06Z</time>
      </trkpt>
      <trkpt lat="45.47763" lon="5.7717">
        <ele>701.304103897</ele>
        <time>2015-07-07T10:37:15Z</time>
      </trkpt>
      <trkpt lat="45.47759" lon="5.77165">
        <ele>701.304103897</ele>
        <time>2015-07-07T10:37:20Z</time>
      </trkpt>
      <trkpt lat="45.47744" lon="5.77157">
        <ele>704.399311601</ele>
        <time>2015-07-07T10:37:30Z</time>
      </trkpt>
      <trkpt lat="45.47742" lon="5.77163">
        <ele>704.399311601</ele>
        <time>2015-07-07T10:37:35Z</time>
      </trkpt>
      <trkpt lat="45.47727" lon="5.77164">
        <ele>706.846576318</ele>
        <time>2015-07-07T10:37:45Z</time>
      </trkpt>
      <trkpt lat="45.47719" lon="5.77161">
        <ele>706.846576318</ele>
        <time>2015-07-07T10:37:50Z</time>
      </trkpt>
      <trkpt lat="45.47704" lon="5.77155">
        <ele>709.54281882</ele>
        <time>2015-07-07T10:38:00Z</time>
      </trkpt>
      <trkpt lat="45.47697" lon="5.77159">
        <ele>709.54281882</ele>
        <time>2015-07-07T10:38:05Z</time>
      </trkpt>
      <trkpt lat="45.47691" lon="5.77151">
        <ele>712.33400456</ele>
        <time>2015-07-07T10:38:15Z</time>
      </trkpt>
      <trkpt lat="45.47687" lon="5.77149">
        <ele>712.33400456</ele>
        <time>2015-07-07T10:38:20Z</time>
      </trkpt>
      <trkpt lat="45.47668" lon="5.7714">
        <ele>715.218609038</ele>
        <time>2015-07-07T10:38:35Z</time>
      </trkpt>
      <trkpt lat="45.4766" lon="5.7713">
        <ele>718.049369402</ele>
        <time>2015-07-07T10:38:40Z</time>
      </trkpt>
      <trkpt lat="45.4765" lon="5.77118">
        <ele>721.566733122</ele>
        <time>2015-07-07T10:38:50Z</time>
      </trkpt>
      <trkpt lat="45.47645" lon="5.77128">
        <ele>721.566733122</ele>
        <time>2015-07-07T10:38:55Z</time>
      </trkpt>
      <trkpt lat="45.47629" lon="5.77114">
        <ele>725.288575826</ele>
        <time>2015-07-07T10:39:05Z</time>
      </trkpt>
      <trkpt lat="45.47623" lon="5.77115">
        <ele>725.288575826</ele>
        <time>2015-07-07T10:39:10Z</time>
      </trkpt>
      <trkpt lat="45.47613" lon="5.77105">
        <ele>728.757682901</ele>
        <time>2015-07-07T10:39:20Z</time>
      </trkpt>
      <trkpt lat="45.47613" lon="5.77107">
        <ele>728.757682901</ele>
        <time>2015-07-07T10:39:25Z</time>
      </trkpt>
      <trkpt lat="45.47597" lon="5.77093">
        <ele>731.842261635</ele>
        <time>2015-07-07T10:39:35Z</time>
      </trkpt>
      <trkpt lat="45.47595" lon="5.77102">
        <ele>731.842261635</ele>
        <time>2015-07-07T10:39:40Z</time>
      </trkpt>
      <trkpt lat="45.47576" lon="5.77084">
        <ele>735.467771475</ele>
        <time>2015-07-07T10:39:50Z</time>
      </trkpt>
      <trkpt lat="45.4757" lon="5.77086">
        <ele>735.467771475</ele>
        <time>2015-07-07T10:39:55Z</time>
      </trkpt>
      <trkpt lat="45.47559" lon="5.77086">
        <ele>738.547929248</ele>
        <time>2015-07-07T10:40:05Z</time>
      </trkpt>
      <trkpt lat="45.4755" lon="5.77078">
        <ele>741.574538801</ele>
        <time>2015-07-07T10:40:10Z</time>
      </trkpt>
      <trkpt lat="45.47531" lon="5.7707">
        <ele>744.554332409</ele>
        <time>2015-07-07T10:40:25Z</time>
      </trkpt>
      <trkpt lat="45.47522" lon="5.77066">
        <ele>747.34279218</ele>
        <time>2015-07-07T10:40:30Z</time>
      </trkpt>
      <trkpt lat="45.47511" lon="5.77056">
        <ele>749.504851167</ele>
        <time>2015-07-07T10:40:40Z</time>
      </trkpt>
      <trkpt lat="45.47504" lon="5.77057">
        <ele>749.504851167</ele>
        <time>2015-07-07T10:40:45Z</time>
      </trkpt>
      <trkpt lat="45.47487" lon="5.77061">
        <ele>752.150802856</ele>
        <time>2015-07-07T10:40:55Z</time>
      </trkpt>
      <trkpt lat="45.47483" lon="5.7706">
        <ele>752.150802856</ele>
        <time>2015-07-07T10:41:00Z</time>
      </trkpt>
      <trkpt lat="45.47474" lon="5.77074">
        <ele>754.794207799</ele>
        <time>2015-07-07T10:41:10Z</time>
      </trkpt>
      <trkpt lat="45.47464" lon="5.77075">
        <ele>756.986488577</ele>
        <time>2015-07-07T10:41:15Z</time>
      </trkpt>
      <trkpt lat="45.47459" lon="5.77079">
        <ele>756.986488577</ele>
        <time>2015-07-07T10:41:25Z</time>
      </trkpt>
      <trkpt lat="45.47458" lon="5.77072">
        <ele>759.671511765</ele>
        <time>2015-07-07T10:41:30Z</time>
      </trkpt>
      <trkpt lat="45.47438" lon="5.77057">
        <ele>762.061192402</ele>
        <time>2015-07-07T10:41:40Z</time>
      </trkpt>
      <trkpt lat="45.47429" lon="5.77059">
        <ele>762.061192402</ele>
        <time>2015-07-07T10:41:45Z</time>
      </trkpt>
      <trkpt lat="45.47414" lon="5.77049">
        <ele>765.082932971</ele>
        <time>2015-07-07T10:41:55Z</time>
      </trkpt>
      <trkpt lat="45.47412" lon="5.77038">
        <ele>765.082932971</ele>
        <time>2015-07-07T10:42:00Z</time>
      </trkpt>
      <trkpt lat="45.47397" lon="5.77051">
        <ele>768.237769294</ele>
        <time>2015-07-07T10:42:16Z</time>
      </trkpt>
      <trkpt lat="45.47389" lon="5.7705">
        <ele>768.237769294</ele>
        <time>2015-07-07T10:42:20Z</time>
      </trkpt>
      <trkpt lat="45.4738" lon="5.77061">
        <ele>771.366459998</ele>
        <time>2015-07-07T10:42:30Z</time>
      </trkpt>
      <trkpt lat="45.47374" lon="5.77061">
        <ele>771.366459998</ele>
        <time>2015-07-07T10:42:35Z</time>
      </trkpt>
      <trkpt lat="45.47361" lon="5.77063">
        <ele>774.621039941</ele>
        <time>2015-07-07T10:42:45Z</time>
      </trkpt>
      <trkpt lat="45.47356" lon="5.77078">
        <ele>777.2489046</ele>
        <time>2015-07-07T10:42:50Z</time>
      </trkpt>
      <trkpt lat="45.47342" lon="5.77086">
        <ele>779.451781588</ele>
        <time>2015-07-07T10:43:00Z</time>
      </trkpt>
      <trkpt lat="45.47337" lon="5.77086">
        <ele>779.451781588</ele>
        <time>2015-07-07T10:43:06Z</time>
      </trkpt>
      <trkpt lat="45.47319" lon="5.77093">
        <ele>782.006820142</ele>
        <time>2015-07-07T10:43:15Z</time>
      </trkpt>
      <trkpt lat="45.473" lon="5.7706">
        <ele>785.477488846</ele>
        <time>2015-07-07T10:43:31Z</time>
      </trkpt>
      <trkpt lat="45.47292" lon="5.77052">
        <ele>788.31818263</ele>
        <time>2015-07-07T10:43:35Z</time>
      </trkpt>
      <trkpt lat="45.4728" lon="5.77046">
        <ele>790.43433274</ele>
        <time>2015-07-07T10:43:45Z</time>
      </trkpt>
      <trkpt lat="45.47273" lon="5.77046">
        <ele>790.43433274</ele>
        <time>2015-07-07T10:43:51Z</time>
      </trkpt>
      <trkpt lat="45.47279" lon="5.77057">
        <ele>792.619602447</ele>
        <time>2015-07-07T10:44:01Z</time>
      </trkpt>
      <trkpt lat="45.47277" lon="5.7707">
        <ele>794.57902834</ele>
        <time>2015-07-07T10:44:05Z</time>
      </trkpt>
      <trkpt lat="45.47264" lon="5.77094">
        <ele>796.333924601</ele>
        <time>2015-07-07T10:44:15Z</time>
      </trkpt>
      <trkpt lat="45.47261" lon="5.77102">
        <ele>796.333924601</ele>
        <time>2015-07-07T10:44:21Z</time>
      </trkpt>
      <trkpt lat="45.47259" lon="5.77122">
        <ele>799.069473355</ele>
        <time>2015-07-07T10:44:31Z</time>
      </trkpt>
      <trkpt lat="45.47256" lon="5.77129">
        <ele>799.069473355</ele>
        <time>2015-07-07T10:44:35Z</time>
      </trkpt>
      <trkpt lat="45.47256" lon="5.7715">
        <ele>801.110531222</ele>
        <time>2015-07-07T10:44:45Z</time>
      </trkpt>
      <trkpt lat="45.47257" lon="5.7716">
        <ele>801.110531222</ele>
        <time>2015-07-07T10:44:51Z</time>
      </trkpt>
      <trkpt lat="45.47236" lon="5.77153">
        <ele>803.675917396</ele>
        <time>2015-07-07T10:45:05Z</time>
      </trkpt>
      <trkpt lat="45.47232" lon="5.77153">
        <ele>803.675917396</ele>
        <time>2015-07-07T10:45:11Z</time>
      </trkpt>
      <trkpt lat="45.47231" lon="5.77155">
        <ele>803.675917396</ele>
        <time>2015-07-07T10:45:21Z</time>
      </trkpt>
      <trkpt lat="45.47231" lon="5.77155">
        <ele>803.675917396</ele>
        <time>2015-07-07T10:45:25Z</time>
      </trkpt>
      <trkpt lat="45.47232" lon="5.77155">
        <ele>803.675917396</ele>
        <time>2015-07-07T10:45:35Z</time>
      </trkpt>
      <trkpt lat="45.47234" lon="5.77159">
        <ele>807.161805959</ele>
        <time>2015-07-07T10:45:41Z</time>
      </trkpt>
      <trkpt lat="45.47228" lon="5.77181">
        <ele>811.641544056</ele>
        <time>2015-07-07T10:45:50Z</time>
      </trkpt>
      <trkpt lat="45.4723" lon="5.77185">
        <ele>811.641544056</ele>
        <time>2015-07-07T10:45:55Z</time>
      </trkpt>
      <trkpt lat="45.47224" lon="5.77195">
        <ele>816.601611455</ele>
        <time>2015-07-07T10:46:05Z</time>
      </trkpt>
      <trkpt lat="45.47224" lon="5.77199">
        <ele>816.601611455</ele>
        <time>2015-07-07T10:46:11Z</time>
      </trkpt>
      <trkpt lat="45.47225" lon="5.77218">
        <ele>820.988534985</ele>
        <time>2015-07-07T10:46:21Z</time>
      </trkpt>
      <trkpt lat="45.47226" lon="5.77226">
        <ele>820.988534985</ele>
        <time>2015-07-07T10:46:25Z</time>
      </trkpt>
      <trkpt lat="45.47232" lon="5.77254">
        <ele>825.420436674</ele>
        <time>2015-07-07T10:46:35Z</time>
      </trkpt>
      <trkpt lat="45.47232" lon="5.7726">
        <ele>825.420436674</ele>
        <time>2015-07-07T10:46:41Z</time>
      </trkpt>
      <trkpt lat="45.47237" lon="5.7727">
        <ele>829.457155483</ele>
        <time>2015-07-07T10:46:51Z</time>
      </trkpt>
      <trkpt lat="45.47237" lon="5.77278">
        <ele>829.457155483</ele>
        <time>2015-07-07T10:46:55Z</time>
      </trkpt>
      <trkpt lat="45.47241" lon="5.77284">
        <ele>833.847578143</ele>
        <time>2015-07-07T10:47:05Z</time>
      </trkpt>
      <trkpt lat="45.47247" lon="5.77294">
        <ele>837.840273462</ele>
        <time>2015-07-07T10:47:11Z</time>
      </trkpt>
      <trkpt lat="45.47269" lon="5.77306">
        <ele>841.462360527</ele>
        <time>2015-07-07T10:47:25Z</time>
      </trkpt>
      <trkpt lat="45.47274" lon="5.77311">
        <ele>841.462360527</ele>
        <time>2015-07-07T10:47:31Z</time>
      </trkpt>
      <trkpt lat="45.47275" lon="5.77326">
        <ele>844.884054042</ele>
        <time>2015-07-07T10:47:41Z</time>
      </trkpt>
      <trkpt lat="45.47269" lon="5.77337">
        <ele>847.542401279</ele>
        <time>2015-07-07T10:47:45Z</time>
      </trkpt>
      <trkpt lat="45.4726" lon="5.77341">
        <ele>849.494885538</ele>
        <time>2015-07-07T10:47:55Z</time>
      </trkpt>
      <trkpt lat="45.47253" lon="5.77342">
        <ele>849.494885538</ele>
        <time>2015-07-07T10:48:01Z</time>
      </trkpt>
      <trkpt lat="45.47227" lon="5.7733">
        <ele>852.382567676</ele>
        <time>2015-07-07T10:48:11Z</time>
      </trkpt>
      <trkpt lat="45.47222" lon="5.77324">
        <ele>852.382567676</ele>
        <time>2015-07-07T10:48:15Z</time>
      </trkpt>
      <trkpt lat="45.47204" lon="5.77315">
        <ele>855.416243342</ele>
        <time>2015-07-07T10:48:25Z</time>
      </trkpt>
      <trkpt lat="45.47197" lon="5.77315">
        <ele>855.416243342</ele>
        <time>2015-07-07T10:48:31Z</time>
      </trkpt>
      <trkpt lat="45.47195" lon="5.77333">
        <ele>859.450362777</ele>
        <time>2015-07-07T10:48:41Z</time>
      </trkpt>
      <trkpt lat="45.47194" lon="5.77343">
        <ele>859.450362777</ele>
        <time>2015-07-07T10:48:45Z</time>
      </trkpt>
      <trkpt lat="45.47179" lon="5.77379">
        <ele>863.111160928</ele>
        <time>2015-07-07T10:49:01Z</time>
      </trkpt>
      <trkpt lat="45.47173" lon="5.77393">
        <ele>866.280252102</ele>
        <time>2015-07-07T10:49:05Z</time>
      </trkpt>
      <trkpt lat="45.47171" lon="5.77417">
        <ele>869.281884008</ele>
        <time>2015-07-07T10:49:15Z</time>
      </trkpt>
      <trkpt lat="45.47173" lon="5.77427">
        <ele>869.281884008</ele>
        <time>2015-07-07T10:49:21Z</time>
      </trkpt>
      <trkpt lat="45.4717" lon="5.77449">
        <ele>872.561208198</ele>
        <time>2015-07-07T10:49:31Z</time>
      </trkpt>
      <trkpt lat="45.47168" lon="5.77461">
        <ele>872.561208198</ele>
        <time>2015-07-07T10:49:35Z</time>
      </trkpt>
      <trkpt lat="45.47163" lon="5.77485">
        <ele>875.087865402</ele>
        <time>2015-07-07T10:49:46Z</time>
      </trkpt>
      <trkpt lat="45.47161" lon="5.77498">
        <ele>875.087865402</ele>
        <time>2015-07-07T10:49:51Z</time>
      </trkpt>
      <trkpt lat="45.47158" lon="5.77524">
        <ele>877.92823248</ele>
        <time>2015-07-07T10:50:01Z</time>
      </trkpt>
      <trkpt lat="45.47157" lon="5.77537">
        <ele>880.627356018</ele>
        <time>2015-07-07T10:50:06Z</time>
      </trkpt>
      <trkpt lat="45.47157" lon="5.77563">
        <ele>883.196752292</ele>
        <time>2015-07-07T10:50:16Z</time>
      </trkpt>
      <trkpt lat="45.47157" lon="5.77576">
        <ele>883.196752292</ele>
        <time>2015-07-07T10:50:21Z</time>
      </trkpt>
      <trkpt lat="45.47157" lon="5.77597">
        <ele>886.512886476</ele>
        <time>2015-07-07T10:50:31Z</time>
      </trkpt>
      <trkpt lat="45.47147" lon="5.77613">
        <ele>889.366388993</ele>
        <time>2015-07-07T10:50:35Z</time>
      </trkpt>
      <trkpt lat="45.47154" lon="5.77635">
        <ele>891.791956412</ele>
        <time>2015-07-07T10:50:46Z</time>
      </trkpt>
      <trkpt lat="45.4716" lon="5.77644">
        <ele>891.791956412</ele>
        <time>2015-07-07T10:50:51Z</time>
      </trkpt>
      <trkpt lat="45.4717" lon="5.77657">
        <ele>894.976902982</ele>
        <time>2015-07-07T10:51:01Z</time>
      </trkpt>
      <trkpt lat="45.47174" lon="5.77662">
        <ele>894.976902982</ele>
        <time>2015-07-07T10:51:05Z</time>
      </trkpt>
      <trkpt lat="45.47168" lon="5.77677">
        <ele>898.288182349</ele>
        <time>2015-07-07T10:51:16Z</time>
      </trkpt>
      <trkpt lat="45.47176" lon="5.77676">
        <ele>898.288182349</ele>
        <time>2015-07-07T10:51:21Z</time>
      </trkpt>
      <trkpt lat="45.47196" lon="5.77659">
        <ele>901.715896948</ele>
        <time>2015-07-07T10:51:35Z</time>
      </trkpt>
      <trkpt lat="45.472" lon="5.77654">
        <ele>901.715896948</ele>
        <time>2015-07-07T10:51:41Z</time>
      </trkpt>
      <trkpt lat="45.47213" lon="5.77641">
        <ele>904.962064473</ele>
        <time>2015-07-07T10:51:51Z</time>
      </trkpt>
      <trkpt lat="45.47219" lon="5.77634">
        <ele>904.962064473</ele>
        <time>2015-07-07T10:51:56Z</time>
      </trkpt>
      <trkpt lat="45.47232" lon="5.77614">
        <ele>908.472316905</ele>
        <time>2015-07-07T10:52:05Z</time>
      </trkpt>
      <trkpt lat="45.47241" lon="5.77604">
        <ele>911.50489802</ele>
        <time>2015-07-07T10:52:10Z</time>
      </trkpt>
      <trkpt lat="45.47245" lon="5.77592">
        <ele>914.239364648</ele>
        <time>2015-07-07T10:52:15Z</time>
      </trkpt>
      <trkpt lat="45.47263" lon="5.77582">
        <ele>917.275543175</ele>
        <time>2015-07-07T10:52:25Z</time>
      </trkpt>
      <trkpt lat="45.4727" lon="5.77574">
        <ele>917.275543175</ele>
        <time>2015-07-07T10:52:30Z</time>
      </trkpt>
      <trkpt lat="45.47293" lon="5.77583">
        <ele>919.870330837</ele>
        <time>2015-07-07T10:52:40Z</time>
      </trkpt>
      <trkpt lat="45.47299" lon="5.77577">
        <ele>919.870330837</ele>
        <time>2015-07-07T10:52:45Z</time>
      </trkpt>
      <trkpt lat="45.47323" lon="5.77584">
        <ele>921.769217167</ele>
        <time>2015-07-07T10:52:55Z</time>
      </trkpt>
      <trkpt lat="45.47327" lon="5.77584">
        <ele>921.769217167</ele>
        <time>2015-07-07T10:53:00Z</time>
      </trkpt>
      <trkpt lat="45.4735" lon="5.77597">
        <ele>924.03614942</ele>
        <time>2015-07-07T10:53:15Z</time>
      </trkpt>
      <trkpt lat="45.4736" lon="5.776">
        <ele>926.646320469</ele>
        <time>2015-07-07T10:53:20Z</time>
      </trkpt>
      <trkpt lat="45.47375" lon="5.77621">
        <ele>929.287407341</ele>
        <time>2015-07-07T10:53:30Z</time>
      </trkpt>
      <trkpt lat="45.47369" lon="5.7763">
        <ele>929.287407341</ele>
        <time>2015-07-07T10:53:35Z</time>
      </trkpt>
      <trkpt lat="45.47361" lon="5.77646">
        <ele>931.95833352</ele>
        <time>2015-07-07T10:53:45Z</time>
      </trkpt>
      <trkpt lat="45.47355" lon="5.77646">
        <ele>931.95833352</ele>
        <time>2015-07-07T10:53:50Z</time>
      </trkpt>
      <trkpt lat="45.47345" lon="5.77675">
        <ele>935.234660173</ele>
        <time>2015-07-07T10:54:00Z</time>
      </trkpt>
      <trkpt lat="45.47343" lon="5.77684">
        <ele>935.234660173</ele>
        <time>2015-07-07T10:54:05Z</time>
      </trkpt>
      <trkpt lat="45.47339" lon="5.77699">
        <ele>938.782880904</ele>
        <time>2015-07-07T10:54:15Z</time>
      </trkpt>
      <trkpt lat="45.47337" lon="5.77711">
        <ele>938.782880904</ele>
        <time>2015-07-07T10:54:20Z</time>
      </trkpt>
      <trkpt lat="45.47337" lon="5.77736">
        <ele>942.004962417</ele>
        <time>2015-07-07T10:54:30Z</time>
      </trkpt>
      <trkpt lat="45.47342" lon="5.77748">
        <ele>944.780241059</ele>
        <time>2015-07-07T10:54:35Z</time>
      </trkpt>
      <trkpt lat="45.4736" lon="5.77764">
        <ele>947.718879186</ele>
        <time>2015-07-07T10:54:50Z</time>
      </trkpt>
      <trkpt lat="45.47363" lon="5.77765">
        <ele>947.718879186</ele>
        <time>2015-07-07T10:54:55Z</time>
      </trkpt>
      <trkpt lat="45.47385" lon="5.77769">
        <ele>951.097382714</ele>
        <time>2015-07-07T10:55:05Z</time>
      </trkpt>
      <trkpt lat="45.47388" lon="5.77779">
        <ele>951.097382714</ele>
        <time>2015-07-07T10:55:10Z</time>
      </trkpt>
      <trkpt lat="45.47391" lon="5.77778">
        <ele>954.882403874</ele>
        <time>2015-07-07T10:55:15Z</time>
      </trkpt>
      <trkpt lat="45.4739" lon="5.77788">
        <ele>954.882403874</ele>
        <time>2015-07-07T10:55:20Z</time>
      </trkpt>
      <trkpt lat="45.47397" lon="5.77801">
        <ele>957.168221814</ele>
        <time>2015-07-07T10:55:25Z</time>
      </trkpt>
      <trkpt lat="45.47396" lon="5.77825">
        <ele>959.508378267</ele>
        <time>2015-07-07T10:55:35Z</time>
      </trkpt>
      <trkpt lat="45.47398" lon="5.77836">
        <ele>959.508378267</ele>
        <time>2015-07-07T10:55:40Z</time>
      </trkpt>
      <trkpt lat="45.47405" lon="5.77842">
        <ele>961.3242649</ele>
        <time>2015-07-07T10:55:45Z</time>
      </trkpt>
      <trkpt lat="45.4741" lon="5.77848">
        <ele>961.3242649</ele>
        <time>2015-07-07T10:55:51Z</time>
      </trkpt>
      <trkpt lat="45.47416" lon="5.77856">
        <ele>963.666597902</ele>
        <time>2015-07-07T10:55:56Z</time>
      </trkpt>
      <trkpt lat="45.47425" lon="5.77867">
        <ele>966.210282128</ele>
        <time>2015-07-07T10:56:06Z</time>
      </trkpt>
      <trkpt lat="45.47425" lon="5.77877">
        <ele>966.210282128</ele>
        <time>2015-07-07T10:56:11Z</time>
      </trkpt>
      <trkpt lat="45.47428" lon="5.77913">
        <ele>968.941768884</ele>
        <time>2015-07-07T10:56:26Z</time>
      </trkpt>
      <trkpt lat="45.47429" lon="5.77924">
        <ele>968.941768884</ele>
        <time>2015-07-07T10:56:31Z</time>
      </trkpt>
      <trkpt lat="45.47433" lon="5.77947">
        <ele>971.271491144</ele>
        <time>2015-07-07T10:56:40Z</time>
      </trkpt>
      <trkpt lat="45.47434" lon="5.7795">
        <ele>971.271491144</ele>
        <time>2015-07-07T10:56:46Z</time>
      </trkpt>
      <trkpt lat="45.47441" lon="5.7798">
        <ele>973.807221099</ele>
        <time>2015-07-07T10:56:56Z</time>
      </trkpt>
      <trkpt lat="45.47442" lon="5.77988">
        <ele>973.807221099</ele>
        <time>2015-07-07T10:57:00Z</time>
      </trkpt>
      <trkpt lat="45.4745" lon="5.78012">
        <ele>975.958550493</ele>
        <time>2015-07-07T10:57:10Z</time>
      </trkpt>
      <trkpt lat="45.47453" lon="5.78023">
        <ele>975.958550493</ele>
        <time>2015-07-07T10:57:16Z</time>
      </trkpt>
      <trkpt lat="45.47466" lon="5.78032">
        <ele>977.323607801</ele>
        <time>2015-07-07T10:57:26Z</time>
      </trkpt>
      <trkpt lat="45.47469" lon="5.7804">
        <ele>977.323607801</ele>
        <time>2015-07-07T10:57:31Z</time>
      </trkpt>
      <trkpt lat="45.47476" lon="5.78056">
        <ele>978.973336509</ele>
        <time>2015-07-07T10:57:40Z</time>
      </trkpt>
      <trkpt lat="45.47484" lon="5.78065">
        <ele>981.178593346</ele>
        <time>2015-07-07T10:57:46Z</time>
      </trkpt>
      <trkpt lat="45.47489" lon="5.78086">
        <ele>982.459377853</ele>
        <time>2015-07-07T10:57:56Z</time>
      </trkpt>
      <trkpt lat="45.47486" lon="5.78096">
        <ele>982.459377853</ele>
        <time>2015-07-07T10:58:00Z</time>
      </trkpt>
      <trkpt lat="45.47494" lon="5.78112">
        <ele>984.185083835</ele>
        <time>2015-07-07T10:58:10Z</time>
      </trkpt>
      <trkpt lat="45.47501" lon="5.7812">
        <ele>984.185083835</ele>
        <time>2015-07-07T10:58:16Z</time>
      </trkpt>
      <trkpt lat="45.47512" lon="5.78132">
        <ele>986.182072678</ele>
        <time>2015-07-07T10:58:26Z</time>
      </trkpt>
      <trkpt lat="45.47521" lon="5.78144">
        <ele>987.4239534</ele>
        <time>2015-07-07T10:58:30Z</time>
      </trkpt>
      <trkpt lat="45.47529" lon="5.78158">
        <ele>988.691130547</ele>
        <time>2015-07-07T10:58:45Z</time>
      </trkpt>
      <trkpt lat="45.47541" lon="5.7819">
        <ele>991.427103106</ele>
        <time>2015-07-07T10:59:01Z</time>
      </trkpt>
      <trkpt lat="45.47551" lon="5.78202">
        <ele>993.650522584</ele>
        <time>2015-07-07T10:59:05Z</time>
      </trkpt>
      <trkpt lat="45.47557" lon="5.78223">
        <ele>995.976874889</ele>
        <time>2015-07-07T10:59:16Z</time>
      </trkpt>
      <trkpt lat="45.47557" lon="5.7823">
        <ele>995.976874889</ele>
        <time>2015-07-07T10:59:21Z</time>
      </trkpt>
      <trkpt lat="45.47563" lon="5.78242">
        <ele>997.823153933</ele>
        <time>2015-07-07T10:59:31Z</time>
      </trkpt>
      <trkpt lat="45.47569" lon="5.78246">
        <ele>997.823153933</ele>
        <time>2015-07-07T10:59:35Z</time>
      </trkpt>
      <trkpt lat="45.47592" lon="5.78239">
        <ele>999.082790771</ele>
        <time>2015-07-07T10:59:46Z</time>
      </trkpt>
      <trkpt lat="45.47597" lon="5.78251">
        <ele>999.802725128</ele>
        <time>2015-07-07T10:59:51Z</time>
      </trkpt>
      <trkpt lat="45.47605" lon="5.78289">
        <ele>1000.748452279</ele>
        <time>2015-07-07T11:00:01Z</time>
      </trkpt>
      <trkpt lat="45.47615" lon="5.78296">
        <ele>1001.475592464</ele>
        <time>2015-07-07T11:00:06Z</time>
      </trkpt>
      <trkpt lat="45.47631" lon="5.78292">
        <ele>1002.581728779</ele>
        <time>2015-07-07T11:00:16Z</time>
      </trkpt>
      <trkpt lat="45.47641" lon="5.78296">
        <ele>1003.754688844</ele>
        <time>2015-07-07T11:00:21Z</time>
      </trkpt>
      <trkpt lat="45.4765" lon="5.78307">
        <ele>1005.71374131</ele>
        <time>2015-07-07T11:00:31Z</time>
      </trkpt>
      <trkpt lat="45.47659" lon="5.78306">
        <ele>1005.71374131</ele>
        <time>2015-07-07T11:00:35Z</time>
      </trkpt>
      <trkpt lat="45.47663" lon="5.78338">
        <ele>1007.970083956</ele>
        <time>2015-07-07T11:00:46Z</time>
      </trkpt>
      <trkpt lat="45.47679" lon="5.78333">
        <ele>1009.34930878</ele>
        <time>2015-07-07T11:00:51Z</time>
      </trkpt>
      <trkpt lat="45.47695" lon="5.78319">
        <ele>1010.927358586</ele>
        <time>2015-07-07T11:01:06Z</time>
      </trkpt>
      <trkpt lat="45.47692" lon="5.78325">
        <ele>1010.927358586</ele>
        <time>2015-07-07T11:01:11Z</time>
      </trkpt>
      <trkpt lat="45.47683" lon="5.78354">
        <ele>1012.691673623</ele>
        <time>2015-07-07T11:01:21Z</time>
      </trkpt>
      <trkpt lat="45.47688" lon="5.78364">
        <ele>1012.691673623</ele>
        <time>2015-07-07T11:01:25Z</time>
      </trkpt>
      <trkpt lat="45.47701" lon="5.78382">
        <ele>1014.05353825</ele>
        <time>2015-07-07T11:01:36Z</time>
      </trkpt>
      <trkpt lat="45.47707" lon="5.78388">
        <ele>1014.05353825</ele>
        <time>2015-07-07T11:01:40Z</time>
      </trkpt>
      <trkpt lat="45.47724" lon="5.78397">
        <ele>1016.053773176</ele>
        <time>2015-07-07T11:01:51Z</time>
      </trkpt>
      <trkpt lat="45.47728" lon="5.78404">
        <ele>1016.053773176</ele>
        <time>2015-07-07T11:01:55Z</time>
      </trkpt>
      <trkpt lat="45.47748" lon="5.78414">
        <ele>1018.501940337</ele>
        <time>2015-07-07T11:02:06Z</time>
      </trkpt>
      <trkpt lat="45.47756" lon="5.78415">
        <ele>1018.501940337</ele>
        <time>2015-07-07T11:02:11Z</time>
      </trkpt>
      <trkpt lat="45.47772" lon="5.78428">
        <ele>1020.49967879</ele>
        <time>2015-07-07T11:02:21Z</time>
      </trkpt>
      <trkpt lat="45.47779" lon="5.78428">
        <ele>1020.49967879</ele>
        <time>2015-07-07T11:02:25Z</time>
      </trkpt>
      <trkpt lat="45.47797" lon="5.78434">
        <ele>1022.945168059</ele>
        <time>2015-07-07T11:02:36Z</time>
      </trkpt>
      <trkpt lat="45.47805" lon="5.78433">
        <ele>1022.945168059</ele>
        <time>2015-07-07T11:02:41Z</time>
      </trkpt>
      <trkpt lat="45.47815" lon="5.78439">
        <ele>1026.525159981</ele>
        <time>2015-07-07T11:02:51Z</time>
      </trkpt>
      <trkpt lat="45.47822" lon="5.78443">
        <ele>1026.525159981</ele>
        <time>2015-07-07T11:02:55Z</time>
      </trkpt>
      <trkpt lat="45.47842" lon="5.78452">
        <ele>1029.711013417</ele>
        <time>2015-07-07T11:03:06Z</time>
      </trkpt>
      <trkpt lat="45.47854" lon="5.78458">
        <ele>1032.384457946</ele>
        <time>2015-07-07T11:03:11Z</time>
      </trkpt>
      <trkpt lat="45.4786" lon="5.78466">
        <ele>1032.384457946</ele>
        <time>2015-07-07T11:03:21Z</time>
      </trkpt>
      <trkpt lat="45.47865" lon="5.78463">
        <ele>1035.157872006</ele>
        <time>2015-07-07T11:03:25Z</time>
      </trkpt>
      <trkpt lat="45.47877" lon="5.78464">
        <ele>1038.454224406</ele>
        <time>2015-07-07T11:03:35Z</time>
      </trkpt>
      <trkpt lat="45.47884" lon="5.78465">
        <ele>1038.454224406</ele>
        <time>2015-07-07T11:03:41Z</time>
      </trkpt>
      <trkpt lat="45.47903" lon="5.78478">
        <ele>1041.94336466</ele>
        <time>2015-07-07T11:03:51Z</time>
      </trkpt>
      <trkpt lat="45.47908" lon="5.78484">
        <ele>1041.94336466</ele>
        <time>2015-07-07T11:03:55Z</time>
      </trkpt>
      <trkpt lat="45.47931" lon="5.78499">
        <ele>1046.471747193</ele>
        <time>2015-07-07T11:04:11Z</time>
      </trkpt>
      <trkpt lat="45.47937" lon="5.78504">
        <ele>1046.471747193</ele>
        <time>2015-07-07T11:04:15Z</time>
      </trkpt>
      <trkpt lat="45.47949" lon="5.78524">
        <ele>1050.659056619</ele>
        <time>2015-07-07T11:04:25Z</time>
      </trkpt>
      <trkpt lat="45.47955" lon="5.78526">
        <ele>1050.659056619</ele>
        <time>2015-07-07T11:04:31Z</time>
      </trkpt>
      <trkpt lat="45.47961" lon="5.78538">
        <ele>1055.100815282</ele>
        <time>2015-07-07T11:04:40Z</time>
      </trkpt>
      <trkpt lat="45.47968" lon="5.78546">
        <ele>1060.059901699</ele>
        <time>2015-07-07T11:04:46Z</time>
      </trkpt>
      <trkpt lat="45.47981" lon="5.78571">
        <ele>1064.913821906</ele>
        <time>2015-07-07T11:04:56Z</time>
      </trkpt>
      <trkpt lat="45.47987" lon="5.78576">
        <ele>1064.913821906</ele>
        <time>2015-07-07T11:05:01Z</time>
      </trkpt>
      <trkpt lat="45.47997" lon="5.78596">
        <ele>1069.230294692</ele>
        <time>2015-07-07T11:05:10Z</time>
      </trkpt>
      <trkpt lat="45.48004" lon="5.78603">
        <ele>1069.230294692</ele>
        <time>2015-07-07T11:05:16Z</time>
      </trkpt>
      <trkpt lat="45.48018" lon="5.78607">
        <ele>1074.195621634</ele>
        <time>2015-07-07T11:05:26Z</time>
      </trkpt>
      <trkpt lat="45.48024" lon="5.78618">
        <ele>1078.457349984</ele>
        <time>2015-07-07T11:05:31Z</time>
      </trkpt>
      <trkpt lat="45.48039" lon="5.78631">
        <ele>1082.493807881</ele>
        <time>2015-07-07T11:05:40Z</time>
      </trkpt>
      <trkpt lat="45.48047" lon="5.78633">
        <ele>1082.493807881</ele>
        <time>2015-07-07T11:05:46Z</time>
      </trkpt>
      <trkpt lat="45.48065" lon="5.78648">
        <ele>1087.901837178</ele>
        <time>2015-07-07T11:06:01Z</time>
      </trkpt>
      <trkpt lat="45.48072" lon="5.78653">
        <ele>1087.901837178</ele>
        <time>2015-07-07T11:06:05Z</time>
      </trkpt>
      <trkpt lat="45.48083" lon="5.78664">
        <ele>1093.707377278</ele>
        <time>2015-07-07T11:06:16Z</time>
      </trkpt>
      <trkpt lat="45.4809" lon="5.78678">
        <ele>1098.574625683</ele>
        <time>2015-07-07T11:06:21Z</time>
      </trkpt>
      <trkpt lat="45.48104" lon="5.78693">
        <ele>1102.709814538</ele>
        <time>2015-07-07T11:06:31Z</time>
      </trkpt>
      <trkpt lat="45.48112" lon="5.78692">
        <ele>1102.709814538</ele>
        <time>2015-07-07T11:06:35Z</time>
      </trkpt>
      <trkpt lat="45.4813" lon="5.78704">
        <ele>1106.162138031</ele>
        <time>2015-07-07T11:06:46Z</time>
      </trkpt>
      <trkpt lat="45.48131" lon="5.78708">
        <ele>1106.162138031</ele>
        <time>2015-07-07T11:06:51Z</time>
      </trkpt>
      <trkpt lat="45.48135" lon="5.78706">
        <ele>1106.162138031</ele>
        <time>2015-07-07T11:06:55Z</time>
      </trkpt>
      <trkpt lat="45.48154" lon="5.7871">
        <ele>1109.123374573</ele>
        <time>2015-07-07T11:07:01Z</time>
      </trkpt>
      <trkpt lat="45.48171" lon="5.78709">
        <ele>1112.637427929</ele>
        <time>2015-07-07T11:07:10Z</time>
      </trkpt>
      <trkpt lat="45.48178" lon="5.78715">
        <ele>1112.637427929</ele>
        <time>2015-07-07T11:07:15Z</time>
      </trkpt>
      <trkpt lat="45.48194" lon="5.78724">
        <ele>1115.652571505</ele>
        <time>2015-07-07T11:07:25Z</time>
      </trkpt>
      <trkpt lat="45.48198" lon="5.78717">
        <ele>1115.652571505</ele>
        <time>2015-07-07T11:07:30Z</time>
      </trkpt>
      <trkpt lat="45.48216" lon="5.78704">
        <ele>1118.060557673</ele>
        <time>2015-07-07T11:07:45Z</time>
      </trkpt>
      <trkpt lat="45.48226" lon="5.78696">
        <ele>1120.627604051</ele>
        <time>2015-07-07T11:07:50Z</time>
      </trkpt>
      <trkpt lat="45.48247" lon="5.78691">
        <ele>1122.189880696</ele>
        <time>2015-07-07T11:08:01Z</time>
      </trkpt>
      <trkpt lat="45.48253" lon="5.78692">
        <ele>1122.189880696</ele>
        <time>2015-07-07T11:08:06Z</time>
      </trkpt>
      <trkpt lat="45.48272" lon="5.78694">
        <ele>1123.689542801</ele>
        <time>2015-07-07T11:08:16Z</time>
      </trkpt>
      <trkpt lat="45.4828" lon="5.78686">
        <ele>1125.279253411</ele>
        <time>2015-07-07T11:08:20Z</time>
      </trkpt>
      <trkpt lat="45.48297" lon="5.78684">
        <ele>1127.388512612</ele>
        <time>2015-07-07T11:08:31Z</time>
      </trkpt>
      <trkpt lat="45.48305" lon="5.78682">
        <ele>1127.388512612</ele>
        <time>2015-07-07T11:08:36Z</time>
      </trkpt>
      <trkpt lat="45.48321" lon="5.78681">
        <ele>1129.693321752</ele>
        <time>2015-07-07T11:08:46Z</time>
      </trkpt>
      <trkpt lat="45.48331" lon="5.78685">
        <ele>1131.172428869</ele>
        <time>2015-07-07T11:08:50Z</time>
      </trkpt>
      <trkpt lat="45.48348" lon="5.78686">
        <ele>1132.611291109</ele>
        <time>2015-07-07T11:09:01Z</time>
      </trkpt>
      <trkpt lat="45.48356" lon="5.78686">
        <ele>1132.611291109</ele>
        <time>2015-07-07T11:09:06Z</time>
      </trkpt>
      <trkpt lat="45.48375" lon="5.78695">
        <ele>1134.593692962</ele>
        <time>2015-07-07T11:09:16Z</time>
      </trkpt>
      <trkpt lat="45.48382" lon="5.78694">
        <ele>1134.593692962</ele>
        <time>2015-07-07T11:09:20Z</time>
      </trkpt>
      <trkpt lat="45.48405" lon="5.78695">
        <ele>1137.082578145</ele>
        <time>2015-07-07T11:09:31Z</time>
      </trkpt>
      <trkpt lat="45.48415" lon="5.78696">
        <ele>1139.465750002</ele>
        <time>2015-07-07T11:09:36Z</time>
      </trkpt>
      <trkpt lat="45.48432" lon="5.78702">
        <ele>1141.46449788</ele>
        <time>2015-07-07T11:09:46Z</time>
      </trkpt>
      <trkpt lat="45.48435" lon="5.787">
        <ele>1141.46449788</ele>
        <time>2015-07-07T11:09:50Z</time>
      </trkpt>
      <trkpt lat="45.48455" lon="5.78702">
        <ele>1143.542208811</ele>
        <time>2015-07-07T11:10:00Z</time>
      </trkpt>
      <trkpt lat="45.48464" lon="5.78704">
        <ele>1145.263322957</ele>
        <time>2015-07-07T11:10:05Z</time>
      </trkpt>
      <trkpt lat="45.48478" lon="5.78708">
        <ele>1146.513473643</ele>
        <time>2015-07-07T11:10:15Z</time>
      </trkpt>
      <trkpt lat="45.48487" lon="5.78707">
        <ele>1148.196761405</ele>
        <time>2015-07-07T11:10:21Z</time>
      </trkpt>
      <trkpt lat="45.48516" lon="5.78723">
        <ele>1149.13205529</ele>
        <time>2015-07-07T11:10:35Z</time>
      </trkpt>
      <trkpt lat="45.48519" lon="5.78719">
        <ele>1149.13205529</ele>
        <time>2015-07-07T11:10:41Z</time>
      </trkpt>
      <trkpt lat="45.48531" lon="5.78716">
        <ele>1149.668145205</ele>
        <time>2015-07-07T11:10:50Z</time>
      </trkpt>
      <trkpt lat="45.48541" lon="5.78717">
        <ele>1150.417474429</ele>
        <time>2015-07-07T11:10:56Z</time>
      </trkpt>
      <trkpt lat="45.48563" lon="5.7871">
        <ele>1150.361594058</ele>
        <time>2015-07-07T11:11:06Z</time>
      </trkpt>
      <trkpt lat="45.48572" lon="5.78723">
        <ele>1149.711922526</ele>
        <time>2015-07-07T11:11:10Z</time>
      </trkpt>
      <trkpt lat="45.48587" lon="5.7875">
        <ele>1149.530568531</ele>
        <time>2015-07-07T11:11:21Z</time>
      </trkpt>
      <trkpt lat="45.48591" lon="5.78768">
        <ele>1149.359064256</ele>
        <time>2015-07-07T11:11:26Z</time>
      </trkpt>
      <trkpt lat="45.48588" lon="5.78802">
        <ele>1148.340113563</ele>
        <time>2015-07-07T11:11:36Z</time>
      </trkpt>
      <trkpt lat="45.48591" lon="5.78816">
        <ele>1146.978612034</ele>
        <time>2015-07-07T11:11:40Z</time>
      </trkpt>
      <trkpt lat="45.48591" lon="5.78847">
        <ele>1145.166701065</ele>
        <time>2015-07-07T11:11:51Z</time>
      </trkpt>
      <trkpt lat="45.4859" lon="5.78848">
        <ele>1145.166701065</ele>
        <time>2015-07-07T11:11:56Z</time>
      </trkpt>
      <trkpt lat="45.48601" lon="5.78872">
        <ele>1143.814288295</ele>
        <time>2015-07-07T11:12:06Z</time>
      </trkpt>
      <trkpt lat="45.48608" lon="5.78889">
        <ele>1142.754155882</ele>
        <time>2015-07-07T11:12:11Z</time>
      </trkpt>
      <trkpt lat="45.48616" lon="5.78904">
        <ele>1141.542094755</ele>
        <time>2015-07-07T11:12:15Z</time>
      </trkpt>
      <trkpt lat="45.48619" lon="5.78918">
        <ele>1140.05492932</ele>
        <time>2015-07-07T11:12:20Z</time>
      </trkpt>
      <trkpt lat="45.48631" lon="5.78935">
        <ele>1138.323156888</ele>
        <time>2015-07-07T11:12:26Z</time>
      </trkpt>
      <trkpt lat="45.48635" lon="5.78945">
        <ele>1136.66367364</ele>
        <time>2015-07-07T11:12:30Z</time>
      </trkpt>
      <trkpt lat="45.48651" lon="5.78977">
        <ele>1134.937280463</ele>
        <time>2015-07-07T11:12:41Z</time>
      </trkpt>
      <trkpt lat="45.4866" lon="5.78989">
        <ele>1133.303124328</ele>
        <time>2015-07-07T11:12:46Z</time>
      </trkpt>
      <trkpt lat="45.48679" lon="5.79006">
        <ele>1132.052216826</ele>
        <time>2015-07-07T11:12:55Z</time>
      </trkpt>
      <trkpt lat="45.48694" lon="5.79016">
        <ele>1131.308704292</ele>
        <time>2015-07-07T11:13:01Z</time>
      </trkpt>
      <trkpt lat="45.48715" lon="5.7902">
        <ele>1131.474110823</ele>
        <time>2015-07-07T11:13:11Z</time>
      </trkpt>
      <trkpt lat="45.48728" lon="5.79029">
        <ele>1131.188282701</ele>
        <time>2015-07-07T11:13:15Z</time>
      </trkpt>
      <trkpt lat="45.48756" lon="5.79052">
        <ele>1129.768399327</ele>
        <time>2015-07-07T11:13:31Z</time>
      </trkpt>
      <trkpt lat="45.48769" lon="5.79061">
        <ele>1128.458138201</ele>
        <time>2015-07-07T11:13:35Z</time>
      </trkpt>
      <trkpt lat="45.48791" lon="5.79053">
        <ele>1127.544559146</ele>
        <time>2015-07-07T11:13:45Z</time>
      </trkpt>
      <trkpt lat="45.48802" lon="5.79062">
        <ele>1126.427574412</ele>
        <time>2015-07-07T11:13:50Z</time>
      </trkpt>
      <trkpt lat="45.48838" lon="5.79071">
        <ele>1125.272026876</ele>
        <time>2015-07-07T11:14:01Z</time>
      </trkpt>
      <trkpt lat="45.48845" lon="5.79085">
        <ele>1123.65403863</ele>
        <time>2015-07-07T11:14:06Z</time>
      </trkpt>
      <trkpt lat="45.48871" lon="5.791">
        <ele>1121.902450383</ele>
        <time>2015-07-07T11:14:16Z</time>
      </trkpt>
      <trkpt lat="45.48883" lon="5.79099">
        <ele>1120.466162414</ele>
        <time>2015-07-07T11:14:21Z</time>
      </trkpt>
      <trkpt lat="45.4891" lon="5.79095">
        <ele>1119.183502394</ele>
        <time>2015-07-07T11:14:31Z</time>
      </trkpt>
      <trkpt lat="45.48924" lon="5.79085">
        <ele>1117.903978955</ele>
        <time>2015-07-07T11:14:36Z</time>
      </trkpt>
      <trkpt lat="45.48947" lon="5.79087">
        <ele>1116.631998077</ele>
        <time>2015-07-07T11:14:45Z</time>
      </trkpt>
      <trkpt lat="45.48957" lon="5.79081">
        <ele>1115.515477934</ele>
        <time>2015-07-07T11:14:51Z</time>
      </trkpt>
      <trkpt lat="45.48992" lon="5.79109">
        <ele>1113.537896242</ele>
        <time>2015-07-07T11:15:06Z</time>
      </trkpt>
      <trkpt lat="45.49002" lon="5.79119">
        <ele>1111.777131769</ele>
        <time>2015-07-07T11:15:10Z</time>
      </trkpt>
      <trkpt lat="45.49018" lon="5.79132">
        <ele>1109.93403434</ele>
        <time>2015-07-07T11:15:21Z</time>
      </trkpt>
      <trkpt lat="45.49026" lon="5.79141">
        <ele>1108.163757269</ele>
        <time>2015-07-07T11:15:26Z</time>
      </trkpt>
      <trkpt lat="45.49042" lon="5.79152">
        <ele>1106.753730654</ele>
        <time>2015-07-07T11:15:36Z</time>
      </trkpt>
      <trkpt lat="45.49052" lon="5.79166">
        <ele>1105.824921498</ele>
        <time>2015-07-07T11:15:40Z</time>
      </trkpt>
      <trkpt lat="45.49055" lon="5.79197">
        <ele>1104.911396588</ele>
        <time>2015-07-07T11:15:51Z</time>
      </trkpt>
      <trkpt lat="45.49048" lon="5.79215">
        <ele>1103.581196258</ele>
        <time>2015-07-07T11:15:56Z</time>
      </trkpt>
      <trkpt lat="45.49049" lon="5.79237">
        <ele>1102.587949973</ele>
        <time>2015-07-07T11:16:06Z</time>
      </trkpt>
      <trkpt lat="45.49042" lon="5.79256">
        <ele>1101.620012259</ele>
        <time>2015-07-07T11:16:10Z</time>
      </trkpt>
      <trkpt lat="45.49037" lon="5.79279">
        <ele>1100.820713416</ele>
        <time>2015-07-07T11:16:21Z</time>
      </trkpt>
      <trkpt lat="45.49039" lon="5.79292">
        <ele>1100.610435483</ele>
        <time>2015-07-07T11:16:26Z</time>
      </trkpt>
      <trkpt lat="45.49037" lon="5.79318">
        <ele>1100.80042731</ele>
        <time>2015-07-07T11:16:36Z</time>
      </trkpt>
      <trkpt lat="45.49035" lon="5.79333">
        <ele>1101.358652117</ele>
        <time>2015-07-07T11:16:41Z</time>
      </trkpt>
      <trkpt lat="45.49034" lon="5.79365">
        <ele>1101.82193798</ele>
        <time>2015-07-07T11:16:50Z</time>
      </trkpt>
      <trkpt lat="45.49024" lon="5.79374">
        <ele>1101.328965138</ele>
        <time>2015-07-07T11:16:55Z</time>
      </trkpt>
      <trkpt lat="45.49007" lon="5.79393">
        <ele>1100.669501881</ele>
        <time>2015-07-07T11:17:05Z</time>
      </trkpt>
      <trkpt lat="45.49" lon="5.79402">
        <ele>1100.669501881</ele>
        <time>2015-07-07T11:17:11Z</time>
      </trkpt>
      <trkpt lat="45.49001" lon="5.79433">
        <ele>1100.143357692</ele>
        <time>2015-07-07T11:17:25Z</time>
      </trkpt>
      <trkpt lat="45.49003" lon="5.79443">
        <ele>1100.143357692</ele>
        <time>2015-07-07T11:17:31Z</time>
      </trkpt>
      <trkpt lat="45.49019" lon="5.79468">
        <ele>1101.03665848</ele>
        <time>2015-07-07T11:17:41Z</time>
      </trkpt>
      <trkpt lat="45.4902" lon="5.79484">
        <ele>1101.798906085</ele>
        <time>2015-07-07T11:17:45Z</time>
      </trkpt>
      <trkpt lat="45.49023" lon="5.7951">
        <ele>1103.011388046</ele>
        <time>2015-07-07T11:17:55Z</time>
      </trkpt>
      <trkpt lat="45.49028" lon="5.7952">
        <ele>1103.011388046</ele>
        <time>2015-07-07T11:18:00Z</time>
      </trkpt>
      <trkpt lat="45.49034" lon="5.79527">
        <ele>1104.923186914</ele>
        <time>2015-07-07T11:18:05Z</time>
      </trkpt>
      <trkpt lat="45.49045" lon="5.79552">
        <ele>1106.177904029</ele>
        <time>2015-07-07T11:18:16Z</time>
      </trkpt>
      <trkpt lat="45.49049" lon="5.79557">
        <ele>1106.177904029</ele>
        <time>2015-07-07T11:18:20Z</time>
      </trkpt>
      <trkpt lat="45.49063" lon="5.79566">
        <ele>1108.402869455</ele>
        <time>2015-07-07T11:18:30Z</time>
      </trkpt>
      <trkpt lat="45.49071" lon="5.79574">
        <ele>1110.797413361</ele>
        <time>2015-07-07T11:18:35Z</time>
      </trkpt>
      <trkpt lat="45.49084" lon="5.79591">
        <ele>1113.48393939</ele>
        <time>2015-07-07T11:18:45Z</time>
      </trkpt>
      <trkpt lat="45.49093" lon="5.79598">
        <ele>1115.85457147</ele>
        <time>2015-07-07T11:18:50Z</time>
      </trkpt>
      <trkpt lat="45.491" lon="5.79603">
        <ele>1115.85457147</ele>
        <time>2015-07-07T11:19:00Z</time>
      </trkpt>
      <trkpt lat="45.49107" lon="5.7961">
        <ele>1117.923526385</ele>
        <time>2015-07-07T11:19:05Z</time>
      </trkpt>
      <trkpt lat="45.49117" lon="5.79616">
        <ele>1120.281394529</ele>
        <time>2015-07-07T11:19:15Z</time>
      </trkpt>
      <trkpt lat="45.49127" lon="5.79618">
        <ele>1123.330605331</ele>
        <time>2015-07-07T11:19:20Z</time>
      </trkpt>
      <trkpt lat="45.49143" lon="5.79622">
        <ele>1126.721693217</ele>
        <time>2015-07-07T11:19:30Z</time>
      </trkpt>
      <trkpt lat="45.49155" lon="5.79623">
        <ele>1130.562419444</ele>
        <time>2015-07-07T11:19:35Z</time>
      </trkpt>
      <trkpt lat="45.49173" lon="5.79618">
        <ele>1134.95156915</ele>
        <time>2015-07-07T11:19:50Z</time>
      </trkpt>
      <trkpt lat="45.49189" lon="5.79625">
        <ele>1139.547022047</ele>
        <time>2015-07-07T11:20:05Z</time>
      </trkpt>
      <trkpt lat="45.49196" lon="5.79622">
        <ele>1139.547022047</ele>
        <time>2015-07-07T11:20:10Z</time>
      </trkpt>
      <trkpt lat="45.49211" lon="5.79631">
        <ele>1144.319679312</ele>
        <time>2015-07-07T11:20:20Z</time>
      </trkpt>
      <trkpt lat="45.49217" lon="5.79629">
        <ele>1144.319679312</ele>
        <time>2015-07-07T11:20:25Z</time>
      </trkpt>
      <trkpt lat="45.49223" lon="5.79624">
        <ele>1148.521794247</ele>
        <time>2015-07-07T11:20:35Z</time>
      </trkpt>
      <trkpt lat="45.49232" lon="5.79625">
        <ele>1152.327103379</ele>
        <time>2015-07-07T11:20:40Z</time>
      </trkpt>
      <trkpt lat="45.49248" lon="5.79627">
        <ele>1156.330330083</ele>
        <time>2015-07-07T11:20:50Z</time>
      </trkpt>
      <trkpt lat="45.49252" lon="5.79618">
        <ele>1156.330330083</ele>
        <time>2015-07-07T11:20:55Z</time>
      </trkpt>
      <trkpt lat="45.49264" lon="5.79607">
        <ele>1160.938159664</ele>
        <time>2015-07-07T11:21:05Z</time>
      </trkpt>
      <trkpt lat="45.4927" lon="5.79603">
        <ele>1160.938159664</ele>
        <time>2015-07-07T11:21:10Z</time>
      </trkpt>
      <trkpt lat="45.49281" lon="5.79593">
        <ele>1164.940810171</ele>
        <time>2015-07-07T11:21:20Z</time>
      </trkpt>
      <trkpt lat="45.49284" lon="5.79591">
        <ele>1164.940810171</ele>
        <time>2015-07-07T11:21:25Z</time>
      </trkpt>
      <trkpt lat="45.49294" lon="5.79576">
        <ele>1168.660513638</ele>
        <time>2015-07-07T11:21:35Z</time>
      </trkpt>
      <trkpt lat="45.49301" lon="5.79567">
        <ele>1172.541077481</ele>
        <time>2015-07-07T11:21:40Z</time>
      </trkpt>
      <trkpt lat="45.49323" lon="5.79568">
        <ele>1176.417157201</ele>
        <time>2015-07-07T11:21:55Z</time>
      </trkpt>
      <trkpt lat="45.49329" lon="5.79572">
        <ele>1176.417157201</ele>
        <time>2015-07-07T11:22:00Z</time>
      </trkpt>
      <trkpt lat="45.4934" lon="5.79571">
        <ele>1181.000583015</ele>
        <time>2015-07-07T11:22:10Z</time>
      </trkpt>
      <trkpt lat="45.49346" lon="5.79576">
        <ele>1181.000583015</ele>
        <time>2015-07-07T11:22:15Z</time>
      </trkpt>
      <trkpt lat="45.49355" lon="5.79583">
        <ele>1184.643481689</ele>
        <time>2015-07-07T11:22:25Z</time>
      </trkpt>
      <trkpt lat="45.49365" lon="5.79589">
        <ele>1188.127799174</ele>
        <time>2015-07-07T11:22:30Z</time>
      </trkpt>
      <trkpt lat="45.49379" lon="5.79588">
        <ele>1191.890611711</ele>
        <time>2015-07-07T11:22:40Z</time>
      </trkpt>
      <trkpt lat="45.49386" lon="5.79592">
        <ele>1191.890611711</ele>
        <time>2015-07-07T11:22:45Z</time>
      </trkpt>
      <trkpt lat="45.49398" lon="5.796">
        <ele>1196.048231268</ele>
        <time>2015-07-07T11:22:55Z</time>
      </trkpt>
      <trkpt lat="45.49405" lon="5.79606">
        <ele>1196.048231268</ele>
        <time>2015-07-07T11:23:00Z</time>
      </trkpt>
      <trkpt lat="45.49424" lon="5.79625">
        <ele>1200.275327639</ele>
        <time>2015-07-07T11:23:15Z</time>
      </trkpt>
      <trkpt lat="45.49428" lon="5.79632">
        <ele>1200.275327639</ele>
        <time>2015-07-07T11:23:20Z</time>
      </trkpt>
      <trkpt lat="45.49441" lon="5.79646">
        <ele>1204.847059506</ele>
        <time>2015-07-07T11:23:30Z</time>
      </trkpt>
      <trkpt lat="45.49447" lon="5.79653">
        <ele>1204.847059506</ele>
        <time>2015-07-07T11:23:35Z</time>
      </trkpt>
      <trkpt lat="45.49455" lon="5.79674">
        <ele>1207.856074513</ele>
        <time>2015-07-07T11:23:45Z</time>
      </trkpt>
      <trkpt lat="45.49456" lon="5.79685">
        <ele>1207.856074513</ele>
        <time>2015-07-07T11:23:50Z</time>
      </trkpt>
      <trkpt lat="45.49471" lon="5.79703">
        <ele>1210.422070277</ele>
        <time>2015-07-07T11:24:00Z</time>
      </trkpt>
      <trkpt lat="45.49474" lon="5.79719">
        <ele>1212.863498606</ele>
        <time>2015-07-07T11:24:05Z</time>
      </trkpt>
      <trkpt lat="45.4948" lon="5.79743">
        <ele>1214.755516098</ele>
        <time>2015-07-07T11:24:15Z</time>
      </trkpt>
      <trkpt lat="45.49484" lon="5.79758">
        <ele>1216.138647567</ele>
        <time>2015-07-07T11:24:20Z</time>
      </trkpt>
      <trkpt lat="45.49491" lon="5.7978">
        <ele>1217.340353434</ele>
        <time>2015-07-07T11:24:30Z</time>
      </trkpt>
      <trkpt lat="45.49498" lon="5.79788">
        <ele>1218.953009944</ele>
        <time>2015-07-07T11:24:35Z</time>
      </trkpt>
      <trkpt lat="45.49512" lon="5.79803">
        <ele>1220.515762652</ele>
        <time>2015-07-07T11:24:45Z</time>
      </trkpt>
      <trkpt lat="45.49519" lon="5.79806">
        <ele>1220.515762652</ele>
        <time>2015-07-07T11:24:50Z</time>
      </trkpt>
      <trkpt lat="45.49535" lon="5.79815">
        <ele>1221.601943499</ele>
        <time>2015-07-07T11:25:00Z</time>
      </trkpt>
      <trkpt lat="45.49546" lon="5.79818">
        <ele>1223.1147351</ele>
        <time>2015-07-07T11:25:05Z</time>
      </trkpt>
      <trkpt lat="45.49561" lon="5.79814">
        <ele>1225.313482398</ele>
        <time>2015-07-07T11:25:15Z</time>
      </trkpt>
      <trkpt lat="45.49568" lon="5.79814">
        <ele>1225.313482398</ele>
        <time>2015-07-07T11:25:20Z</time>
      </trkpt>
      <trkpt lat="45.49594" lon="5.79827">
        <ele>1226.707352693</ele>
        <time>2015-07-07T11:25:35Z</time>
      </trkpt>
      <trkpt lat="45.49598" lon="5.79827">
        <ele>1226.707352693</ele>
        <time>2015-07-07T11:25:40Z</time>
      </trkpt>
      <trkpt lat="45.49608" lon="5.79828">
        <ele>1229.520183075</ele>
        <time>2015-07-07T11:25:50Z</time>
      </trkpt>
      <trkpt lat="45.49616" lon="5.7983">
        <ele>1229.520183075</ele>
        <time>2015-07-07T11:25:55Z</time>
      </trkpt>
      <trkpt lat="45.49633" lon="5.79836">
        <ele>1232.638128147</ele>
        <time>2015-07-07T11:26:05Z</time>
      </trkpt>
      <trkpt lat="45.49643" lon="5.79842">
        <ele>1235.460739283</ele>
        <time>2015-07-07T11:26:10Z</time>
      </trkpt>
      <trkpt lat="45.49657" lon="5.79854">
        <ele>1238.585485165</ele>
        <time>2015-07-07T11:26:20Z</time>
      </trkpt>
      <trkpt lat="45.49665" lon="5.79857">
        <ele>1238.585485165</ele>
        <time>2015-07-07T11:26:25Z</time>
      </trkpt>
      <trkpt lat="45.49681" lon="5.79868">
        <ele>1241.700517667</ele>
        <time>2015-07-07T11:26:35Z</time>
      </trkpt>
      <trkpt lat="45.49687" lon="5.79876">
        <ele>1241.700517667</ele>
        <time>2015-07-07T11:26:40Z</time>
      </trkpt>
      <trkpt lat="45.49694" lon="5.79888">
        <ele>1244.228785226</ele>
        <time>2015-07-07T11:26:50Z</time>
      </trkpt>
      <trkpt lat="45.49696" lon="5.79896">
        <ele>1244.228785226</ele>
        <time>2015-07-07T11:26:55Z</time>
      </trkpt>
      <trkpt lat="45.49697" lon="5.79899">
        <ele>1244.228785226</ele>
        <time>2015-07-07T11:27:00Z</time>
      </trkpt>
      <trkpt lat="45.49706" lon="5.79906">
        <ele>1246.790240497</ele>
        <time>2015-07-07T11:27:05Z</time>
      </trkpt>
      <trkpt lat="45.4971" lon="5.7991">
        <ele>1246.790240497</ele>
        <time>2015-07-07T11:27:10Z</time>
      </trkpt>
      <trkpt lat="45.4972" lon="5.79918">
        <ele>1249.238719454</ele>
        <time>2015-07-07T11:27:20Z</time>
      </trkpt>
      <trkpt lat="45.49721" lon="5.79924">
        <ele>1249.238719454</ele>
        <time>2015-07-07T11:27:25Z</time>
      </trkpt>
      <trkpt lat="45.49739" lon="5.79947">
        <ele>1252.447958783</ele>
        <time>2015-07-07T11:27:40Z</time>
      </trkpt>
      <trkpt lat="45.49746" lon="5.79965">
        <ele>1254.631437661</ele>
        <time>2015-07-07T11:27:50Z</time>
      </trkpt>
      <trkpt lat="45.49757" lon="5.79978">
        <ele>1256.15436028</ele>
        <time>2015-07-07T11:27:55Z</time>
      </trkpt>
      <trkpt lat="45.49771" lon="5.79995">
        <ele>1257.789335536</ele>
        <time>2015-07-07T11:28:00Z</time>
      </trkpt>
      <trkpt lat="45.49782" lon="5.79993">
        <ele>1259.099048311</ele>
        <time>2015-07-07T11:28:10Z</time>
      </trkpt>
      <trkpt lat="45.49793" lon="5.79998">
        <ele>1260.399798732</ele>
        <time>2015-07-07T11:28:15Z</time>
      </trkpt>
      <trkpt lat="45.49794" lon="5.79999">
        <ele>1260.399798732</ele>
        <time>2015-07-07T11:28:20Z</time>
      </trkpt>
      <trkpt lat="45.49801" lon="5.80005">
        <ele>1261.840574543</ele>
        <time>2015-07-07T11:28:25Z</time>
      </trkpt>
      <trkpt lat="45.49827" lon="5.8002">
        <ele>1262.838465838</ele>
        <time>2015-07-07T11:28:35Z</time>
      </trkpt>
      <trkpt lat="45.49848" lon="5.80031">
        <ele>1263.863386071</ele>
        <time>2015-07-07T11:28:40Z</time>
      </trkpt>
      <trkpt lat="45.49848" lon="5.80033">
        <ele>1263.863386071</ele>
        <time>2015-07-07T11:28:45Z</time>
      </trkpt>
      <trkpt lat="45.49848" lon="5.80034">
        <ele>1263.863386071</ele>
        <time>2015-07-07T11:28:55Z</time>
      </trkpt>
      <trkpt lat="45.49853" lon="5.80035">
        <ele>1263.863386071</ele>
        <time>2015-07-07T11:29:00Z</time>
      </trkpt>
      <trkpt lat="45.49874" lon="5.80059">
        <ele>1264.485955598</ele>
        <time>2015-07-07T11:29:16Z</time>
      </trkpt>
      <trkpt lat="45.49883" lon="5.8007">
        <ele>1265.174088534</ele>
        <time>2015-07-07T11:29:25Z</time>
      </trkpt>
      <trkpt lat="45.4989" lon="5.80076">
        <ele>1265.174088534</ele>
        <time>2015-07-07T11:29:30Z</time>
      </trkpt>
      <trkpt lat="45.49905" lon="5.80085">
        <ele>1266.361085946</ele>
        <time>2015-07-07T11:29:40Z</time>
      </trkpt>
      <trkpt lat="45.49908" lon="5.8009">
        <ele>1266.361085946</ele>
        <time>2015-07-07T11:29:45Z</time>
      </trkpt>
      <trkpt lat="45.49919" lon="5.80111">
        <ele>1267.582284692</ele>
        <time>2015-07-07T11:30:00Z</time>
      </trkpt>
      <trkpt lat="45.49924" lon="5.80127">
        <ele>1267.686424531</ele>
        <time>2015-07-07T11:30:05Z</time>
      </trkpt>
      <trkpt lat="45.49932" lon="5.80139">
        <ele>1267.627415917</ele>
        <time>2015-07-07T11:30:15Z</time>
      </trkpt>
      <trkpt lat="45.49938" lon="5.80143">
        <ele>1267.627415917</ele>
        <time>2015-07-07T11:30:20Z</time>
      </trkpt>
      <trkpt lat="45.49947" lon="5.80157">
        <ele>1269.15412116</ele>
        <time>2015-07-07T11:30:30Z</time>
      </trkpt>
      <trkpt lat="45.49949" lon="5.80163">
        <ele>1269.15412116</ele>
        <time>2015-07-07T11:30:35Z</time>
      </trkpt>
      <trkpt lat="45.49966" lon="5.80189">
        <ele>1271.000153554</ele>
        <time>2015-07-07T11:30:45Z</time>
      </trkpt>
      <trkpt lat="45.49972" lon="5.80196">
        <ele>1271.000153554</ele>
        <time>2015-07-07T11:30:50Z</time>
      </trkpt>
      <trkpt lat="45.49987" lon="5.80208">
        <ele>1272.855813733</ele>
        <time>2015-07-07T11:31:00Z</time>
      </trkpt>
      <trkpt lat="45.49993" lon="5.80212">
        <ele>1272.855813733</ele>
        <time>2015-07-07T11:31:05Z</time>
      </trkpt>
      <trkpt lat="45.50002" lon="5.80222">
        <ele>1275.586903976</ele>
        <time>2015-07-07T11:31:15Z</time>
      </trkpt>
      <trkpt lat="45.50008" lon="5.80224">
        <ele>1275.586903976</ele>
        <time>2015-07-07T11:31:20Z</time>
      </trkpt>
      <trkpt lat="45.50016" lon="5.80228">
        <ele>1279.272509332</ele>
        <time>2015-07-07T11:31:30Z</time>
      </trkpt>
      <trkpt lat="45.50025" lon="5.80229">
        <ele>1279.272509332</ele>
        <time>2015-07-07T11:31:35Z</time>
      </trkpt>
      <trkpt lat="45.50046" lon="5.80247">
        <ele>1283.118466772</ele>
        <time>2015-07-07T11:31:45Z</time>
      </trkpt>
      <trkpt lat="45.50048" lon="5.80249">
        <ele>1283.118466772</ele>
        <time>2015-07-07T11:31:50Z</time>
      </trkpt>
      <trkpt lat="45.50062" lon="5.80265">
        <ele>1285.235529822</ele>
        <time>2015-07-07T11:32:05Z</time>
      </trkpt>
      <trkpt lat="45.50068" lon="5.8027">
        <ele>1285.235529822</ele>
        <time>2015-07-07T11:32:10Z</time>
      </trkpt>
      <trkpt lat="45.50081" lon="5.80283">
        <ele>1287.769015539</ele>
        <time>2015-07-07T11:32:20Z</time>
      </trkpt>
      <trkpt lat="45.50093" lon="5.80277">
        <ele>1290.543751001</ele>
        <time>2015-07-07T11:32:26Z</time>
      </trkpt>
      <trkpt lat="45.50105" lon="5.80277">
        <ele>1292.676144841</ele>
        <time>2015-07-07T11:32:36Z</time>
      </trkpt>
      <trkpt lat="45.50111" lon="5.8028">
        <ele>1292.676144841</ele>
        <time>2015-07-07T11:32:40Z</time>
      </trkpt>
      <trkpt lat="45.50126" lon="5.80282">
        <ele>1296.807937685</ele>
        <time>2015-07-07T11:32:51Z</time>
      </trkpt>
      <trkpt lat="45.50135" lon="5.8029">
        <ele>1300.481383842</ele>
        <time>2015-07-07T11:32:56Z</time>
      </trkpt>
      <trkpt lat="45.50144" lon="5.80285">
        <ele>1304.302765516</ele>
        <time>2015-07-07T11:33:06Z</time>
      </trkpt>
      <trkpt lat="45.50149" lon="5.80284">
        <ele>1304.302765516</ele>
        <time>2015-07-07T11:33:10Z</time>
      </trkpt>
      <trkpt lat="45.50164" lon="5.80282">
        <ele>1307.536398304</ele>
        <time>2015-07-07T11:33:20Z</time>
      </trkpt>
      <trkpt lat="45.50166" lon="5.80283">
        <ele>1307.536398304</ele>
        <time>2015-07-07T11:33:26Z</time>
      </trkpt>
      <trkpt lat="45.5018" lon="5.80277">
        <ele>1311.231622667</ele>
        <time>2015-07-07T11:33:36Z</time>
      </trkpt>
      <trkpt lat="45.50187" lon="5.80274">
        <ele>1311.231622667</ele>
        <time>2015-07-07T11:33:40Z</time>
      </trkpt>
      <trkpt lat="45.50198" lon="5.80271">
        <ele>1315.206521663</ele>
        <time>2015-07-07T11:33:56Z</time>
      </trkpt>
      <trkpt lat="45.50207" lon="5.80272">
        <ele>1315.206521663</ele>
        <time>2015-07-07T11:34:00Z</time>
      </trkpt>
      <trkpt lat="45.50219" lon="5.80263">
        <ele>1318.715333665</ele>
        <time>2015-07-07T11:34:10Z</time>
      </trkpt>
      <trkpt lat="45.50228" lon="5.80255">
        <ele>1322.509530471</ele>
        <time>2015-07-07T11:34:16Z</time>
      </trkpt>
      <trkpt lat="45.50239" lon="5.80239">
        <ele>1326.419954604</ele>
        <time>2015-07-07T11:34:26Z</time>
      </trkpt>
      <trkpt lat="45.50244" lon="5.80231">
        <ele>1326.419954604</ele>
        <time>2015-07-07T11:34:30Z</time>
      </trkpt>
      <trkpt lat="45.50257" lon="5.80227">
        <ele>1330.145487503</ele>
        <time>2015-07-07T11:34:40Z</time>
      </trkpt>
      <trkpt lat="45.50263" lon="5.80231">
        <ele>1330.145487503</ele>
        <time>2015-07-07T11:34:46Z</time>
      </trkpt>
      <trkpt lat="45.50275" lon="5.80232">
        <ele>1333.551817855</ele>
        <time>2015-07-07T11:34:56Z</time>
      </trkpt>
      <trkpt lat="45.50281" lon="5.80229">
        <ele>1333.551817855</ele>
        <time>2015-07-07T11:35:00Z</time>
      </trkpt>
      <trkpt lat="45.50294" lon="5.80233">
        <ele>1337.236016501</ele>
        <time>2015-07-07T11:35:11Z</time>
      </trkpt>
      <trkpt lat="45.503" lon="5.80236">
        <ele>1337.236016501</ele>
        <time>2015-07-07T11:35:15Z</time>
      </trkpt>
      <trkpt lat="45.50313" lon="5.80237">
        <ele>1341.03002891</ele>
        <time>2015-07-07T11:35:26Z</time>
      </trkpt>
      <trkpt lat="45.5032" lon="5.80244">
        <ele>1341.03002891</ele>
        <time>2015-07-07T11:35:30Z</time>
      </trkpt>
      <trkpt lat="45.50333" lon="5.80266">
        <ele>1344.922024602</ele>
        <time>2015-07-07T11:35:46Z</time>
      </trkpt>
      <trkpt lat="45.50342" lon="5.80269">
        <ele>1348.180291282</ele>
        <time>2015-07-07T11:35:51Z</time>
      </trkpt>
      <trkpt lat="45.50352" lon="5.80264">
        <ele>1351.569840789</ele>
        <time>2015-07-07T11:36:01Z</time>
      </trkpt>
      <trkpt lat="45.50361" lon="5.80263">
        <ele>1351.569840789</ele>
        <time>2015-07-07T11:36:05Z</time>
      </trkpt>
      <trkpt lat="45.50378" lon="5.80258">
        <ele>1355.07864962</ele>
        <time>2015-07-07T11:36:15Z</time>
      </trkpt>
      <trkpt lat="45.50387" lon="5.80254">
        <ele>1358.118884998</ele>
        <time>2015-07-07T11:36:21Z</time>
      </trkpt>
      <trkpt lat="45.50405" lon="5.80251">
        <ele>1360.867851835</ele>
        <time>2015-07-07T11:36:31Z</time>
      </trkpt>
      <trkpt lat="45.50411" lon="5.80247">
        <ele>1360.867851835</ele>
        <time>2015-07-07T11:36:35Z</time>
      </trkpt>
      <trkpt lat="45.50428" lon="5.80255">
        <ele>1363.058396175</ele>
        <time>2015-07-07T11:36:45Z</time>
      </trkpt>
      <trkpt lat="45.50434" lon="5.80252">
        <ele>1363.058396175</ele>
        <time>2015-07-07T11:36:51Z</time>
      </trkpt>
      <trkpt lat="45.5045" lon="5.80252">
        <ele>1365.885745214</ele>
        <time>2015-07-07T11:37:01Z</time>
      </trkpt>
      <trkpt lat="45.50456" lon="5.80257">
        <ele>1365.885745214</ele>
        <time>2015-07-07T11:37:05Z</time>
      </trkpt>
      <trkpt lat="45.50468" lon="5.80259">
        <ele>1368.870388749</ele>
        <time>2015-07-07T11:37:15Z</time>
      </trkpt>
      <trkpt lat="45.50475" lon="5.80258">
        <ele>1368.870388749</ele>
        <time>2015-07-07T11:37:21Z</time>
      </trkpt>
      <trkpt lat="45.50484" lon="5.80258">
        <ele>1372.000000937</ele>
        <time>2015-07-07T11:37:31Z</time>
      </trkpt>
      <trkpt lat="45.50491" lon="5.8026">
        <ele>1372.000000937</ele>
        <time>2015-07-07T11:37:36Z</time>
      </trkpt>
      <trkpt lat="45.50504" lon="5.80272">
        <ele>1374.830484494</ele>
        <time>2015-07-07T11:37:45Z</time>
      </trkpt>
      <trkpt lat="45.50507" lon="5.80273">
        <ele>1374.830484494</ele>
        <time>2015-07-07T11:37:51Z</time>
      </trkpt>
      <trkpt lat="45.50525" lon="5.80278">
        <ele>1378.680600397</ele>
        <time>2015-07-07T11:38:06Z</time>
      </trkpt>
      <trkpt lat="45.50532" lon="5.8028">
        <ele>1378.680600397</ele>
        <time>2015-07-07T11:38:11Z</time>
      </trkpt>
      <trkpt lat="45.50546" lon="5.80294">
        <ele>1382.319545503</ele>
        <time>2015-07-07T11:38:21Z</time>
      </trkpt>
      <trkpt lat="45.50549" lon="5.80303">
        <ele>1382.319545503</ele>
        <time>2015-07-07T11:38:25Z</time>
      </trkpt>
      <trkpt lat="45.50556" lon="5.80311">
        <ele>1384.463471629</ele>
        <time>2015-07-07T11:38:36Z</time>
      </trkpt>
      <trkpt lat="45.50559" lon="5.80318">
        <ele>1384.463471629</ele>
        <time>2015-07-07T11:38:41Z</time>
      </trkpt>
      <trkpt lat="45.50572" lon="5.80325">
        <ele>1386.80931594</ele>
        <time>2015-07-07T11:38:51Z</time>
      </trkpt>
      <trkpt lat="45.50577" lon="5.80327">
        <ele>1386.80931594</ele>
        <time>2015-07-07T11:38:55Z</time>
      </trkpt>
      <trkpt lat="45.50587" lon="5.80339">
        <ele>1388.478955291</ele>
        <time>2015-07-07T11:39:06Z</time>
      </trkpt>
      <trkpt lat="45.50595" lon="5.80341">
        <ele>1388.478955291</ele>
        <time>2015-07-07T11:39:11Z</time>
      </trkpt>
      <trkpt lat="45.50602" lon="5.80345">
        <ele>1390.966493097</ele>
        <time>2015-07-07T11:39:21Z</time>
      </trkpt>
      <trkpt lat="45.50603" lon="5.80346">
        <ele>1390.966493097</ele>
        <time>2015-07-07T11:39:25Z</time>
      </trkpt>
      <trkpt lat="45.50615" lon="5.80351">
        <ele>1393.492350543</ele>
        <time>2015-07-07T11:39:35Z</time>
      </trkpt>
      <trkpt lat="45.50628" lon="5.80356">
        <ele>1395.766469821</ele>
        <time>2015-07-07T11:39:41Z</time>
      </trkpt>
      <trkpt lat="45.50639" lon="5.80363">
        <ele>1399.106052004</ele>
        <time>2015-07-07T11:39:51Z</time>
      </trkpt>
      <trkpt lat="45.50642" lon="5.80368">
        <ele>1399.106052004</ele>
        <time>2015-07-07T11:39:55Z</time>
      </trkpt>
      <trkpt lat="45.50642" lon="5.80369">
        <ele>1399.106052004</ele>
        <time>2015-07-07T11:40:06Z</time>
      </trkpt>
      <trkpt lat="45.50641" lon="5.80369">
        <ele>1399.106052004</ele>
        <time>2015-07-07T11:40:11Z</time>
      </trkpt>
      <trkpt lat="45.50641" lon="5.80369">
        <ele>1399.106052004</ele>
        <time>2015-07-07T11:40:21Z</time>
      </trkpt>
      <trkpt lat="45.50641" lon="5.80369">
        <ele>1399.106052004</ele>
        <time>2015-07-07T11:40:26Z</time>
      </trkpt>
      <trkpt lat="45.50657" lon="5.80383">
        <ele>1401.414009358</ele>
        <time>2015-07-07T11:40:40Z</time>
      </trkpt>
      <trkpt lat="45.50678" lon="5.8039">
        <ele>1403.776547423</ele>
        <time>2015-07-07T11:40:55Z</time>
      </trkpt>
      <trkpt lat="45.50694" lon="5.80389">
        <ele>1405.470601514</ele>
        <time>2015-07-07T11:41:01Z</time>
      </trkpt>
      <trkpt lat="45.50704" lon="5.80395">
        <ele>1407.125101427</ele>
        <time>2015-07-07T11:41:10Z</time>
      </trkpt>
      <trkpt lat="45.50707" lon="5.80401">
        <ele>1407.125101427</ele>
        <time>2015-07-07T11:41:16Z</time>
      </trkpt>
      <trkpt lat="45.50721" lon="5.80412">
        <ele>1408.1699911</ele>
        <time>2015-07-07T11:41:25Z</time>
      </trkpt>
      <trkpt lat="45.50723" lon="5.80414">
        <ele>1408.1699911</ele>
        <time>2015-07-07T11:41:31Z</time>
      </trkpt>
      <trkpt lat="45.5073" lon="5.80414">
        <ele>1408.799338158</ele>
        <time>2015-07-07T11:41:41Z</time>
      </trkpt>
      <trkpt lat="45.50739" lon="5.80415">
        <ele>1408.761753481</ele>
        <time>2015-07-07T11:41:45Z</time>
      </trkpt>
      <trkpt lat="45.50748" lon="5.80422">
        <ele>1409.411360524</ele>
        <time>2015-07-07T11:41:56Z</time>
      </trkpt>
      <trkpt lat="45.50755" lon="5.80424">
        <ele>1409.411360524</ele>
        <time>2015-07-07T11:42:01Z</time>
      </trkpt>
      <trkpt lat="45.50782" lon="5.80438">
        <ele>1410.847929776</ele>
        <time>2015-07-07T11:42:16Z</time>
      </trkpt>
      <trkpt lat="45.50795" lon="5.80441">
        <ele>1412.441063904</ele>
        <time>2015-07-07T11:42:20Z</time>
      </trkpt>
      <trkpt lat="45.50806" lon="5.80455">
        <ele>1413.89437281</ele>
        <time>2015-07-07T11:42:31Z</time>
      </trkpt>
      <trkpt lat="45.50813" lon="5.80468">
        <ele>1415.365874638</ele>
        <time>2015-07-07T11:42:36Z</time>
      </trkpt>
      <trkpt lat="45.50834" lon="5.80476">
        <ele>1417.001834902</ele>
        <time>2015-07-07T11:42:46Z</time>
      </trkpt>
      <trkpt lat="45.50842" lon="5.80478">
        <ele>1417.001834902</ele>
        <time>2015-07-07T11:42:50Z</time>
      </trkpt>
      <trkpt lat="45.5086" lon="5.80501">
        <ele>1418.504882991</ele>
        <time>2015-07-07T11:43:01Z</time>
      </trkpt>
      <trkpt lat="45.50871" lon="5.80511">
        <ele>1419.887988766</ele>
        <time>2015-07-07T11:43:06Z</time>
      </trkpt>
      <trkpt lat="45.50887" lon="5.80521">
        <ele>1420.442846873</ele>
        <time>2015-07-07T11:43:16Z</time>
      </trkpt>
      <trkpt lat="45.50893" lon="5.80527">
        <ele>1420.442846873</ele>
        <time>2015-07-07T11:43:20Z</time>
      </trkpt>
      <trkpt lat="45.5091" lon="5.80548">
        <ele>1420.95651111</ele>
        <time>2015-07-07T11:43:30Z</time>
      </trkpt>
      <trkpt lat="45.50914" lon="5.80558">
        <ele>1420.95651111</ele>
        <time>2015-07-07T11:43:35Z</time>
      </trkpt>
      <trkpt lat="45.50919" lon="5.80569">
        <ele>1420.86121899</ele>
        <time>2015-07-07T11:43:40Z</time>
      </trkpt>
      <trkpt lat="45.5094" lon="5.80587">
        <ele>1421.505946473</ele>
        <time>2015-07-07T11:43:51Z</time>
      </trkpt>
      <trkpt lat="45.5095" lon="5.80593">
        <ele>1422.409034296</ele>
        <time>2015-07-07T11:43:55Z</time>
      </trkpt>
      <trkpt lat="45.5097" lon="5.80609">
        <ele>1423.699789733</ele>
        <time>2015-07-07T11:44:06Z</time>
      </trkpt>
      <trkpt lat="45.50982" lon="5.80619">
        <ele>1425.352684449</ele>
        <time>2015-07-07T11:44:11Z</time>
      </trkpt>
      <trkpt lat="45.51" lon="5.80634">
        <ele>1426.622355978</ele>
        <time>2015-07-07T11:44:21Z</time>
      </trkpt>
      <trkpt lat="45.51009" lon="5.80651">
        <ele>1427.395579061</ele>
        <time>2015-07-07T11:44:25Z</time>
      </trkpt>
      <trkpt lat="45.51017" lon="5.80681">
        <ele>1427.424591106</ele>
        <time>2015-07-07T11:44:36Z</time>
      </trkpt>
      <trkpt lat="45.51027" lon="5.80694">
        <ele>1427.058223629</ele>
        <time>2015-07-07T11:44:40Z</time>
      </trkpt>
      <trkpt lat="45.51049" lon="5.80717">
        <ele>1427.341205073</ele>
        <time>2015-07-07T11:44:51Z</time>
      </trkpt>
      <trkpt lat="45.51056" lon="5.80726">
        <ele>1427.341205073</ele>
        <time>2015-07-07T11:44:56Z</time>
      </trkpt>
      <trkpt lat="45.51069" lon="5.80751">
        <ele>1426.645545684</ele>
        <time>2015-07-07T11:45:06Z</time>
      </trkpt>
      <trkpt lat="45.51076" lon="5.80762">
        <ele>1425.915323459</ele>
        <time>2015-07-07T11:45:10Z</time>
      </trkpt>
      <trkpt lat="45.51088" lon="5.80776">
        <ele>1425.016416484</ele>
        <time>2015-07-07T11:45:21Z</time>
      </trkpt>
      <trkpt lat="45.51095" lon="5.80782">
        <ele>1425.016416484</ele>
        <time>2015-07-07T11:45:26Z</time>
      </trkpt>
      <trkpt lat="45.51113" lon="5.80797">
        <ele>1423.824851914</ele>
        <time>2015-07-07T11:45:40Z</time>
      </trkpt>
      <trkpt lat="45.51125" lon="5.80803">
        <ele>1422.802842902</ele>
        <time>2015-07-07T11:45:46Z</time>
      </trkpt>
      <trkpt lat="45.51148" lon="5.80812">
        <ele>1422.089755222</ele>
        <time>2015-07-07T11:45:56Z</time>
      </trkpt>
      <trkpt lat="45.51159" lon="5.8082">
        <ele>1421.52542509</ele>
        <time>2015-07-07T11:46:00Z</time>
      </trkpt>
      <trkpt lat="45.51173" lon="5.80838">
        <ele>1421.393162897</ele>
        <time>2015-07-07T11:46:10Z</time>
      </trkpt>
      <trkpt lat="45.51179" lon="5.80846">
        <ele>1421.393162897</ele>
        <time>2015-07-07T11:46:16Z</time>
      </trkpt>
      <trkpt lat="45.51189" lon="5.80864">
        <ele>1421.233489735</ele>
        <time>2015-07-07T11:46:26Z</time>
      </trkpt>
      <trkpt lat="45.51197" lon="5.80872">
        <ele>1421.341103713</ele>
        <time>2015-07-07T11:46:30Z</time>
      </trkpt>
      <trkpt lat="45.51216" lon="5.80889">
        <ele>1421.123431187</ele>
        <time>2015-07-07T11:46:41Z</time>
      </trkpt>
      <trkpt lat="45.51227" lon="5.80897">
        <ele>1420.464470583</ele>
        <time>2015-07-07T11:46:46Z</time>
      </trkpt>
      <trkpt lat="45.51243" lon="5.80907">
        <ele>1419.978333915</ele>
        <time>2015-07-07T11:46:56Z</time>
      </trkpt>
      <trkpt lat="45.51251" lon="5.80914">
        <ele>1419.801003449</ele>
        <time>2015-07-07T11:47:01Z</time>
      </trkpt>
      <trkpt lat="45.51271" lon="5.80933">
        <ele>1419.625075703</ele>
        <time>2015-07-07T11:47:10Z</time>
      </trkpt>
      <trkpt lat="45.51281" lon="5.80939">
        <ele>1420.030199301</ele>
        <time>2015-07-07T11:47:16Z</time>
      </trkpt>
      <trkpt lat="45.51299" lon="5.80955">
        <ele>1419.678179135</ele>
        <time>2015-07-07T11:47:26Z</time>
      </trkpt>
      <trkpt lat="45.5131" lon="5.80966">
        <ele>1419.348621141</ele>
        <time>2015-07-07T11:47:31Z</time>
      </trkpt>
      <trkpt lat="45.51329" lon="5.8099">
        <ele>1418.322508985</ele>
        <time>2015-07-07T11:47:41Z</time>
      </trkpt>
      <trkpt lat="45.51331" lon="5.80994">
        <ele>1418.322508985</ele>
        <time>2015-07-07T11:47:46Z</time>
      </trkpt>
      <trkpt lat="45.51362" lon="5.81012">
        <ele>1417.66475808</ele>
        <time>2015-07-07T11:48:01Z</time>
      </trkpt>
      <trkpt lat="45.51371" lon="5.81013">
        <ele>1417.66475808</ele>
        <time>2015-07-07T11:48:06Z</time>
      </trkpt>
      <trkpt lat="45.51381" lon="5.81033">
        <ele>1416.919737516</ele>
        <time>2015-07-07T11:48:16Z</time>
      </trkpt>
      <trkpt lat="45.51387" lon="5.81045">
        <ele>1416.2418044</ele>
        <time>2015-07-07T11:48:21Z</time>
      </trkpt>
      <trkpt lat="45.51407" lon="5.81055">
        <ele>1415.773618671</ele>
        <time>2015-07-07T11:48:30Z</time>
      </trkpt>
      <trkpt lat="45.51415" lon="5.81054">
        <ele>1415.773618671</ele>
        <time>2015-07-07T11:48:36Z</time>
      </trkpt>
      <trkpt lat="45.51441" lon="5.81073">
        <ele>1414.926048648</ele>
        <time>2015-07-07T11:48:46Z</time>
      </trkpt>
      <trkpt lat="45.51457" lon="5.81083">
        <ele>1414.018806022</ele>
        <time>2015-07-07T11:48:50Z</time>
      </trkpt>
      <trkpt lat="45.51472" lon="5.81103">
        <ele>1414.212790227</ele>
        <time>2015-07-07T11:49:00Z</time>
      </trkpt>
      <trkpt lat="45.51477" lon="5.81116">
        <ele>1414.274598117</ele>
        <time>2015-07-07T11:49:06Z</time>
      </trkpt>
      <trkpt lat="45.51489" lon="5.81134">
        <ele>1413.782208324</ele>
        <time>2015-07-07T11:49:16Z</time>
      </trkpt>
      <trkpt lat="45.51492" lon="5.81137">
        <ele>1413.782208324</ele>
        <time>2015-07-07T11:49:20Z</time>
      </trkpt>
      <trkpt lat="45.51513" lon="5.81159">
        <ele>1412.922456559</ele>
        <time>2015-07-07T11:49:31Z</time>
      </trkpt>
      <trkpt lat="45.51518" lon="5.81168">
        <ele>1412.922456559</ele>
        <time>2015-07-07T11:49:36Z</time>
      </trkpt>
      <trkpt lat="45.51538" lon="5.81192">
        <ele>1412.734014476</ele>
        <time>2015-07-07T11:49:51Z</time>
      </trkpt>
      <trkpt lat="45.51547" lon="5.81199">
        <ele>1412.159682206</ele>
        <time>2015-07-07T11:50:01Z</time>
      </trkpt>
      <trkpt lat="45.51556" lon="5.81206">
        <ele>1411.373765303</ele>
        <time>2015-07-07T11:50:06Z</time>
      </trkpt>
      <trkpt lat="45.51571" lon="5.81221">
        <ele>1410.53823457</ele>
        <time>2015-07-07T11:50:15Z</time>
      </trkpt>
      <trkpt lat="45.51579" lon="5.81228">
        <ele>1409.659070054</ele>
        <time>2015-07-07T11:50:21Z</time>
      </trkpt>
      <trkpt lat="45.51599" lon="5.81243">
        <ele>1409.17415106</ele>
        <time>2015-07-07T11:50:35Z</time>
      </trkpt>
      <trkpt lat="45.51613" lon="5.81252">
        <ele>1408.911526212</ele>
        <time>2015-07-07T11:50:41Z</time>
      </trkpt>
      <trkpt lat="45.5163" lon="5.81272">
        <ele>1408.855254529</ele>
        <time>2015-07-07T11:50:51Z</time>
      </trkpt>
      <trkpt lat="45.51637" lon="5.81276">
        <ele>1408.855254529</ele>
        <time>2015-07-07T11:50:55Z</time>
      </trkpt>
      <trkpt lat="45.51651" lon="5.8129">
        <ele>1409.422219582</ele>
        <time>2015-07-07T11:51:06Z</time>
      </trkpt>
      <trkpt lat="45.51657" lon="5.81297">
        <ele>1409.422219582</ele>
        <time>2015-07-07T11:51:11Z</time>
      </trkpt>
      <trkpt lat="45.51674" lon="5.81303">
        <ele>1410.132174249</ele>
        <time>2015-07-07T11:51:21Z</time>
      </trkpt>
      <trkpt lat="45.51685" lon="5.81308">
        <ele>1411.116114262</ele>
        <time>2015-07-07T11:51:26Z</time>
      </trkpt>
      <trkpt lat="45.51703" lon="5.81322">
        <ele>1411.629910177</ele>
        <time>2015-07-07T11:51:35Z</time>
      </trkpt>
      <trkpt lat="45.51712" lon="5.81333">
        <ele>1411.994138916</ele>
        <time>2015-07-07T11:51:41Z</time>
      </trkpt>
      <trkpt lat="45.51732" lon="5.81347">
        <ele>1412.794428143</ele>
        <time>2015-07-07T11:51:51Z</time>
      </trkpt>
      <trkpt lat="45.51742" lon="5.81352">
        <ele>1413.707464922</ele>
        <time>2015-07-07T11:51:55Z</time>
      </trkpt>
      <trkpt lat="45.51762" lon="5.81363">
        <ele>1414.577461707</ele>
        <time>2015-07-07T11:52:06Z</time>
      </trkpt>
      <trkpt lat="45.51769" lon="5.8137">
        <ele>1414.577461707</ele>
        <time>2015-07-07T11:52:11Z</time>
      </trkpt>
      <trkpt lat="45.51788" lon="5.81388">
        <ele>1415.836631913</ele>
        <time>2015-07-07T11:52:21Z</time>
      </trkpt>
      <trkpt lat="45.51795" lon="5.81394">
        <ele>1415.836631913</ele>
        <time>2015-07-07T11:52:25Z</time>
      </trkpt>
      <trkpt lat="45.51807" lon="5.81407">
        <ele>1416.155014693</ele>
        <time>2015-07-07T11:52:36Z</time>
      </trkpt>
      <trkpt lat="45.51809" lon="5.81411">
        <ele>1416.155014693</ele>
        <time>2015-07-07T11:52:41Z</time>
      </trkpt>
      <trkpt lat="45.51815" lon="5.8141">
        <ele>1415.888218935</ele>
        <time>2015-07-07T11:52:45Z</time>
      </trkpt>
      <trkpt lat="45.51822" lon="5.81414">
        <ele>1415.888218935</ele>
        <time>2015-07-07T11:52:51Z</time>
      </trkpt>
      <trkpt lat="45.51832" lon="5.81418">
        <ele>1415.799720991</ele>
        <time>2015-07-07T11:52:55Z</time>
      </trkpt>
      <trkpt lat="45.51844" lon="5.8143">
        <ele>1415.299429319</ele>
        <time>2015-07-07T11:53:11Z</time>
      </trkpt>
      <trkpt lat="45.51849" lon="5.81435">
        <ele>1415.299429319</ele>
        <time>2015-07-07T11:53:15Z</time>
      </trkpt>
      <trkpt lat="45.51864" lon="5.81435">
        <ele>1415.859330107</ele>
        <time>2015-07-07T11:53:26Z</time>
      </trkpt>
      <trkpt lat="45.5187" lon="5.81438">
        <ele>1415.859330107</ele>
        <time>2015-07-07T11:53:30Z</time>
      </trkpt>
      <trkpt lat="45.51871" lon="5.81438">
        <ele>1415.859330107</ele>
        <time>2015-07-07T11:53:35Z</time>
      </trkpt>
      <trkpt lat="45.51871" lon="5.81438">
        <ele>1415.859330107</ele>
        <time>2015-07-07T11:53:41Z</time>
      </trkpt>
      <trkpt lat="45.51872" lon="5.81438">
        <ele>1416.82276805</ele>
        <time>2015-07-07T11:53:51Z</time>
      </trkpt>
      <trkpt lat="45.51872" lon="5.81438">
        <ele>1416.82276805</ele>
        <time>2015-07-07T11:53:55Z</time>
      </trkpt>
      <trkpt lat="45.51872" lon="5.81438">
        <ele>1416.82276805</ele>
        <time>2015-07-07T11:54:05Z</time>
      </trkpt>
      <trkpt lat="45.51872" lon="5.81438">
        <ele>1416.82276805</ele>
        <time>2015-07-07T11:54:11Z</time>
      </trkpt>
      <trkpt lat="45.51873" lon="5.81438">
        <ele>1416.82276805</ele>
        <time>2015-07-07T11:54:21Z</time>
      </trkpt>
      <trkpt lat="45.51869" lon="5.81441">
        <ele>1416.82276805</ele>
        <time>2015-07-07T11:54:25Z</time>
      </trkpt>
      <trkpt lat="45.51863" lon="5.81445">
        <ele>1416.715548438</ele>
        <time>2015-07-07T11:54:31Z</time>
      </trkpt>
      <trkpt lat="45.51859" lon="5.81459">
        <ele>1416.624688166</ele>
        <time>2015-07-07T11:54:41Z</time>
      </trkpt>
      <trkpt lat="45.51864" lon="5.81463">
        <ele>1416.624688166</ele>
        <time>2015-07-07T11:54:46Z</time>
      </trkpt>
      <trkpt lat="45.51876" lon="5.81478">
        <ele>1416.404444282</ele>
        <time>2015-07-07T11:55:01Z</time>
      </trkpt>
      <trkpt lat="45.51875" lon="5.81482">
        <ele>1416.404444282</ele>
        <time>2015-07-07T11:55:16Z</time>
      </trkpt>
      <trkpt lat="45.51875" lon="5.81482">
        <ele>1416.404444282</ele>
        <time>2015-07-07T11:55:20Z</time>
      </trkpt>
      <trkpt lat="45.51893" lon="5.81494">
        <ele>1414.767278439</ele>
        <time>2015-07-07T11:55:31Z</time>
      </trkpt>
      <trkpt lat="45.51896" lon="5.81507">
        <ele>1413.55056328</ele>
        <time>2015-07-07T11:55:35Z</time>
      </trkpt>
      <trkpt lat="45.51904" lon="5.81517">
        <ele>1412.005641792</ele>
        <time>2015-07-07T11:55:45Z</time>
      </trkpt>
      <trkpt lat="45.5191" lon="5.81534">
        <ele>1410.304442453</ele>
        <time>2015-07-07T11:55:51Z</time>
      </trkpt>
      <trkpt lat="45.51921" lon="5.8156">
        <ele>1409.18313861</ele>
        <time>2015-07-07T11:56:01Z</time>
      </trkpt>
      <trkpt lat="45.51918" lon="5.81571">
        <ele>1409.18313861</ele>
        <time>2015-07-07T11:56:05Z</time>
      </trkpt>
      <trkpt lat="45.51914" lon="5.81572">
        <ele>1406.584065681</ele>
        <time>2015-07-07T11:56:15Z</time>
      </trkpt>
      <trkpt lat="45.51918" lon="5.81577">
        <ele>1406.584065681</ele>
        <time>2015-07-07T11:56:21Z</time>
      </trkpt>
      <trkpt lat="45.51932" lon="5.81589">
        <ele>1403.919383795</ele>
        <time>2015-07-07T11:56:31Z</time>
      </trkpt>
      <trkpt lat="45.51943" lon="5.81583">
        <ele>1401.056542608</ele>
        <time>2015-07-07T11:56:35Z</time>
      </trkpt>
      <trkpt lat="45.51963" lon="5.8159">
        <ele>1398.017333942</ele>
        <time>2015-07-07T11:56:46Z</time>
      </trkpt>
      <trkpt lat="45.51973" lon="5.81596">
        <ele>1395.254698628</ele>
        <time>2015-07-07T11:56:51Z</time>
      </trkpt>
      <trkpt lat="45.51988" lon="5.8161">
        <ele>1392.755101917</ele>
        <time>2015-07-07T11:57:01Z</time>
      </trkpt>
      <trkpt lat="45.52" lon="5.81618">
        <ele>1390.649270541</ele>
        <time>2015-07-07T11:57:06Z</time>
      </trkpt>
      <trkpt lat="45.52033" lon="5.81629">
        <ele>1388.624774175</ele>
        <time>2015-07-07T11:57:21Z</time>
      </trkpt>
      <trkpt lat="45.52044" lon="5.8163">
        <ele>1386.824116466</ele>
        <time>2015-07-07T11:57:26Z</time>
      </trkpt>
      <trkpt lat="45.52059" lon="5.81639">
        <ele>1385.522690614</ele>
        <time>2015-07-07T11:57:36Z</time>
      </trkpt>
      <trkpt lat="45.52063" lon="5.81652">
        <ele>1384.830022856</ele>
        <time>2015-07-07T11:57:40Z</time>
      </trkpt>
      <trkpt lat="45.52071" lon="5.81686">
        <ele>1384.7016538</ele>
        <time>2015-07-07T11:57:50Z</time>
      </trkpt>
      <trkpt lat="45.52072" lon="5.81701">
        <ele>1384.662360122</ele>
        <time>2015-07-07T11:57:56Z</time>
      </trkpt>
      <trkpt lat="45.52085" lon="5.81727">
        <ele>1385.424366144</ele>
        <time>2015-07-07T11:58:06Z</time>
      </trkpt>
      <trkpt lat="45.52092" lon="5.81734">
        <ele>1385.424366144</ele>
        <time>2015-07-07T11:58:10Z</time>
      </trkpt>
      <trkpt lat="45.52112" lon="5.81754">
        <ele>1385.915907381</ele>
        <time>2015-07-07T11:58:20Z</time>
      </trkpt>
      <trkpt lat="45.52119" lon="5.81765">
        <ele>1386.297526558</ele>
        <time>2015-07-07T11:58:26Z</time>
      </trkpt>
      <trkpt lat="45.52121" lon="5.81775">
        <ele>1386.297526558</ele>
        <time>2015-07-07T11:58:36Z</time>
      </trkpt>
      <trkpt lat="45.52124" lon="5.81778">
        <ele>1386.285890539</ele>
        <time>2015-07-07T11:58:41Z</time>
      </trkpt>
      <trkpt lat="45.52124" lon="5.81785">
        <ele>1386.285890539</ele>
        <time>2015-07-07T11:58:50Z</time>
      </trkpt>
      <trkpt lat="45.5212" lon="5.81785">
        <ele>1386.285890539</ele>
        <time>2015-07-07T11:58:55Z</time>
      </trkpt>
      <trkpt lat="45.52119" lon="5.8179">
        <ele>1385.619537918</ele>
        <time>2015-07-07T11:59:00Z</time>
      </trkpt>
      <trkpt lat="45.52122" lon="5.81797">
        <ele>1385.619537918</ele>
        <time>2015-07-07T11:59:05Z</time>
      </trkpt>
      <trkpt lat="45.52123" lon="5.81803">
        <ele>1384.346236403</ele>
        <time>2015-07-07T11:59:11Z</time>
      </trkpt>
      <trkpt lat="45.52125" lon="5.81816">
        <ele>1383.232471452</ele>
        <time>2015-07-07T11:59:21Z</time>
      </trkpt>
      <trkpt lat="45.52126" lon="5.81822">
        <ele>1383.232471452</ele>
        <time>2015-07-07T11:59:26Z</time>
      </trkpt>
      <trkpt lat="45.52135" lon="5.8184">
        <ele>1381.979166999</ele>
        <time>2015-07-07T11:59:41Z</time>
      </trkpt>
      <trkpt lat="45.52138" lon="5.81847">
        <ele>1381.979166999</ele>
        <time>2015-07-07T11:59:46Z</time>
      </trkpt>
      <trkpt lat="45.52148" lon="5.81855">
        <ele>1380.309576968</ele>
        <time>2015-07-07T11:59:56Z</time>
      </trkpt>
      <trkpt lat="45.52152" lon="5.8186">
        <ele>1380.309576968</ele>
        <time>2015-07-07T12:00:01Z</time>
      </trkpt>
      <trkpt lat="45.52162" lon="5.81875">
        <ele>1377.536083506</ele>
        <time>2015-07-07T12:00:10Z</time>
      </trkpt>
      <trkpt lat="45.52169" lon="5.81884">
        <ele>1374.753969616</ele>
        <time>2015-07-07T12:00:16Z</time>
      </trkpt>
      <trkpt lat="45.52177" lon="5.81893">
        <ele>1371.825143178</ele>
        <time>2015-07-07T12:00:26Z</time>
      </trkpt>
      <trkpt lat="45.52181" lon="5.81902">
        <ele>1371.825143178</ele>
        <time>2015-07-07T12:00:30Z</time>
      </trkpt>
      <trkpt lat="45.5219" lon="5.81921">
        <ele>1369.054339137</ele>
        <time>2015-07-07T12:00:41Z</time>
      </trkpt>
      <trkpt lat="45.52195" lon="5.81927">
        <ele>1369.054339137</ele>
        <time>2015-07-07T12:00:46Z</time>
      </trkpt>
      <trkpt lat="45.52209" lon="5.81943">
        <ele>1366.146944789</ele>
        <time>2015-07-07T12:00:56Z</time>
      </trkpt>
      <trkpt lat="45.52211" lon="5.81951">
        <ele>1366.146944789</ele>
        <time>2015-07-07T12:01:00Z</time>
      </trkpt>
      <trkpt lat="45.52223" lon="5.81972">
        <ele>1362.686175622</ele>
        <time>2015-07-07T12:01:11Z</time>
      </trkpt>
      <trkpt lat="45.52225" lon="5.81979">
        <ele>1362.686175622</ele>
        <time>2015-07-07T12:01:15Z</time>
      </trkpt>
      <trkpt lat="45.52234" lon="5.81997">
        <ele>1359.728431291</ele>
        <time>2015-07-07T12:01:26Z</time>
      </trkpt>
      <trkpt lat="45.52241" lon="5.82007">
        <ele>1356.665768052</ele>
        <time>2015-07-07T12:01:31Z</time>
      </trkpt>
      <trkpt lat="45.52246" lon="5.82024">
        <ele>1353.799746473</ele>
        <time>2015-07-07T12:01:41Z</time>
      </trkpt>
      <trkpt lat="45.52254" lon="5.82033">
        <ele>1351.409099743</ele>
        <time>2015-07-07T12:01:46Z</time>
      </trkpt>
      <trkpt lat="45.52265" lon="5.82046">
        <ele>1348.741845329</ele>
        <time>2015-07-07T12:02:01Z</time>
      </trkpt>
      <trkpt lat="45.52269" lon="5.82052">
        <ele>1348.741845329</ele>
        <time>2015-07-07T12:02:06Z</time>
      </trkpt>
      <trkpt lat="45.52277" lon="5.82062">
        <ele>1345.390106095</ele>
        <time>2015-07-07T12:02:15Z</time>
      </trkpt>
      <trkpt lat="45.52274" lon="5.8207">
        <ele>1345.390106095</ele>
        <time>2015-07-07T12:02:20Z</time>
      </trkpt>
      <trkpt lat="45.52285" lon="5.82077">
        <ele>1341.698305452</ele>
        <time>2015-07-07T12:02:31Z</time>
      </trkpt>
      <trkpt lat="45.52288" lon="5.82087">
        <ele>1341.698305452</ele>
        <time>2015-07-07T12:02:35Z</time>
      </trkpt>
      <trkpt lat="45.523" lon="5.82102">
        <ele>1337.554041693</ele>
        <time>2015-07-07T12:02:46Z</time>
      </trkpt>
      <trkpt lat="45.52301" lon="5.82105">
        <ele>1337.554041693</ele>
        <time>2015-07-07T12:02:51Z</time>
      </trkpt>
      <trkpt lat="45.52302" lon="5.82119">
        <ele>1333.142508116</ele>
        <time>2015-07-07T12:03:01Z</time>
      </trkpt>
      <trkpt lat="45.52303" lon="5.82123">
        <ele>1333.142508116</ele>
        <time>2015-07-07T12:03:05Z</time>
      </trkpt>
      <trkpt lat="45.52307" lon="5.82136">
        <ele>1328.347656145</ele>
        <time>2015-07-07T12:03:16Z</time>
      </trkpt>
      <trkpt lat="45.52308" lon="5.82142">
        <ele>1328.347656145</ele>
        <time>2015-07-07T12:03:21Z</time>
      </trkpt>
      <trkpt lat="45.52318" lon="5.82152">
        <ele>1323.495193073</ele>
        <time>2015-07-07T12:03:31Z</time>
      </trkpt>
      <trkpt lat="45.52321" lon="5.82158">
        <ele>1323.495193073</ele>
        <time>2015-07-07T12:03:35Z</time>
      </trkpt>
      <trkpt lat="45.52336" lon="5.82182">
        <ele>1318.454536714</ele>
        <time>2015-07-07T12:03:51Z</time>
      </trkpt>
      <trkpt lat="45.52342" lon="5.82196">
        <ele>1313.537354278</ele>
        <time>2015-07-07T12:03:56Z</time>
      </trkpt>
      <trkpt lat="45.5236" lon="5.82204">
        <ele>1309.031855469</ele>
        <time>2015-07-07T12:04:06Z</time>
      </trkpt>
      <trkpt lat="45.52372" lon="5.82213">
        <ele>1304.483141421</ele>
        <time>2015-07-07T12:04:10Z</time>
      </trkpt>
      <trkpt lat="45.5239" lon="5.82239">
        <ele>1300.910730671</ele>
        <time>2015-07-07T12:04:20Z</time>
      </trkpt>
      <trkpt lat="45.52396" lon="5.82248">
        <ele>1298.103387001</ele>
        <time>2015-07-07T12:04:26Z</time>
      </trkpt>
      <trkpt lat="45.52422" lon="5.8226">
        <ele>1295.430681645</ele>
        <time>2015-07-07T12:04:36Z</time>
      </trkpt>
      <trkpt lat="45.52433" lon="5.82267">
        <ele>1292.740229791</ele>
        <time>2015-07-07T12:04:40Z</time>
      </trkpt>
      <trkpt lat="45.52451" lon="5.82286">
        <ele>1290.323012262</ele>
        <time>2015-07-07T12:04:51Z</time>
      </trkpt>
      <trkpt lat="45.52461" lon="5.82293">
        <ele>1288.015335507</ele>
        <time>2015-07-07T12:04:56Z</time>
      </trkpt>
      <trkpt lat="45.52486" lon="5.82305">
        <ele>1285.376814657</ele>
        <time>2015-07-07T12:05:06Z</time>
      </trkpt>
      <trkpt lat="45.52497" lon="5.82313">
        <ele>1283.297170798</ele>
        <time>2015-07-07T12:05:10Z</time>
      </trkpt>
      <trkpt lat="45.52508" lon="5.82315">
        <ele>1281.302038999</ele>
        <time>2015-07-07T12:05:15Z</time>
      </trkpt>
      <trkpt lat="45.52529" lon="5.82309">
        <ele>1280.104409161</ele>
        <time>2015-07-07T12:05:26Z</time>
      </trkpt>
      <trkpt lat="45.52541" lon="5.82307">
        <ele>1278.777307592</ele>
        <time>2015-07-07T12:05:30Z</time>
      </trkpt>
      <trkpt lat="45.52571" lon="5.82307">
        <ele>1277.32677564</ele>
        <time>2015-07-07T12:05:41Z</time>
      </trkpt>
      <trkpt lat="45.52583" lon="5.82295">
        <ele>1276.046887506</ele>
        <time>2015-07-07T12:05:45Z</time>
      </trkpt>
      <trkpt lat="45.52603" lon="5.82283">
        <ele>1275.065451427</ele>
        <time>2015-07-07T12:05:56Z</time>
      </trkpt>
      <trkpt lat="45.52611" lon="5.82289">
        <ele>1275.065451427</ele>
        <time>2015-07-07T12:06:01Z</time>
      </trkpt>
      <trkpt lat="45.52629" lon="5.8229">
        <ele>1273.202991602</ele>
        <time>2015-07-07T12:06:11Z</time>
      </trkpt>
      <trkpt lat="45.52638" lon="5.82299">
        <ele>1270.954326499</ele>
        <time>2015-07-07T12:06:15Z</time>
      </trkpt>
      <trkpt lat="45.52652" lon="5.82311">
        <ele>1268.923088234</ele>
        <time>2015-07-07T12:06:26Z</time>
      </trkpt>
      <trkpt lat="45.52655" lon="5.82321">
        <ele>1268.923088234</ele>
        <time>2015-07-07T12:06:31Z</time>
      </trkpt>
      <trkpt lat="45.52643" lon="5.82348">
        <ele>1266.082709581</ele>
        <time>2015-07-07T12:06:41Z</time>
      </trkpt>
      <trkpt lat="45.52632" lon="5.82358">
        <ele>1263.213618708</ele>
        <time>2015-07-07T12:06:45Z</time>
      </trkpt>
      <trkpt lat="45.52633" lon="5.82373">
        <ele>1259.74197598</ele>
        <time>2015-07-07T12:06:56Z</time>
      </trkpt>
      <trkpt lat="45.52645" lon="5.82377">
        <ele>1256.578879385</ele>
        <time>2015-07-07T12:07:01Z</time>
      </trkpt>
      <trkpt lat="45.52666" lon="5.82386">
        <ele>1253.702945666</ele>
        <time>2015-07-07T12:07:15Z</time>
      </trkpt>
      <trkpt lat="45.52671" lon="5.82385">
        <ele>1253.702945666</ele>
        <time>2015-07-07T12:07:21Z</time>
      </trkpt>
      <trkpt lat="45.52679" lon="5.82401">
        <ele>1250.372978523</ele>
        <time>2015-07-07T12:07:31Z</time>
      </trkpt>
      <trkpt lat="45.52684" lon="5.82403">
        <ele>1250.372978523</ele>
        <time>2015-07-07T12:07:35Z</time>
      </trkpt>
      <trkpt lat="45.52692" lon="5.82401">
        <ele>1247.344590505</ele>
        <time>2015-07-07T12:07:46Z</time>
      </trkpt>
      <trkpt lat="45.52693" lon="5.824">
        <ele>1247.344590505</ele>
        <time>2015-07-07T12:07:51Z</time>
      </trkpt>
      <trkpt lat="45.52694" lon="5.824">
        <ele>1247.344590505</ele>
        <time>2015-07-07T12:08:01Z</time>
      </trkpt>
      <trkpt lat="45.52694" lon="5.824">
        <ele>1247.344590505</ele>
        <time>2015-07-07T12:08:05Z</time>
      </trkpt>
      <trkpt lat="45.52703" lon="5.82407">
        <ele>1244.164126096</ele>
        <time>2015-07-07T12:08:15Z</time>
      </trkpt>
      <trkpt lat="45.52707" lon="5.82417">
        <ele>1244.164126096</ele>
        <time>2015-07-07T12:08:20Z</time>
      </trkpt>
      <trkpt lat="45.52717" lon="5.82434">
        <ele>1240.123430572</ele>
        <time>2015-07-07T12:08:31Z</time>
      </trkpt>
      <trkpt lat="45.52717" lon="5.82443">
        <ele>1240.123430572</ele>
        <time>2015-07-07T12:08:36Z</time>
      </trkpt>
      <trkpt lat="45.52724" lon="5.82451">
        <ele>1236.153973157</ele>
        <time>2015-07-07T12:08:46Z</time>
      </trkpt>
      <trkpt lat="45.52729" lon="5.8245">
        <ele>1236.153973157</ele>
        <time>2015-07-07T12:08:50Z</time>
      </trkpt>
      <trkpt lat="45.52737" lon="5.82467">
        <ele>1231.245113411</ele>
        <time>2015-07-07T12:09:01Z</time>
      </trkpt>
      <trkpt lat="45.52741" lon="5.82472">
        <ele>1231.245113411</ele>
        <time>2015-07-07T12:09:06Z</time>
      </trkpt>
      <trkpt lat="45.52744" lon="5.8248">
        <ele>1225.615926702</ele>
        <time>2015-07-07T12:09:16Z</time>
      </trkpt>
      <trkpt lat="45.52748" lon="5.82487">
        <ele>1225.615926702</ele>
        <time>2015-07-07T12:09:21Z</time>
      </trkpt>
      <trkpt lat="45.52754" lon="5.82497">
        <ele>1219.903686071</ele>
        <time>2015-07-07T12:09:31Z</time>
      </trkpt>
      <trkpt lat="45.52755" lon="5.82494">
        <ele>1219.903686071</ele>
        <time>2015-07-07T12:09:36Z</time>
      </trkpt>
      <trkpt lat="45.52755" lon="5.82492">
        <ele>1219.903686071</ele>
        <time>2015-07-07T12:09:46Z</time>
      </trkpt>
      <trkpt lat="45.52756" lon="5.82492">
        <ele>1219.903686071</ele>
        <time>2015-07-07T12:09:50Z</time>
      </trkpt>
      <trkpt lat="45.52775" lon="5.82509">
        <ele>1214.122559968</ele>
        <time>2015-07-07T12:10:06Z</time>
      </trkpt>
      <trkpt lat="45.52777" lon="5.8251">
        <ele>1214.122559968</ele>
        <time>2015-07-07T12:10:11Z</time>
      </trkpt>
      <trkpt lat="45.52777" lon="5.82512">
        <ele>1214.122559968</ele>
        <time>2015-07-07T12:10:21Z</time>
      </trkpt>
      <trkpt lat="45.52777" lon="5.82512">
        <ele>1214.122559968</ele>
        <time>2015-07-07T12:10:25Z</time>
      </trkpt>
      <trkpt lat="45.52787" lon="5.82541">
        <ele>1206.988769896</ele>
        <time>2015-07-07T12:10:35Z</time>
      </trkpt>
      <trkpt lat="45.52794" lon="5.82548">
        <ele>1206.988769896</ele>
        <time>2015-07-07T12:10:41Z</time>
      </trkpt>
      <trkpt lat="45.52804" lon="5.82552">
        <ele>1199.622295981</ele>
        <time>2015-07-07T12:10:51Z</time>
      </trkpt>
      <trkpt lat="45.52814" lon="5.82553">
        <ele>1192.917244988</ele>
        <time>2015-07-07T12:10:55Z</time>
      </trkpt>
      <trkpt lat="45.52825" lon="5.82555">
        <ele>1186.979469386</ele>
        <time>2015-07-07T12:11:00Z</time>
      </trkpt>
      <trkpt lat="45.52823" lon="5.82559">
        <ele>1186.979469386</ele>
        <time>2015-07-07T12:11:05Z</time>
      </trkpt>
      <trkpt lat="45.52823" lon="5.82559">
        <ele>1186.979469386</ele>
        <time>2015-07-07T12:11:10Z</time>
      </trkpt>
      <trkpt lat="45.52823" lon="5.82559">
        <ele>1186.979469386</ele>
        <time>2015-07-07T12:11:15Z</time>
      </trkpt>
      <trkpt lat="45.52823" lon="5.82558">
        <ele>1186.979469386</ele>
        <time>2015-07-07T12:11:25Z</time>
      </trkpt>
      <trkpt lat="45.52823" lon="5.82558">
        <ele>1186.979469386</ele>
        <time>2015-07-07T12:11:30Z</time>
      </trkpt>
      <trkpt lat="45.52823" lon="5.82558">
        <ele>1186.979469386</ele>
        <time>2015-07-07T12:11:40Z</time>
      </trkpt>
      <trkpt lat="45.52823" lon="5.82558">
        <ele>1186.979469386</ele>
        <time>2015-07-07T12:11:46Z</time>
      </trkpt>
      <trkpt lat="45.52829" lon="5.82568">
        <ele>1181.328268354</ele>
        <time>2015-07-07T12:11:56Z</time>
      </trkpt>
      <trkpt lat="45.52851" lon="5.82577">
        <ele>1175.373144083</ele>
        <time>2015-07-07T12:12:00Z</time>
      </trkpt>
      <trkpt lat="45.52866" lon="5.82607">
        <ele>1170.296961282</ele>
        <time>2015-07-07T12:12:10Z</time>
      </trkpt>
      <trkpt lat="45.52872" lon="5.82625">
        <ele>1166.184243801</ele>
        <time>2015-07-07T12:12:16Z</time>
      </trkpt>
      <trkpt lat="45.52892" lon="5.8265">
        <ele>1162.533956259</ele>
        <time>2015-07-07T12:12:26Z</time>
      </trkpt>
      <trkpt lat="45.52904" lon="5.82667">
        <ele>1159.456820932</ele>
        <time>2015-07-07T12:12:30Z</time>
      </trkpt>
      <trkpt lat="45.52923" lon="5.8269">
        <ele>1156.909524944</ele>
        <time>2015-07-07T12:12:41Z</time>
      </trkpt>
      <trkpt lat="45.52931" lon="5.82698">
        <ele>1154.706174357</ele>
        <time>2015-07-07T12:12:46Z</time>
      </trkpt>
      <trkpt lat="45.52954" lon="5.8271">
        <ele>1152.241086559</ele>
        <time>2015-07-07T12:13:01Z</time>
      </trkpt>
      <trkpt lat="45.52969" lon="5.8272">
        <ele>1149.674236439</ele>
        <time>2015-07-07T12:13:06Z</time>
      </trkpt>
      <trkpt lat="45.52984" lon="5.82734">
        <ele>1147.442249799</ele>
        <time>2015-07-07T12:13:16Z</time>
      </trkpt>
      <trkpt lat="45.52988" lon="5.82735">
        <ele>1147.442249799</ele>
        <time>2015-07-07T12:13:20Z</time>
      </trkpt>
      <trkpt lat="45.53005" lon="5.82749">
        <ele>1144.363428626</ele>
        <time>2015-07-07T12:13:30Z</time>
      </trkpt>
      <trkpt lat="45.53014" lon="5.82754">
        <ele>1142.08329941</ele>
        <time>2015-07-07T12:13:36Z</time>
      </trkpt>
      <trkpt lat="45.53039" lon="5.82768">
        <ele>1140.106658688</ele>
        <time>2015-07-07T12:13:46Z</time>
      </trkpt>
      <trkpt lat="45.53047" lon="5.82771">
        <ele>1138.694348356</ele>
        <time>2015-07-07T12:13:51Z</time>
      </trkpt>
      <trkpt lat="45.53067" lon="5.82785">
        <ele>1136.068888813</ele>
        <time>2015-07-07T12:14:00Z</time>
      </trkpt>
      <trkpt lat="45.53077" lon="5.8279">
        <ele>1134.189551795</ele>
        <time>2015-07-07T12:14:06Z</time>
      </trkpt>
      <trkpt lat="45.5309" lon="5.828">
        <ele>1132.996157187</ele>
        <time>2015-07-07T12:14:16Z</time>
      </trkpt>
      <trkpt lat="45.53093" lon="5.82799">
        <ele>1132.996157187</ele>
        <time>2015-07-07T12:14:20Z</time>
      </trkpt>
      <trkpt lat="45.53127" lon="5.82816">
        <ele>1131.854606671</ele>
        <time>2015-07-07T12:14:35Z</time>
      </trkpt>
      <trkpt lat="45.53141" lon="5.82832">
        <ele>1130.609616788</ele>
        <time>2015-07-07T12:14:46Z</time>
      </trkpt>
      <trkpt lat="45.53148" lon="5.82833">
        <ele>1130.609616788</ele>
        <time>2015-07-07T12:14:50Z</time>
      </trkpt>
      <trkpt lat="45.5317" lon="5.82844">
        <ele>1129.838221582</ele>
        <time>2015-07-07T12:15:01Z</time>
      </trkpt>
      <trkpt lat="45.53178" lon="5.82851">
        <ele>1129.497376516</ele>
        <time>2015-07-07T12:15:06Z</time>
      </trkpt>
      <trkpt lat="45.53202" lon="5.82865">
        <ele>1127.960868101</ele>
        <time>2015-07-07T12:15:21Z</time>
      </trkpt>
      <trkpt lat="45.53206" lon="5.82871">
        <ele>1127.960868101</ele>
        <time>2015-07-07T12:15:25Z</time>
      </trkpt>
      <trkpt lat="45.53223" lon="5.8289">
        <ele>1126.031190338</ele>
        <time>2015-07-07T12:15:36Z</time>
      </trkpt>
      <trkpt lat="45.53232" lon="5.82898">
        <ele>1123.876669705</ele>
        <time>2015-07-07T12:15:41Z</time>
      </trkpt>
      <trkpt lat="45.53259" lon="5.8292">
        <ele>1122.086364166</ele>
        <time>2015-07-07T12:15:51Z</time>
      </trkpt>
      <trkpt lat="45.53267" lon="5.8292">
        <ele>1122.086364166</ele>
        <time>2015-07-07T12:15:55Z</time>
      </trkpt>
      <trkpt lat="45.53288" lon="5.82931">
        <ele>1120.484619125</ele>
        <time>2015-07-07T12:16:05Z</time>
      </trkpt>
      <trkpt lat="45.53295" lon="5.82937">
        <ele>1120.484619125</ele>
        <time>2015-07-07T12:16:11Z</time>
      </trkpt>
      <trkpt lat="45.53306" lon="5.82951">
        <ele>1117.899515202</ele>
        <time>2015-07-07T12:16:21Z</time>
      </trkpt>
      <trkpt lat="45.53314" lon="5.82956">
        <ele>1117.899515202</ele>
        <time>2015-07-07T12:16:25Z</time>
      </trkpt>
      <trkpt lat="45.53318" lon="5.82968">
        <ele>1114.689230508</ele>
        <time>2015-07-07T12:16:35Z</time>
      </trkpt>
      <trkpt lat="45.53323" lon="5.82967">
        <ele>1114.689230508</ele>
        <time>2015-07-07T12:16:41Z</time>
      </trkpt>
      <trkpt lat="45.53326" lon="5.82973">
        <ele>1111.763966724</ele>
        <time>2015-07-07T12:16:51Z</time>
      </trkpt>
      <trkpt lat="45.53332" lon="5.82968">
        <ele>1111.763966724</ele>
        <time>2015-07-07T12:16:55Z</time>
      </trkpt>
      <trkpt lat="45.53336" lon="5.82964">
        <ele>1108.525282587</ele>
        <time>2015-07-07T12:17:01Z</time>
      </trkpt>
      <trkpt lat="45.53338" lon="5.82961">
        <ele>1108.525282587</ele>
        <time>2015-07-07T12:17:05Z</time>
      </trkpt>
      <trkpt lat="45.53347" lon="5.82973">
        <ele>1104.419699006</ele>
        <time>2015-07-07T12:17:21Z</time>
      </trkpt>
      <trkpt lat="45.53352" lon="5.8298">
        <ele>1104.419699006</ele>
        <time>2015-07-07T12:17:26Z</time>
      </trkpt>
      <trkpt lat="45.5336" lon="5.82991">
        <ele>1099.945715247</ele>
        <time>2015-07-07T12:17:35Z</time>
      </trkpt>
      <trkpt lat="45.53368" lon="5.82992">
        <ele>1099.945715247</ele>
        <time>2015-07-07T12:17:40Z</time>
      </trkpt>
      <trkpt lat="45.53388" lon="5.82999">
        <ele>1097.007455245</ele>
        <time>2015-07-07T12:17:51Z</time>
      </trkpt>
      <trkpt lat="45.53398" lon="5.82999">
        <ele>1094.338612565</ele>
        <time>2015-07-07T12:17:56Z</time>
      </trkpt>
      <trkpt lat="45.53413" lon="5.83018">
        <ele>1091.485782021</ele>
        <time>2015-07-07T12:18:06Z</time>
      </trkpt>
      <trkpt lat="45.53425" lon="5.83029">
        <ele>1089.182345106</ele>
        <time>2015-07-07T12:18:10Z</time>
      </trkpt>
      <trkpt lat="45.5344" lon="5.83049">
        <ele>1086.665228982</ele>
        <time>2015-07-07T12:18:20Z</time>
      </trkpt>
      <trkpt lat="45.53447" lon="5.83057">
        <ele>1084.52508737</ele>
        <time>2015-07-07T12:18:26Z</time>
      </trkpt>
      <trkpt lat="45.53466" lon="5.83074">
        <ele>1082.443532397</ele>
        <time>2015-07-07T12:18:36Z</time>
      </trkpt>
      <trkpt lat="45.53479" lon="5.83076">
        <ele>1080.413696059</ele>
        <time>2015-07-07T12:18:40Z</time>
      </trkpt>
      <trkpt lat="45.53479" lon="5.83067">
        <ele>1080.413696059</ele>
        <time>2015-07-07T12:18:51Z</time>
      </trkpt>
      <trkpt lat="45.53488" lon="5.83068">
        <ele>1077.852699112</ele>
        <time>2015-07-07T12:18:56Z</time>
      </trkpt>
      <trkpt lat="45.535" lon="5.83074">
        <ele>1075.086711425</ele>
        <time>2015-07-07T12:19:06Z</time>
      </trkpt>
      <trkpt lat="45.53513" lon="5.83075">
        <ele>1072.418590607</ele>
        <time>2015-07-07T12:19:10Z</time>
      </trkpt>
      <trkpt lat="45.53527" lon="5.83088">
        <ele>1069.840520155</ele>
        <time>2015-07-07T12:19:26Z</time>
      </trkpt>
      <trkpt lat="45.5354" lon="5.83096">
        <ele>1067.34507255</ele>
        <time>2015-07-07T12:19:31Z</time>
      </trkpt>
      <trkpt lat="45.53553" lon="5.83092">
        <ele>1065.645755872</ele>
        <time>2015-07-07T12:19:41Z</time>
      </trkpt>
      <trkpt lat="45.53552" lon="5.83088">
        <ele>1065.645755872</ele>
        <time>2015-07-07T12:19:46Z</time>
      </trkpt>
      <trkpt lat="45.53561" lon="5.83084">
        <ele>1063.239828122</ele>
        <time>2015-07-07T12:19:56Z</time>
      </trkpt>
      <trkpt lat="45.53561" lon="5.83083">
        <ele>1063.239828122</ele>
        <time>2015-07-07T12:20:00Z</time>
      </trkpt>
      <trkpt lat="45.53568" lon="5.8308">
        <ele>1063.239828122</ele>
        <time>2015-07-07T12:20:11Z</time>
      </trkpt>
      <trkpt lat="45.53581" lon="5.8307">
        <ele>1061.186874862</ele>
        <time>2015-07-07T12:20:15Z</time>
      </trkpt>
      <trkpt lat="45.53593" lon="5.83052">
        <ele>1059.170720172</ele>
        <time>2015-07-07T12:20:26Z</time>
      </trkpt>
      <trkpt lat="45.53595" lon="5.83048">
        <ele>1059.170720172</ele>
        <time>2015-07-07T12:20:31Z</time>
      </trkpt>
      <trkpt lat="45.53596" lon="5.8303">
        <ele>1056.754265886</ele>
        <time>2015-07-07T12:20:40Z</time>
      </trkpt>
      <trkpt lat="45.53596" lon="5.83025">
        <ele>1056.754265886</ele>
        <time>2015-07-07T12:20:46Z</time>
      </trkpt>
      <trkpt lat="45.536" lon="5.83018">
        <ele>1053.966044045</ele>
        <time>2015-07-07T12:20:56Z</time>
      </trkpt>
      <trkpt lat="45.53601" lon="5.83018">
        <ele>1053.966044045</ele>
        <time>2015-07-07T12:21:01Z</time>
      </trkpt>
      <trkpt lat="45.53618" lon="5.83024">
        <ele>1051.554152771</ele>
        <time>2015-07-07T12:21:10Z</time>
      </trkpt>
      <trkpt lat="45.53624" lon="5.83023">
        <ele>1051.554152771</ele>
        <time>2015-07-07T12:21:16Z</time>
      </trkpt>
      <trkpt lat="45.53628" lon="5.83021">
        <ele>1049.057850842</ele>
        <time>2015-07-07T12:21:26Z</time>
      </trkpt>
      <trkpt lat="45.53629" lon="5.8302">
        <ele>1049.057850842</ele>
        <time>2015-07-07T12:21:30Z</time>
      </trkpt>
      <trkpt lat="45.53633" lon="5.83021">
        <ele>1049.057850842</ele>
        <time>2015-07-07T12:21:41Z</time>
      </trkpt>
      <trkpt lat="45.53634" lon="5.83017">
        <ele>1049.057850842</ele>
        <time>2015-07-07T12:21:46Z</time>
      </trkpt>
      <trkpt lat="45.53635" lon="5.83015">
        <ele>1046.626981616</ele>
        <time>2015-07-07T12:21:56Z</time>
      </trkpt>
      <trkpt lat="45.53639" lon="5.83016">
        <ele>1046.626981616</ele>
        <time>2015-07-07T12:22:01Z</time>
      </trkpt>
      <trkpt lat="45.53648" lon="5.83013">
        <ele>1043.535583704</ele>
        <time>2015-07-07T12:22:11Z</time>
      </trkpt>
      <trkpt lat="45.53658" lon="5.8301">
        <ele>1039.833480986</ele>
        <time>2015-07-07T12:22:16Z</time>
      </trkpt>
      <trkpt lat="45.53678" lon="5.83002">
        <ele>1036.865592721</ele>
        <time>2015-07-07T12:22:26Z</time>
      </trkpt>
      <trkpt lat="45.53687" lon="5.83003">
        <ele>1036.865592721</ele>
        <time>2015-07-07T12:22:31Z</time>
      </trkpt>
      <trkpt lat="45.53726" lon="5.83016">
        <ele>1033.137902493</ele>
        <time>2015-07-07T12:22:46Z</time>
      </trkpt>
      <trkpt lat="45.53737" lon="5.8302">
        <ele>1029.718188832</ele>
        <time>2015-07-07T12:22:50Z</time>
      </trkpt>
      <trkpt lat="45.5376" lon="5.83028">
        <ele>1026.586165348</ele>
        <time>2015-07-07T12:23:01Z</time>
      </trkpt>
      <trkpt lat="45.53768" lon="5.83027">
        <ele>1026.586165348</ele>
        <time>2015-07-07T12:23:05Z</time>
      </trkpt>
      <trkpt lat="45.53793" lon="5.83037">
        <ele>1023.86634893</ele>
        <time>2015-07-07T12:23:16Z</time>
      </trkpt>
      <trkpt lat="45.53804" lon="5.83039">
        <ele>1021.096511894</ele>
        <time>2015-07-07T12:23:21Z</time>
      </trkpt>
      <trkpt lat="45.53821" lon="5.83052">
        <ele>1017.848521067</ele>
        <time>2015-07-07T12:23:31Z</time>
      </trkpt>
      <trkpt lat="45.5383" lon="5.83058">
        <ele>1015.0240321</ele>
        <time>2015-07-07T12:23:35Z</time>
      </trkpt>
      <trkpt lat="45.53851" lon="5.83066">
        <ele>1012.160271085</ele>
        <time>2015-07-07T12:23:46Z</time>
      </trkpt>
      <trkpt lat="45.5386" lon="5.83066">
        <ele>1012.160271085</ele>
        <time>2015-07-07T12:23:51Z</time>
      </trkpt>
      <trkpt lat="45.53865" lon="5.83066">
        <ele>1009.549117269</ele>
        <time>2015-07-07T12:24:01Z</time>
      </trkpt>
      <trkpt lat="45.53869" lon="5.83069">
        <ele>1009.549117269</ele>
        <time>2015-07-07T12:24:05Z</time>
      </trkpt>
      <trkpt lat="45.53894" lon="5.83086">
        <ele>1006.739734466</ele>
        <time>2015-07-07T12:24:16Z</time>
      </trkpt>
      <trkpt lat="45.53907" lon="5.83096">
        <ele>1004.467840493</ele>
        <time>2015-07-07T12:24:21Z</time>
      </trkpt>
      <trkpt lat="45.53924" lon="5.8311">
        <ele>1002.54892488</ele>
        <time>2015-07-07T12:24:31Z</time>
      </trkpt>
      <trkpt lat="45.5393" lon="5.83116">
        <ele>1002.54892488</ele>
        <time>2015-07-07T12:24:35Z</time>
      </trkpt>
      <trkpt lat="45.53944" lon="5.83119">
        <ele>999.802256243</ele>
        <time>2015-07-07T12:24:45Z</time>
      </trkpt>
      <trkpt lat="45.5395" lon="5.83122">
        <ele>999.802256243</ele>
        <time>2015-07-07T12:24:51Z</time>
      </trkpt>
      <trkpt lat="45.53967" lon="5.83143">
        <ele>995.712598705</ele>
        <time>2015-07-07T12:25:05Z</time>
      </trkpt>
      <trkpt lat="45.53978" lon="5.83153">
        <ele>992.256214127</ele>
        <time>2015-07-07T12:25:11Z</time>
      </trkpt>
      <trkpt lat="45.54" lon="5.83161">
        <ele>988.524287302</ele>
        <time>2015-07-07T12:25:21Z</time>
      </trkpt>
      <trkpt lat="45.54016" lon="5.83174">
        <ele>984.828405775</ele>
        <time>2015-07-07T12:25:25Z</time>
      </trkpt>
      <trkpt lat="45.5403" lon="5.8319">
        <ele>981.745362029</ele>
        <time>2015-07-07T12:25:35Z</time>
      </trkpt>
      <trkpt lat="45.5404" lon="5.83194">
        <ele>978.799048512</ele>
        <time>2015-07-07T12:25:40Z</time>
      </trkpt>
      <trkpt lat="45.54056" lon="5.83191">
        <ele>976.556693205</ele>
        <time>2015-07-07T12:25:51Z</time>
      </trkpt>
      <trkpt lat="45.5406" lon="5.83191">
        <ele>976.556693205</ele>
        <time>2015-07-07T12:25:55Z</time>
      </trkpt>
      <trkpt lat="45.54079" lon="5.83202">
        <ele>974.244847724</ele>
        <time>2015-07-07T12:26:05Z</time>
      </trkpt>
      <trkpt lat="45.54083" lon="5.83206">
        <ele>974.244847724</ele>
        <time>2015-07-07T12:26:11Z</time>
      </trkpt>
      <trkpt lat="45.54095" lon="5.8321">
        <ele>971.723490482</ele>
        <time>2015-07-07T12:26:21Z</time>
      </trkpt>
      <trkpt lat="45.54104" lon="5.83211">
        <ele>969.439892726</ele>
        <time>2015-07-07T12:26:26Z</time>
      </trkpt>
      <trkpt lat="45.54117" lon="5.8321">
        <ele>966.654891594</ele>
        <time>2015-07-07T12:26:41Z</time>
      </trkpt>
      <trkpt lat="45.54122" lon="5.83207">
        <ele>966.654891594</ele>
        <time>2015-07-07T12:26:46Z</time>
      </trkpt>
      <trkpt lat="45.54148" lon="5.83232">
        <ele>963.117343</ele>
        <time>2015-07-07T12:26:55Z</time>
      </trkpt>
      <trkpt lat="45.5415" lon="5.83229">
        <ele>963.117343</ele>
        <time>2015-07-07T12:27:01Z</time>
      </trkpt>
      <trkpt lat="45.54161" lon="5.83246">
        <ele>960.037755358</ele>
        <time>2015-07-07T12:27:11Z</time>
      </trkpt>
      <trkpt lat="45.54168" lon="5.83258">
        <ele>957.815854616</ele>
        <time>2015-07-07T12:27:16Z</time>
      </trkpt>
      <trkpt lat="45.54198" lon="5.83282">
        <ele>956.243135227</ele>
        <time>2015-07-07T12:27:25Z</time>
      </trkpt>
      <trkpt lat="45.54203" lon="5.83286">
        <ele>956.243135227</ele>
        <time>2015-07-07T12:27:31Z</time>
      </trkpt>
      <trkpt lat="45.54222" lon="5.83296">
        <ele>954.548129198</ele>
        <time>2015-07-07T12:27:41Z</time>
      </trkpt>
      <trkpt lat="45.54228" lon="5.83301">
        <ele>954.548129198</ele>
        <time>2015-07-07T12:27:45Z</time>
      </trkpt>
      <trkpt lat="45.54244" lon="5.83308">
        <ele>952.881043945</ele>
        <time>2015-07-07T12:27:55Z</time>
      </trkpt>
      <trkpt lat="45.54247" lon="5.83315">
        <ele>952.881043945</ele>
        <time>2015-07-07T12:28:00Z</time>
      </trkpt>
      <trkpt lat="45.54266" lon="5.83338">
        <ele>951.236865881</ele>
        <time>2015-07-07T12:28:11Z</time>
      </trkpt>
      <trkpt lat="45.54273" lon="5.83344">
        <ele>951.236865881</ele>
        <time>2015-07-07T12:28:16Z</time>
      </trkpt>
      <trkpt lat="45.54282" lon="5.83348">
        <ele>950.763788365</ele>
        <time>2015-07-07T12:28:20Z</time>
      </trkpt>
      <trkpt lat="45.54292" lon="5.83349">
        <ele>950.793065899</ele>
        <time>2015-07-07T12:28:25Z</time>
      </trkpt>
      <trkpt lat="45.54296" lon="5.83352">
        <ele>950.793065899</ele>
        <time>2015-07-07T12:28:30Z</time>
      </trkpt>
      <trkpt lat="45.54302" lon="5.83346">
        <ele>951.136044043</ele>
        <time>2015-07-07T12:28:36Z</time>
      </trkpt>
      <trkpt lat="45.54313" lon="5.83352">
        <ele>952.04944011</ele>
        <time>2015-07-07T12:28:46Z</time>
      </trkpt>
      <trkpt lat="45.5432" lon="5.83352">
        <ele>952.04944011</ele>
        <time>2015-07-07T12:28:50Z</time>
      </trkpt>
      <trkpt lat="45.54331" lon="5.83346">
        <ele>953.481372381</ele>
        <time>2015-07-07T12:29:06Z</time>
      </trkpt>
      <trkpt lat="45.54339" lon="5.83346">
        <ele>953.481372381</ele>
        <time>2015-07-07T12:29:16Z</time>
      </trkpt>
      <trkpt lat="45.54345" lon="5.83352">
        <ele>955.382421525</ele>
        <time>2015-07-07T12:29:21Z</time>
      </trkpt>
      <trkpt lat="45.54372" lon="5.83356">
        <ele>957.273279973</ele>
        <time>2015-07-07T12:29:36Z</time>
      </trkpt>
      <trkpt lat="45.54379" lon="5.8336">
        <ele>957.273279973</ele>
        <time>2015-07-07T12:29:40Z</time>
      </trkpt>
      <trkpt lat="45.54406" lon="5.83371">
        <ele>958.710034135</ele>
        <time>2015-07-07T12:29:51Z</time>
      </trkpt>
      <trkpt lat="45.54422" lon="5.83367">
        <ele>959.715165871</ele>
        <time>2015-07-07T12:29:56Z</time>
      </trkpt>
      <trkpt lat="45.54434" lon="5.83371">
        <ele>961.031470674</ele>
        <time>2015-07-07T12:30:06Z</time>
      </trkpt>
      <trkpt lat="45.54442" lon="5.8337">
        <ele>961.031470674</ele>
        <time>2015-07-07T12:30:10Z</time>
      </trkpt>
      <trkpt lat="45.54468" lon="5.83383">
        <ele>962.049519783</ele>
        <time>2015-07-07T12:30:20Z</time>
      </trkpt>
      <trkpt lat="45.5448" lon="5.83388">
        <ele>963.214495235</ele>
        <time>2015-07-07T12:30:26Z</time>
      </trkpt>
      <trkpt lat="45.545" lon="5.83384">
        <ele>964.794592394</ele>
        <time>2015-07-07T12:30:36Z</time>
      </trkpt>
      <trkpt lat="45.54507" lon="5.8338">
        <ele>964.794592394</ele>
        <time>2015-07-07T12:30:41Z</time>
      </trkpt>
      <trkpt lat="45.54526" lon="5.83372">
        <ele>967.325614941</ele>
        <time>2015-07-07T12:30:51Z</time>
      </trkpt>
      <trkpt lat="45.54537" lon="5.83372">
        <ele>968.851712361</ele>
        <time>2015-07-07T12:30:56Z</time>
      </trkpt>
      <trkpt lat="45.54561" lon="5.83377">
        <ele>968.140243807</ele>
        <time>2015-07-07T12:31:06Z</time>
      </trkpt>
      <trkpt lat="45.54569" lon="5.83377">
        <ele>968.140243807</ele>
        <time>2015-07-07T12:31:10Z</time>
      </trkpt>
      <trkpt lat="45.54595" lon="5.83386">
        <ele>967.226113319</ele>
        <time>2015-07-07T12:31:20Z</time>
      </trkpt>
      <trkpt lat="45.54606" lon="5.83391">
        <ele>965.689800208</ele>
        <time>2015-07-07T12:31:26Z</time>
      </trkpt>
      <trkpt lat="45.5462" lon="5.83397">
        <ele>964.873938071</ele>
        <time>2015-07-07T12:31:36Z</time>
      </trkpt>
      <trkpt lat="45.54627" lon="5.83397">
        <ele>964.873938071</ele>
        <time>2015-07-07T12:31:40Z</time>
      </trkpt>
      <trkpt lat="45.54649" lon="5.83406">
        <ele>963.138527753</ele>
        <time>2015-07-07T12:31:56Z</time>
      </trkpt>
      <trkpt lat="45.54664" lon="5.83412">
        <ele>961.128513676</ele>
        <time>2015-07-07T12:32:01Z</time>
      </trkpt>
      <trkpt lat="45.54676" lon="5.83416">
        <ele>959.01010415</ele>
        <time>2015-07-07T12:32:10Z</time>
      </trkpt>
      <trkpt lat="45.54688" lon="5.8342">
        <ele>956.649563962</ele>
        <time>2015-07-07T12:32:16Z</time>
      </trkpt>
      <trkpt lat="45.54713" lon="5.83415">
        <ele>953.491489299</ele>
        <time>2015-07-07T12:32:26Z</time>
      </trkpt>
      <trkpt lat="45.54723" lon="5.83417">
        <ele>951.041208744</ele>
        <time>2015-07-07T12:32:31Z</time>
      </trkpt>
      <trkpt lat="45.54746" lon="5.83421">
        <ele>948.241710965</ele>
        <time>2015-07-07T12:32:41Z</time>
      </trkpt>
      <trkpt lat="45.54757" lon="5.8342">
        <ele>945.555817022</ele>
        <time>2015-07-07T12:32:45Z</time>
      </trkpt>
      <trkpt lat="45.54783" lon="5.83415">
        <ele>942.835658424</ele>
        <time>2015-07-07T12:32:56Z</time>
      </trkpt>
      <trkpt lat="45.54796" lon="5.83418">
        <ele>939.079709293</ele>
        <time>2015-07-07T12:33:01Z</time>
      </trkpt>
      <trkpt lat="45.54813" lon="5.83414">
        <ele>935.236395654</ele>
        <time>2015-07-07T12:33:10Z</time>
      </trkpt>
      <trkpt lat="45.54822" lon="5.83408">
        <ele>931.031835167</ele>
        <time>2015-07-07T12:33:16Z</time>
      </trkpt>
      <trkpt lat="45.54834" lon="5.83413">
        <ele>926.069148446</ele>
        <time>2015-07-07T12:33:26Z</time>
      </trkpt>
      <trkpt lat="45.54838" lon="5.83411">
        <ele>926.069148446</ele>
        <time>2015-07-07T12:33:30Z</time>
      </trkpt>
      <trkpt lat="45.5484" lon="5.83383">
        <ele>921.423804521</ele>
        <time>2015-07-07T12:33:41Z</time>
      </trkpt>
      <trkpt lat="45.54839" lon="5.83376">
        <ele>921.423804521</ele>
        <time>2015-07-07T12:33:46Z</time>
      </trkpt>
      <trkpt lat="45.54847" lon="5.83351">
        <ele>917.514865047</ele>
        <time>2015-07-07T12:33:56Z</time>
      </trkpt>
      <trkpt lat="45.54849" lon="5.83335">
        <ele>913.863783256</ele>
        <time>2015-07-07T12:34:00Z</time>
      </trkpt>
      <trkpt lat="45.54833" lon="5.83314">
        <ele>910.602777573</ele>
        <time>2015-07-07T12:34:16Z</time>
      </trkpt>
      <trkpt lat="45.54827" lon="5.833">
        <ele>907.420802607</ele>
        <time>2015-07-07T12:34:20Z</time>
      </trkpt>
      <trkpt lat="45.54811" lon="5.83287">
        <ele>904.173418519</ele>
        <time>2015-07-07T12:34:31Z</time>
      </trkpt>
      <trkpt lat="45.548" lon="5.83276">
        <ele>901.159172795</ele>
        <time>2015-07-07T12:34:36Z</time>
      </trkpt>
      <trkpt lat="45.54771" lon="5.83271">
        <ele>899.518551841</ele>
        <time>2015-07-07T12:34:46Z</time>
      </trkpt>
      <trkpt lat="45.5476" lon="5.83262">
        <ele>898.719045016</ele>
        <time>2015-07-07T12:34:51Z</time>
      </trkpt>
      <trkpt lat="45.54746" lon="5.83246">
        <ele>898.120654124</ele>
        <time>2015-07-07T12:35:00Z</time>
      </trkpt>
      <trkpt lat="45.54741" lon="5.83238">
        <ele>898.120654124</ele>
        <time>2015-07-07T12:35:06Z</time>
      </trkpt>
      <trkpt lat="45.54723" lon="5.83233">
        <ele>897.850263889</ele>
        <time>2015-07-07T12:35:16Z</time>
      </trkpt>
      <trkpt lat="45.54715" lon="5.83222">
        <ele>898.168523559</ele>
        <time>2015-07-07T12:35:20Z</time>
      </trkpt>
      <trkpt lat="45.54695" lon="5.83201">
        <ele>897.874084573</ele>
        <time>2015-07-07T12:35:31Z</time>
      </trkpt>
      <trkpt lat="45.54686" lon="5.83199">
        <ele>897.874084573</ele>
        <time>2015-07-07T12:35:36Z</time>
      </trkpt>
      <trkpt lat="45.54688" lon="5.83173">
        <ele>896.864274947</ele>
        <time>2015-07-07T12:35:51Z</time>
      </trkpt>
      <trkpt lat="45.54694" lon="5.83158">
        <ele>895.766471928</ele>
        <time>2015-07-07T12:35:55Z</time>
      </trkpt>
      <trkpt lat="45.54687" lon="5.83143">
        <ele>895.018058736</ele>
        <time>2015-07-07T12:36:05Z</time>
      </trkpt>
      <trkpt lat="45.54679" lon="5.83133">
        <ele>894.590942546</ele>
        <time>2015-07-07T12:36:11Z</time>
      </trkpt>
      <trkpt lat="45.5467" lon="5.83121">
        <ele>895.17872775</ele>
        <time>2015-07-07T12:36:21Z</time>
      </trkpt>
      <trkpt lat="45.54665" lon="5.83115">
        <ele>895.17872775</ele>
        <time>2015-07-07T12:36:25Z</time>
      </trkpt>
      <trkpt lat="45.5467" lon="5.8309">
        <ele>894.538986751</ele>
        <time>2015-07-07T12:36:36Z</time>
      </trkpt>
      <trkpt lat="45.54667" lon="5.83109">
        <ele>893.623799074</ele>
        <time>2015-07-07T12:36:41Z</time>
      </trkpt>
      <trkpt lat="45.54663" lon="5.83112">
        <ele>893.623799074</ele>
        <time>2015-07-07T12:36:51Z</time>
      </trkpt>
      <trkpt lat="45.54657" lon="5.83108">
        <ele>893.748424811</ele>
        <time>2015-07-07T12:36:56Z</time>
      </trkpt>
      <trkpt lat="45.54645" lon="5.83105">
        <ele>893.966945805</ele>
        <time>2015-07-07T12:37:06Z</time>
      </trkpt>
      <trkpt lat="45.54639" lon="5.83101">
        <ele>893.966945805</ele>
        <time>2015-07-07T12:37:11Z</time>
      </trkpt>
      <trkpt lat="45.54631" lon="5.83088">
        <ele>893.835034478</ele>
        <time>2015-07-07T12:37:25Z</time>
      </trkpt>
      <trkpt lat="45.54629" lon="5.83085">
        <ele>893.835034478</ele>
        <time>2015-07-07T12:37:30Z</time>
      </trkpt>
      <trkpt lat="45.54629" lon="5.83084">
        <ele>893.835034478</ele>
        <time>2015-07-07T12:37:36Z</time>
      </trkpt>
      <trkpt lat="45.54629" lon="5.83084">
        <ele>893.835034478</ele>
        <time>2015-07-07T12:37:46Z</time>
      </trkpt>
      <trkpt lat="45.5464" lon="5.8308">
        <ele>892.65380613</ele>
        <time>2015-07-07T12:37:51Z</time>
      </trkpt>
      <trkpt lat="45.54657" lon="5.83069">
        <ele>891.363931031</ele>
        <time>2015-07-07T12:38:00Z</time>
      </trkpt>
      <trkpt lat="45.54659" lon="5.83067">
        <ele>891.363931031</ele>
        <time>2015-07-07T12:38:06Z</time>
      </trkpt>
      <trkpt lat="45.5466" lon="5.83068">
        <ele>891.363931031</ele>
        <time>2015-07-07T12:38:16Z</time>
      </trkpt>
      <trkpt lat="45.54658" lon="5.83067">
        <ele>891.363931031</ele>
        <time>2015-07-07T12:38:20Z</time>
      </trkpt>
      <trkpt lat="45.54658" lon="5.83068">
        <ele>891.363931031</ele>
        <time>2015-07-07T12:38:31Z</time>
      </trkpt>
      <trkpt lat="45.54656" lon="5.83064">
        <ele>891.363931031</ele>
        <time>2015-07-07T12:38:36Z</time>
      </trkpt>
      <trkpt lat="45.54647" lon="5.83056">
        <ele>889.684445184</ele>
        <time>2015-07-07T12:38:45Z</time>
      </trkpt>
      <trkpt lat="45.5465" lon="5.83044">
        <ele>889.684445184</ele>
        <time>2015-07-07T12:38:51Z</time>
      </trkpt>
      <trkpt lat="45.5465" lon="5.83036">
        <ele>886.923831851</ele>
        <time>2015-07-07T12:39:01Z</time>
      </trkpt>
      <trkpt lat="45.54649" lon="5.83032">
        <ele>886.923831851</ele>
        <time>2015-07-07T12:39:05Z</time>
      </trkpt>
      <trkpt lat="45.5466" lon="5.83019">
        <ele>883.597335452</ele>
        <time>2015-07-07T12:39:21Z</time>
      </trkpt>
      <trkpt lat="45.54663" lon="5.83006">
        <ele>880.328078868</ele>
        <time>2015-07-07T12:39:26Z</time>
      </trkpt>
      <trkpt lat="45.54658" lon="5.82992">
        <ele>877.405043652</ele>
        <time>2015-07-07T12:39:36Z</time>
      </trkpt>
      <trkpt lat="45.5465" lon="5.82991">
        <ele>877.405043652</ele>
        <time>2015-07-07T12:39:40Z</time>
      </trkpt>
      <trkpt lat="45.54632" lon="5.82987">
        <ele>874.374456909</ele>
        <time>2015-07-07T12:39:51Z</time>
      </trkpt>
      <trkpt lat="45.54623" lon="5.82992">
        <ele>871.536724828</ele>
        <time>2015-07-07T12:39:56Z</time>
      </trkpt>
      <trkpt lat="45.54611" lon="5.82987">
        <ele>869.313733272</ele>
        <time>2015-07-07T12:40:06Z</time>
      </trkpt>
      <trkpt lat="45.54598" lon="5.82985">
        <ele>867.518177227</ele>
        <time>2015-07-07T12:40:11Z</time>
      </trkpt>
      <trkpt lat="45.5458" lon="5.82977">
        <ele>864.245940499</ele>
        <time>2015-07-07T12:40:21Z</time>
      </trkpt>
      <trkpt lat="45.54569" lon="5.82971">
        <ele>860.763215229</ele>
        <time>2015-07-07T12:40:25Z</time>
      </trkpt>
      <trkpt lat="45.54556" lon="5.82968">
        <ele>857.379052</ele>
        <time>2015-07-07T12:40:35Z</time>
      </trkpt>
      <trkpt lat="45.54552" lon="5.82966">
        <ele>857.379052</ele>
        <time>2015-07-07T12:40:40Z</time>
      </trkpt>
      <trkpt lat="45.54536" lon="5.82966">
        <ele>854.523573694</ele>
        <time>2015-07-07T12:40:50Z</time>
      </trkpt>
      <trkpt lat="45.54527" lon="5.82959">
        <ele>851.152642153</ele>
        <time>2015-07-07T12:40:56Z</time>
      </trkpt>
      <trkpt lat="45.54511" lon="5.82954">
        <ele>847.741300206</ele>
        <time>2015-07-07T12:41:06Z</time>
      </trkpt>
      <trkpt lat="45.54504" lon="5.82952">
        <ele>847.741300206</ele>
        <time>2015-07-07T12:41:10Z</time>
      </trkpt>
      <trkpt lat="45.54474" lon="5.82955">
        <ele>844.873833545</ele>
        <time>2015-07-07T12:41:26Z</time>
      </trkpt>
      <trkpt lat="45.54468" lon="5.82955">
        <ele>844.873833545</ele>
        <time>2015-07-07T12:41:30Z</time>
      </trkpt>
      <trkpt lat="45.54445" lon="5.82946">
        <ele>843.0899917</ele>
        <time>2015-07-07T12:41:41Z</time>
      </trkpt>
      <trkpt lat="45.54439" lon="5.82946">
        <ele>843.0899917</ele>
        <time>2015-07-07T12:41:45Z</time>
      </trkpt>
      <trkpt lat="45.54425" lon="5.82943">
        <ele>840.725075488</ele>
        <time>2015-07-07T12:41:55Z</time>
      </trkpt>
      <trkpt lat="45.5442" lon="5.82937">
        <ele>840.725075488</ele>
        <time>2015-07-07T12:42:01Z</time>
      </trkpt>
      <trkpt lat="45.54407" lon="5.82935">
        <ele>838.83221425</ele>
        <time>2015-07-07T12:42:11Z</time>
      </trkpt>
      <trkpt lat="45.54404" lon="5.82935">
        <ele>838.83221425</ele>
        <time>2015-07-07T12:42:15Z</time>
      </trkpt>
      <trkpt lat="45.54384" lon="5.82931">
        <ele>837.088763974</ele>
        <time>2015-07-07T12:42:25Z</time>
      </trkpt>
      <trkpt lat="45.54379" lon="5.82931">
        <ele>837.088763974</ele>
        <time>2015-07-07T12:42:31Z</time>
      </trkpt>
      <trkpt lat="45.5436" lon="5.82926">
        <ele>834.762947373</ele>
        <time>2015-07-07T12:42:41Z</time>
      </trkpt>
      <trkpt lat="45.54354" lon="5.8292">
        <ele>834.762947373</ele>
        <time>2015-07-07T12:42:45Z</time>
      </trkpt>
      <trkpt lat="45.5434" lon="5.82904">
        <ele>832.042965289</ele>
        <time>2015-07-07T12:43:01Z</time>
      </trkpt>
      <trkpt lat="45.54333" lon="5.82899">
        <ele>832.042965289</ele>
        <time>2015-07-07T12:43:05Z</time>
      </trkpt>
      <trkpt lat="45.54333" lon="5.82867">
        <ele>825.933771686</ele>
        <time>2015-07-07T12:43:16Z</time>
      </trkpt>
      <trkpt lat="45.54333" lon="5.82862">
        <ele>825.933771686</ele>
        <time>2015-07-07T12:43:21Z</time>
      </trkpt>
      <trkpt lat="45.54332" lon="5.82848">
        <ele>819.001863329</ele>
        <time>2015-07-07T12:43:31Z</time>
      </trkpt>
      <trkpt lat="45.54334" lon="5.82843">
        <ele>819.001863329</ele>
        <time>2015-07-07T12:43:36Z</time>
      </trkpt>
      <trkpt lat="45.54344" lon="5.82828">
        <ele>810.024617314</ele>
        <time>2015-07-07T12:43:45Z</time>
      </trkpt>
      <trkpt lat="45.54346" lon="5.82825">
        <ele>810.024617314</ele>
        <time>2015-07-07T12:43:51Z</time>
      </trkpt>
      <trkpt lat="45.54347" lon="5.82822">
        <ele>810.024617314</ele>
        <time>2015-07-07T12:44:01Z</time>
      </trkpt>
      <trkpt lat="45.54346" lon="5.82822">
        <ele>810.024617314</ele>
        <time>2015-07-07T12:44:05Z</time>
      </trkpt>
      <trkpt lat="45.54346" lon="5.82822">
        <ele>810.024617314</ele>
        <time>2015-07-07T12:44:16Z</time>
      </trkpt>
      <trkpt lat="45.54346" lon="5.82822">
        <ele>810.024617314</ele>
        <time>2015-07-07T12:44:20Z</time>
      </trkpt>
      <trkpt lat="45.54337" lon="5.82811">
        <ele>801.621705528</ele>
        <time>2015-07-07T12:44:31Z</time>
      </trkpt>
      <trkpt lat="45.54331" lon="5.82805">
        <ele>801.621705528</ele>
        <time>2015-07-07T12:44:35Z</time>
      </trkpt>
      <trkpt lat="45.54312" lon="5.82796">
        <ele>793.336341329</ele>
        <time>2015-07-07T12:44:46Z</time>
      </trkpt>
      <trkpt lat="45.54306" lon="5.82795">
        <ele>793.336341329</ele>
        <time>2015-07-07T12:44:51Z</time>
      </trkpt>
      <trkpt lat="45.54294" lon="5.82795">
        <ele>784.168294533</ele>
        <time>2015-07-07T12:45:05Z</time>
      </trkpt>
      <trkpt lat="45.54276" lon="5.82785">
        <ele>775.210580988</ele>
        <time>2015-07-07T12:45:21Z</time>
      </trkpt>
      <trkpt lat="45.5427" lon="5.8278">
        <ele>775.210580988</ele>
        <time>2015-07-07T12:45:25Z</time>
      </trkpt>
      <trkpt lat="45.54264" lon="5.82766">
        <ele>767.042704044</ele>
        <time>2015-07-07T12:45:35Z</time>
      </trkpt>
      <trkpt lat="45.54263" lon="5.82757">
        <ele>767.042704044</ele>
        <time>2015-07-07T12:45:41Z</time>
      </trkpt>
      <trkpt lat="45.54254" lon="5.82748">
        <ele>758.613830952</ele>
        <time>2015-07-07T12:45:51Z</time>
      </trkpt>
      <trkpt lat="45.54251" lon="5.82752">
        <ele>758.613830952</ele>
        <time>2015-07-07T12:45:55Z</time>
      </trkpt>
      <trkpt lat="45.5425" lon="5.82753">
        <ele>758.613830952</ele>
        <time>2015-07-07T12:46:06Z</time>
      </trkpt>
      <trkpt lat="45.54245" lon="5.82753">
        <ele>748.950697902</ele>
        <time>2015-07-07T12:46:11Z</time>
      </trkpt>
      <trkpt lat="45.54243" lon="5.82753">
        <ele>748.950697902</ele>
        <time>2015-07-07T12:46:21Z</time>
      </trkpt>
      <trkpt lat="45.54243" lon="5.82753">
        <ele>748.950697902</ele>
        <time>2015-07-07T12:46:25Z</time>
      </trkpt>
      <trkpt lat="45.54234" lon="5.82755">
        <ele>739.892729115</ele>
        <time>2015-07-07T12:46:36Z</time>
      </trkpt>
      <trkpt lat="45.54225" lon="5.82749">
        <ele>731.701012692</ele>
        <time>2015-07-07T12:46:41Z</time>
      </trkpt>
      <trkpt lat="45.54204" lon="5.82753">
        <ele>723.461714766</ele>
        <time>2015-07-07T12:46:51Z</time>
      </trkpt>
      <trkpt lat="45.54201" lon="5.8275">
        <ele>723.461714766</ele>
        <time>2015-07-07T12:46:55Z</time>
      </trkpt>
      <trkpt lat="45.54194" lon="5.82751">
        <ele>715.192493049</ele>
        <time>2015-07-07T12:47:06Z</time>
      </trkpt>
      <trkpt lat="45.54192" lon="5.82748">
        <ele>715.192493049</ele>
        <time>2015-07-07T12:47:10Z</time>
      </trkpt>
      <trkpt lat="45.54187" lon="5.82743">
        <ele>707.774011429</ele>
        <time>2015-07-07T12:47:21Z</time>
      </trkpt>
      <trkpt lat="45.54181" lon="5.82739">
        <ele>707.774011429</ele>
        <time>2015-07-07T12:47:26Z</time>
      </trkpt>
      <trkpt lat="45.54176" lon="5.82725">
        <ele>700.722401822</ele>
        <time>2015-07-07T12:47:40Z</time>
      </trkpt>
      <trkpt lat="45.54172" lon="5.82716">
        <ele>700.722401822</ele>
        <time>2015-07-07T12:47:46Z</time>
      </trkpt>
      <trkpt lat="45.54177" lon="5.82709">
        <ele>693.587859245</ele>
        <time>2015-07-07T12:47:56Z</time>
      </trkpt>
      <trkpt lat="45.54179" lon="5.82702">
        <ele>693.587859245</ele>
        <time>2015-07-07T12:48:00Z</time>
      </trkpt>
      <trkpt lat="45.54184" lon="5.82696">
        <ele>685.521069443</ele>
        <time>2015-07-07T12:48:11Z</time>
      </trkpt>
      <trkpt lat="45.54188" lon="5.82695">
        <ele>685.521069443</ele>
        <time>2015-07-07T12:48:16Z</time>
      </trkpt>
      <trkpt lat="45.54196" lon="5.827">
        <ele>677.754832802</ele>
        <time>2015-07-07T12:48:25Z</time>
      </trkpt>
      <trkpt lat="45.54197" lon="5.82698">
        <ele>677.754832802</ele>
        <time>2015-07-07T12:48:31Z</time>
      </trkpt>
      <trkpt lat="45.542" lon="5.82693">
        <ele>677.754832802</ele>
        <time>2015-07-07T12:48:41Z</time>
      </trkpt>
      <trkpt lat="45.54202" lon="5.8269">
        <ele>670.421324978</ele>
        <time>2015-07-07T12:48:45Z</time>
      </trkpt>
      <trkpt lat="45.54211" lon="5.82692">
        <ele>663.064915469</ele>
        <time>2015-07-07T12:48:56Z</time>
      </trkpt>
      <trkpt lat="45.54215" lon="5.82694">
        <ele>663.064915469</ele>
        <time>2015-07-07T12:49:01Z</time>
      </trkpt>
      <trkpt lat="45.54215" lon="5.82687">
        <ele>656.848300935</ele>
        <time>2015-07-07T12:49:11Z</time>
      </trkpt>
      <trkpt lat="45.54218" lon="5.8268">
        <ele>656.848300935</ele>
        <time>2015-07-07T12:49:16Z</time>
      </trkpt>
      <trkpt lat="45.54219" lon="5.82675">
        <ele>650.971705949</ele>
        <time>2015-07-07T12:49:25Z</time>
      </trkpt>
      <trkpt lat="45.54224" lon="5.8268">
        <ele>650.971705949</ele>
        <time>2015-07-07T12:49:31Z</time>
      </trkpt>
      <trkpt lat="45.54231" lon="5.82674">
        <ele>645.125082888</ele>
        <time>2015-07-07T12:49:41Z</time>
      </trkpt>
      <trkpt lat="45.54235" lon="5.82674">
        <ele>645.125082888</ele>
        <time>2015-07-07T12:49:46Z</time>
      </trkpt>
      <trkpt lat="45.54242" lon="5.8267">
        <ele>638.876579806</ele>
        <time>2015-07-07T12:49:56Z</time>
      </trkpt>
      <trkpt lat="45.54249" lon="5.82668">
        <ele>638.876579806</ele>
        <time>2015-07-07T12:50:01Z</time>
      </trkpt>
      <trkpt lat="45.54266" lon="5.82664">
        <ele>633.412054384</ele>
        <time>2015-07-07T12:50:15Z</time>
      </trkpt>
      <trkpt lat="45.5428" lon="5.82662">
        <ele>628.81893283</ele>
        <time>2015-07-07T12:50:20Z</time>
      </trkpt>
      <trkpt lat="45.54299" lon="5.82656">
        <ele>624.887235642</ele>
        <time>2015-07-07T12:50:31Z</time>
      </trkpt>
      <trkpt lat="45.54307" lon="5.82645">
        <ele>621.708487699</ele>
        <time>2015-07-07T12:50:36Z</time>
      </trkpt>
      <trkpt lat="45.54324" lon="5.82633">
        <ele>619.076902387</ele>
        <time>2015-07-07T12:50:46Z</time>
      </trkpt>
      <trkpt lat="45.54329" lon="5.82625">
        <ele>619.076902387</ele>
        <time>2015-07-07T12:50:50Z</time>
      </trkpt>
      <trkpt lat="45.54341" lon="5.82617">
        <ele>616.367724777</ele>
        <time>2015-07-07T12:51:01Z</time>
      </trkpt>
      <trkpt lat="45.54345" lon="5.82614">
        <ele>616.367724777</ele>
        <time>2015-07-07T12:51:06Z</time>
      </trkpt>
      <trkpt lat="45.54346" lon="5.8261">
        <ele>616.367724777</ele>
        <time>2015-07-07T12:51:16Z</time>
      </trkpt>
      <trkpt lat="45.54346" lon="5.8261">
        <ele>616.367724777</ele>
        <time>2015-07-07T12:51:20Z</time>
      </trkpt>
      <trkpt lat="45.54355" lon="5.82602">
        <ele>614.443245943</ele>
        <time>2015-07-07T12:51:31Z</time>
      </trkpt>
      <trkpt lat="45.54361" lon="5.82598">
        <ele>614.443245943</ele>
        <time>2015-07-07T12:51:35Z</time>
      </trkpt>
      <trkpt lat="45.54368" lon="5.82598">
        <ele>612.370740436</ele>
        <time>2015-07-07T12:51:40Z</time>
      </trkpt>
      <trkpt lat="45.54368" lon="5.82595">
        <ele>612.370740436</ele>
        <time>2015-07-07T12:51:45Z</time>
      </trkpt>
      <trkpt lat="45.54367" lon="5.82594">
        <ele>612.370740436</ele>
        <time>2015-07-07T12:52:01Z</time>
      </trkpt>
      <trkpt lat="45.54365" lon="5.82588">
        <ele>612.370740436</ele>
        <time>2015-07-07T12:52:05Z</time>
      </trkpt>
      <trkpt lat="45.54367" lon="5.8255">
        <ele>610.295094917</ele>
        <time>2015-07-07T12:52:15Z</time>
      </trkpt>
      <trkpt lat="45.5438" lon="5.82539">
        <ele>608.494611952</ele>
        <time>2015-07-07T12:52:21Z</time>
      </trkpt>
      <trkpt lat="45.54403" lon="5.82529">
        <ele>607.082243384</ele>
        <time>2015-07-07T12:52:31Z</time>
      </trkpt>
      <trkpt lat="45.54415" lon="5.8252">
        <ele>605.72923302</ele>
        <time>2015-07-07T12:52:35Z</time>
      </trkpt>
      <trkpt lat="45.54433" lon="5.82504">
        <ele>604.707299248</ele>
        <time>2015-07-07T12:52:46Z</time>
      </trkpt>
      <trkpt lat="45.54443" lon="5.82494">
        <ele>603.690906476</ele>
        <time>2015-07-07T12:52:51Z</time>
      </trkpt>
      <trkpt lat="45.54464" lon="5.82491">
        <ele>603.243197</ele>
        <time>2015-07-07T12:53:01Z</time>
      </trkpt>
      <trkpt lat="45.54471" lon="5.8249">
        <ele>603.243197</ele>
        <time>2015-07-07T12:53:05Z</time>
      </trkpt>
      <trkpt lat="45.54486" lon="5.82466">
        <ele>604.028607486</ele>
        <time>2015-07-07T12:53:16Z</time>
      </trkpt>
      <trkpt lat="45.54491" lon="5.82459">
        <ele>604.028607486</ele>
        <time>2015-07-07T12:53:20Z</time>
      </trkpt>
      <trkpt lat="45.54502" lon="5.82428">
        <ele>604.065484652</ele>
        <time>2015-07-07T12:53:31Z</time>
      </trkpt>
      <trkpt lat="45.54508" lon="5.8242">
        <ele>604.065484652</ele>
        <time>2015-07-07T12:53:36Z</time>
      </trkpt>
      <trkpt lat="45.54532" lon="5.8241">
        <ele>603.105279135</ele>
        <time>2015-07-07T12:53:51Z</time>
      </trkpt>
      <trkpt lat="45.54537" lon="5.82407">
        <ele>603.105279135</ele>
        <time>2015-07-07T12:53:56Z</time>
      </trkpt>
      <trkpt lat="45.54553" lon="5.82397">
        <ele>602.50595866</ele>
        <time>2015-07-07T12:54:05Z</time>
      </trkpt>
      <trkpt lat="45.54562" lon="5.82388">
        <ele>602.804432044</ele>
        <time>2015-07-07T12:54:11Z</time>
      </trkpt>
      <trkpt lat="45.54578" lon="5.82375">
        <ele>602.766600902</ele>
        <time>2015-07-07T12:54:20Z</time>
      </trkpt>
      <trkpt lat="45.54587" lon="5.82366">
        <ele>602.403161365</ele>
        <time>2015-07-07T12:54:25Z</time>
      </trkpt>
      <trkpt lat="45.54606" lon="5.82353">
        <ele>601.725260315</ele>
        <time>2015-07-07T12:54:36Z</time>
      </trkpt>
      <trkpt lat="45.54611" lon="5.82346">
        <ele>601.725260315</ele>
        <time>2015-07-07T12:54:40Z</time>
      </trkpt>
      <trkpt lat="45.54625" lon="5.82337">
        <ele>600.744445075</ele>
        <time>2015-07-07T12:54:51Z</time>
      </trkpt>
      <trkpt lat="45.54634" lon="5.82335">
        <ele>600.744445075</ele>
        <time>2015-07-07T12:54:56Z</time>
      </trkpt>
      <trkpt lat="45.54647" lon="5.82329">
        <ele>599.184388076</ele>
        <time>2015-07-07T12:55:06Z</time>
      </trkpt>
      <trkpt lat="45.54652" lon="5.82327">
        <ele>599.184388076</ele>
        <time>2015-07-07T12:55:10Z</time>
      </trkpt>
      <trkpt lat="45.54666" lon="5.82313">
        <ele>597.223368912</ele>
        <time>2015-07-07T12:55:21Z</time>
      </trkpt>
      <trkpt lat="45.54672" lon="5.82301">
        <ele>595.748602026</ele>
        <time>2015-07-07T12:55:26Z</time>
      </trkpt>
      <trkpt lat="45.54683" lon="5.82282">
        <ele>594.139999945</ele>
        <time>2015-07-07T12:55:36Z</time>
      </trkpt>
      <trkpt lat="45.54691" lon="5.82277">
        <ele>594.139999945</ele>
        <time>2015-07-07T12:55:40Z</time>
      </trkpt>
      <trkpt lat="45.54696" lon="5.82266">
        <ele>593.120747447</ele>
        <time>2015-07-07T12:55:51Z</time>
      </trkpt>
      <trkpt lat="45.54702" lon="5.82265">
        <ele>593.120747447</ele>
        <time>2015-07-07T12:55:56Z</time>
      </trkpt>
      <trkpt lat="45.54712" lon="5.82252">
        <ele>591.918481431</ele>
        <time>2015-07-07T12:56:06Z</time>
      </trkpt>
      <trkpt lat="45.5472" lon="5.82244">
        <ele>590.538984222</ele>
        <time>2015-07-07T12:56:11Z</time>
      </trkpt>
      <trkpt lat="45.5474" lon="5.82228">
        <ele>588.412000064</ele>
        <time>2015-07-07T12:56:20Z</time>
      </trkpt>
      <trkpt lat="45.54751" lon="5.82219">
        <ele>586.885034873</ele>
        <time>2015-07-07T12:56:26Z</time>
      </trkpt>
      <trkpt lat="45.54779" lon="5.82202">
        <ele>585.475912329</ele>
        <time>2015-07-07T12:56:41Z</time>
      </trkpt>
      <trkpt lat="45.54761" lon="5.82197">
        <ele>584.458416672</ele>
        <time>2015-07-07T12:56:45Z</time>
      </trkpt>
      <trkpt lat="45.54744" lon="5.82164">
        <ele>582.500205423</ele>
        <time>2015-07-07T12:56:56Z</time>
      </trkpt>
      <trkpt lat="45.54733" lon="5.8215">
        <ele>580.38730314</ele>
        <time>2015-07-07T12:57:01Z</time>
      </trkpt>
      <trkpt lat="45.54707" lon="5.82132">
        <ele>578.560494602</ele>
        <time>2015-07-07T12:57:11Z</time>
      </trkpt>
      <trkpt lat="45.54692" lon="5.82135">
        <ele>576.995328092</ele>
        <time>2015-07-07T12:57:15Z</time>
      </trkpt>
      <trkpt lat="45.54673" lon="5.82137">
        <ele>574.371680299</ele>
        <time>2015-07-07T12:57:25Z</time>
      </trkpt>
      <trkpt lat="45.54655" lon="5.82143">
        <ele>572.207739342</ele>
        <time>2015-07-07T12:57:31Z</time>
      </trkpt>
      <trkpt lat="45.5463" lon="5.82155">
        <ele>569.60334078</ele>
        <time>2015-07-07T12:57:41Z</time>
      </trkpt>
      <trkpt lat="45.54615" lon="5.82159">
        <ele>567.167019615</ele>
        <time>2015-07-07T12:57:45Z</time>
      </trkpt>
      <trkpt lat="45.54589" lon="5.82154">
        <ele>564.597680996</ele>
        <time>2015-07-07T12:57:56Z</time>
      </trkpt>
      <trkpt lat="45.5458" lon="5.82138">
        <ele>562.337474228</ele>
        <time>2015-07-07T12:58:01Z</time>
      </trkpt>
      <trkpt lat="45.54573" lon="5.82142">
        <ele>562.337474228</ele>
        <time>2015-07-07T12:58:05Z</time>
      </trkpt>
      <trkpt lat="45.5457" lon="5.82142">
        <ele>560.507162735</ele>
        <time>2015-07-07T12:58:10Z</time>
      </trkpt>
      <trkpt lat="45.54557" lon="5.82143">
        <ele>558.929382933</ele>
        <time>2015-07-07T12:58:16Z</time>
      </trkpt>
      <trkpt lat="45.54546" lon="5.82151">
        <ele>557.295143919</ele>
        <time>2015-07-07T12:58:26Z</time>
      </trkpt>
      <trkpt lat="45.54537" lon="5.82154">
        <ele>557.295143919</ele>
        <time>2015-07-07T12:58:31Z</time>
      </trkpt>
      <trkpt lat="45.5452" lon="5.82154">
        <ele>555.750801024</ele>
        <time>2015-07-07T12:58:40Z</time>
      </trkpt>
      <trkpt lat="45.54515" lon="5.82148">
        <ele>555.750801024</ele>
        <time>2015-07-07T12:58:46Z</time>
      </trkpt>
      <trkpt lat="45.5451" lon="5.82147">
        <ele>555.296525156</ele>
        <time>2015-07-07T12:58:56Z</time>
      </trkpt>
      <trkpt lat="45.54506" lon="5.82151">
        <ele>555.296525156</ele>
        <time>2015-07-07T12:59:00Z</time>
      </trkpt>
      <trkpt lat="45.54494" lon="5.82149">
        <ele>555.991441843</ele>
        <time>2015-07-07T12:59:16Z</time>
      </trkpt>
      <trkpt lat="45.54489" lon="5.82144">
        <ele>555.991441843</ele>
        <time>2015-07-07T12:59:20Z</time>
      </trkpt>
      <trkpt lat="45.54479" lon="5.82144">
        <ele>557.022597664</ele>
        <time>2015-07-07T12:59:30Z</time>
      </trkpt>
      <trkpt lat="45.54477" lon="5.8215">
        <ele>557.022597664</ele>
        <time>2015-07-07T12:59:36Z</time>
      </trkpt>
      <trkpt lat="45.54473" lon="5.82145">
        <ele>556.627197593</ele>
        <time>2015-07-07T12:59:46Z</time>
      </trkpt>
      <trkpt lat="45.54471" lon="5.82145">
        <ele>556.627197593</ele>
        <time>2015-07-07T12:59:51Z</time>
      </trkpt>
      <trkpt lat="45.54466" lon="5.82149">
        <ele>556.627197593</ele>
        <time>2015-07-07T13:00:01Z</time>
      </trkpt>
      <trkpt lat="45.54459" lon="5.82152">
        <ele>554.905441999</ele>
        <time>2015-07-07T13:00:05Z</time>
      </trkpt>
      <trkpt lat="45.54449" lon="5.82146">
        <ele>551.809944964</ele>
        <time>2015-07-07T13:00:16Z</time>
      </trkpt>
      <trkpt lat="45.5444" lon="5.82144">
        <ele>549.46248052</ele>
        <time>2015-07-07T13:00:21Z</time>
      </trkpt>
      <trkpt lat="45.54419" lon="5.82132">
        <ele>547.665337874</ele>
        <time>2015-07-07T13:00:31Z</time>
      </trkpt>
      <trkpt lat="45.54415" lon="5.82133">
        <ele>547.665337874</ele>
        <time>2015-07-07T13:00:35Z</time>
      </trkpt>
      <trkpt lat="45.54406" lon="5.82133">
        <ele>545.513360964</ele>
        <time>2015-07-07T13:00:46Z</time>
      </trkpt>
      <trkpt lat="45.54401" lon="5.82136">
        <ele>545.513360964</ele>
        <time>2015-07-07T13:00:51Z</time>
      </trkpt>
      <trkpt lat="45.54382" lon="5.82119">
        <ele>543.033664742</ele>
        <time>2015-07-07T13:01:01Z</time>
      </trkpt>
      <trkpt lat="45.54375" lon="5.82113">
        <ele>543.033664742</ele>
        <time>2015-07-07T13:01:05Z</time>
      </trkpt>
      <trkpt lat="45.54361" lon="5.82095">
        <ele>540.396506301</ele>
        <time>2015-07-07T13:01:15Z</time>
      </trkpt>
      <trkpt lat="45.54354" lon="5.82092">
        <ele>540.396506301</ele>
        <time>2015-07-07T13:01:21Z</time>
      </trkpt>
      <trkpt lat="45.54316" lon="5.82079">
        <ele>536.319053718</ele>
        <time>2015-07-07T13:01:36Z</time>
      </trkpt>
      <trkpt lat="45.54291" lon="5.8206">
        <ele>531.922599575</ele>
        <time>2015-07-07T13:01:51Z</time>
      </trkpt>
      <trkpt lat="45.54292" lon="5.82051">
        <ele>531.922599575</ele>
        <time>2015-07-07T13:01:55Z</time>
      </trkpt>
      <trkpt lat="45.54275" lon="5.82043">
        <ele>527.094119549</ele>
        <time>2015-07-07T13:02:06Z</time>
      </trkpt>
      <trkpt lat="45.54273" lon="5.82046">
        <ele>527.094119549</ele>
        <time>2015-07-07T13:02:11Z</time>
      </trkpt>
      <trkpt lat="45.5426" lon="5.82052">
        <ele>520.14489943</ele>
        <time>2015-07-07T13:02:21Z</time>
      </trkpt>
      <trkpt lat="45.54253" lon="5.82057">
        <ele>520.14489943</ele>
        <time>2015-07-07T13:02:26Z</time>
      </trkpt>
      <trkpt lat="45.54232" lon="5.82059">
        <ele>512.25432215</ele>
        <time>2015-07-07T13:02:36Z</time>
      </trkpt>
      <trkpt lat="45.5422" lon="5.82053">
        <ele>504.517719838</ele>
        <time>2015-07-07T13:02:41Z</time>
      </trkpt>
      <trkpt lat="45.54198" lon="5.82042">
        <ele>497.228878385</ele>
        <time>2015-07-07T13:02:51Z</time>
      </trkpt>
      <trkpt lat="45.54189" lon="5.82036">
        <ele>490.514498465</ele>
        <time>2015-07-07T13:02:56Z</time>
      </trkpt>
      <trkpt lat="45.54168" lon="5.82026">
        <ele>483.193187326</ele>
        <time>2015-07-07T13:03:06Z</time>
      </trkpt>
      <trkpt lat="45.54157" lon="5.82033">
        <ele>476.621723768</ele>
        <time>2015-07-07T13:03:11Z</time>
      </trkpt>
      <trkpt lat="45.54128" lon="5.82005">
        <ele>470.469660701</ele>
        <time>2015-07-07T13:03:25Z</time>
      </trkpt>
      <trkpt lat="45.54102" lon="5.81962">
        <ele>465.149953209</ele>
        <time>2015-07-07T13:03:41Z</time>
      </trkpt>
      <trkpt lat="45.54092" lon="5.81957">
        <ele>460.466175541</ele>
        <time>2015-07-07T13:03:45Z</time>
      </trkpt>
      <trkpt lat="45.54074" lon="5.81945">
        <ele>455.801940242</ele>
        <time>2015-07-07T13:03:56Z</time>
      </trkpt>
      <trkpt lat="45.54063" lon="5.81933">
        <ele>451.450475652</ele>
        <time>2015-07-07T13:04:01Z</time>
      </trkpt>
      <trkpt lat="45.54046" lon="5.81918">
        <ele>447.97054189</ele>
        <time>2015-07-07T13:04:11Z</time>
      </trkpt>
      <trkpt lat="45.5404" lon="5.81909">
        <ele>447.97054189</ele>
        <time>2015-07-07T13:04:15Z</time>
      </trkpt>
      <trkpt lat="45.54025" lon="5.81883">
        <ele>444.580141285</ele>
        <time>2015-07-07T13:04:26Z</time>
      </trkpt>
      <trkpt lat="45.54013" lon="5.81874">
        <ele>441.418880698</ele>
        <time>2015-07-07T13:04:31Z</time>
      </trkpt>
      <trkpt lat="45.53992" lon="5.81858">
        <ele>438.615225487</ele>
        <time>2015-07-07T13:04:41Z</time>
      </trkpt>
      <trkpt lat="45.53981" lon="5.81852">
        <ele>436.142862146</ele>
        <time>2015-07-07T13:04:45Z</time>
      </trkpt>
      <trkpt lat="45.53954" lon="5.81842">
        <ele>434.696827864</ele>
        <time>2015-07-07T13:04:56Z</time>
      </trkpt>
      <trkpt lat="45.53946" lon="5.81831">
        <ele>433.621036119</ele>
        <time>2015-07-07T13:05:01Z</time>
      </trkpt>
      <trkpt lat="45.5392" lon="5.81825">
        <ele>432.45050581</ele>
        <time>2015-07-07T13:05:11Z</time>
      </trkpt>
      <trkpt lat="45.53903" lon="5.81826">
        <ele>431.763321003</ele>
        <time>2015-07-07T13:05:16Z</time>
      </trkpt>
      <trkpt lat="45.53876" lon="5.81809">
        <ele>431.373080567</ele>
        <time>2015-07-07T13:05:31Z</time>
      </trkpt>
      <trkpt lat="45.53863" lon="5.81797">
        <ele>430.097384013</ele>
        <time>2015-07-07T13:05:35Z</time>
      </trkpt>
      <trkpt lat="45.53839" lon="5.81791">
        <ele>429.004785086</ele>
        <time>2015-07-07T13:05:46Z</time>
      </trkpt>
      <trkpt lat="45.53828" lon="5.81784">
        <ele>428.220129739</ele>
        <time>2015-07-07T13:05:51Z</time>
      </trkpt>
      <trkpt lat="45.53802" lon="5.8177">
        <ele>427.28177375</ele>
        <time>2015-07-07T13:06:01Z</time>
      </trkpt>
      <trkpt lat="45.53786" lon="5.81765">
        <ele>426.482981026</ele>
        <time>2015-07-07T13:06:05Z</time>
      </trkpt>
      <trkpt lat="45.53767" lon="5.81741">
        <ele>424.942218103</ele>
        <time>2015-07-07T13:06:15Z</time>
      </trkpt>
      <trkpt lat="45.53768" lon="5.81738">
        <ele>424.942218103</ele>
        <time>2015-07-07T13:06:21Z</time>
      </trkpt>
      <trkpt lat="45.53772" lon="5.81741">
        <ele>424.942218103</ele>
        <time>2015-07-07T13:06:31Z</time>
      </trkpt>
      <trkpt lat="45.5377" lon="5.8174">
        <ele>424.942218103</ele>
        <time>2015-07-07T13:06:35Z</time>
      </trkpt>
      <trkpt lat="45.5377" lon="5.81739">
        <ele>424.942218103</ele>
        <time>2015-07-07T13:06:46Z</time>
      </trkpt>
      <trkpt lat="45.5377" lon="5.81739">
        <ele>424.942218103</ele>
        <time>2015-07-07T13:06:51Z</time>
      </trkpt>
      <trkpt lat="45.5377" lon="5.81739">
        <ele>424.942218103</ele>
        <time>2015-07-07T13:07:01Z</time>
      </trkpt>
      <trkpt lat="45.53765" lon="5.81734">
        <ele>421.844829106</ele>
        <time>2015-07-07T13:07:05Z</time>
      </trkpt>
      <trkpt lat="45.53754" lon="5.81712">
        <ele>419.610863589</ele>
        <time>2015-07-07T13:07:15Z</time>
      </trkpt>
      <trkpt lat="45.53751" lon="5.81702">
        <ele>419.610863589</ele>
        <time>2015-07-07T13:07:21Z</time>
      </trkpt>
      <trkpt lat="45.53745" lon="5.81698">
        <ele>417.453893393</ele>
        <time>2015-07-07T13:07:25Z</time>
      </trkpt>
      <trkpt lat="45.53742" lon="5.81691">
        <ele>417.453893393</ele>
        <time>2015-07-07T13:07:30Z</time>
      </trkpt>
      <trkpt lat="45.53738" lon="5.81682">
        <ele>414.933323689</ele>
        <time>2015-07-07T13:07:35Z</time>
      </trkpt>
      <trkpt lat="45.53736" lon="5.81675">
        <ele>414.933323689</ele>
        <time>2015-07-07T13:07:40Z</time>
      </trkpt>
      <trkpt lat="45.53732" lon="5.81656">
        <ele>412.506670121</ele>
        <time>2015-07-07T13:07:50Z</time>
      </trkpt>
      <trkpt lat="45.53729" lon="5.8165">
        <ele>412.506670121</ele>
        <time>2015-07-07T13:07:55Z</time>
      </trkpt>
      <trkpt lat="45.53729" lon="5.81642">
        <ele>410.597636205</ele>
        <time>2015-07-07T13:08:00Z</time>
      </trkpt>
      <trkpt lat="45.53729" lon="5.81609">
        <ele>408.876855453</ele>
        <time>2015-07-07T13:08:10Z</time>
      </trkpt>
      <trkpt lat="45.53726" lon="5.81591">
        <ele>407.182805834</ele>
        <time>2015-07-07T13:08:15Z</time>
      </trkpt>
      <trkpt lat="45.5373" lon="5.81567">
        <ele>405.221714862</ele>
        <time>2015-07-07T13:08:25Z</time>
      </trkpt>
      <trkpt lat="45.53729" lon="5.81566">
        <ele>405.221714862</ele>
        <time>2015-07-07T13:08:30Z</time>
      </trkpt>
      <trkpt lat="45.53729" lon="5.81565">
        <ele>405.221714862</ele>
        <time>2015-07-07T13:08:45Z</time>
      </trkpt>
      <trkpt lat="45.53729" lon="5.81565">
        <ele>405.221714862</ele>
        <time>2015-07-07T13:09:01Z</time>
      </trkpt>
      <trkpt lat="45.53729" lon="5.81565">
        <ele>405.221714862</ele>
        <time>2015-07-07T13:09:05Z</time>
      </trkpt>
      <trkpt lat="45.53729" lon="5.81565">
        <ele>405.221714862</ele>
        <time>2015-07-07T13:09:11Z</time>
      </trkpt>
      <trkpt lat="45.53729" lon="5.81565">
        <ele>405.221714862</ele>
        <time>2015-07-07T13:09:15Z</time>
      </trkpt>
      <trkpt lat="45.53731" lon="5.81547">
        <ele>403.586881812</ele>
        <time>2015-07-07T13:09:30Z</time>
      </trkpt>
      <trkpt lat="45.53733" lon="5.81539">
        <ele>403.586881812</ele>
        <time>2015-07-07T13:09:35Z</time>
      </trkpt>
      <trkpt lat="45.53738" lon="5.81528">
        <ele>402.971299989</ele>
        <time>2015-07-07T13:09:41Z</time>
      </trkpt>
      <trkpt lat="45.5374" lon="5.81521">
        <ele>402.971299989</ele>
        <time>2015-07-07T13:09:46Z</time>
      </trkpt>
      <trkpt lat="45.53743" lon="5.81514">
        <ele>401.996728165</ele>
        <time>2015-07-07T13:09:50Z</time>
      </trkpt>
      <trkpt lat="45.53749" lon="5.81507">
        <ele>401.996728165</ele>
        <time>2015-07-07T13:09:55Z</time>
      </trkpt>
      <trkpt lat="45.53752" lon="5.81501">
        <ele>400.972495295</ele>
        <time>2015-07-07T13:10:00Z</time>
      </trkpt>
      <trkpt lat="45.53757" lon="5.81487">
        <ele>400.18545074</ele>
        <time>2015-07-07T13:10:10Z</time>
      </trkpt>
      <trkpt lat="45.53758" lon="5.81485">
        <ele>400.18545074</ele>
        <time>2015-07-07T13:10:15Z</time>
      </trkpt>
      <trkpt lat="45.5377" lon="5.81463">
        <ele>399.61259758</ele>
        <time>2015-07-07T13:10:31Z</time>
      </trkpt>
      <trkpt lat="45.53774" lon="5.81458">
        <ele>399.61259758</ele>
        <time>2015-07-07T13:10:35Z</time>
      </trkpt>
      <trkpt lat="45.53779" lon="5.81446">
        <ele>399.3762605</ele>
        <time>2015-07-07T13:10:41Z</time>
      </trkpt>
      <trkpt lat="45.53779" lon="5.81443">
        <ele>399.3762605</ele>
        <time>2015-07-07T13:10:45Z</time>
      </trkpt>
      <trkpt lat="45.53784" lon="5.81418">
        <ele>399.15663177</ele>
        <time>2015-07-07T13:10:58Z</time>
      </trkpt>
      <trkpt lat="45.53783" lon="5.81412">
        <ele>399.15663177</ele>
        <time>2015-07-07T13:11:00Z</time>
      </trkpt>
      <trkpt lat="45.53786" lon="5.81407">
        <ele>399.15663177</ele>
        <time>2015-07-07T13:11:05Z</time>
      </trkpt>
      <trkpt lat="45.53775" lon="5.81383">
        <ele>398.081043949</ele>
        <time>2015-07-07T13:11:15Z</time>
      </trkpt>
      <trkpt lat="45.5377" lon="5.81363">
        <ele>397.216927675</ele>
        <time>2015-07-07T13:11:20Z</time>
      </trkpt>
      <trkpt lat="45.53762" lon="5.81325">
        <ele>397.120526561</ele>
        <time>2015-07-07T13:11:30Z</time>
      </trkpt>
      <trkpt lat="45.53755" lon="5.81311">
        <ele>397.152337963</ele>
        <time>2015-07-07T13:11:35Z</time>
      </trkpt>
      <trkpt lat="45.53743" lon="5.81278">
        <ele>397.440197045</ele>
        <time>2015-07-07T13:11:46Z</time>
      </trkpt>
      <trkpt lat="45.53736" lon="5.81251">
        <ele>397.381445263</ele>
        <time>2015-07-07T13:11:52Z</time>
      </trkpt>
      <trkpt lat="45.53729" lon="5.81227">
        <ele>397.13940124</ele>
        <time>2015-07-07T13:12:00Z</time>
      </trkpt>
      <trkpt lat="45.53729" lon="5.81212">
        <ele>397.15430693</ele>
        <time>2015-07-07T13:12:05Z</time>
      </trkpt>
      <trkpt lat="45.53726" lon="5.81198">
        <ele>397.112976366</ele>
        <time>2015-07-07T13:12:10Z</time>
      </trkpt>
      <trkpt lat="45.53725" lon="5.81188">
        <ele>397.112976366</ele>
        <time>2015-07-07T13:12:15Z</time>
      </trkpt>
      <trkpt lat="45.53727" lon="5.8117">
        <ele>397.013801937</ele>
        <time>2015-07-07T13:12:25Z</time>
      </trkpt>
      <trkpt lat="45.53724" lon="5.81162">
        <ele>397.013801937</ele>
        <time>2015-07-07T13:12:30Z</time>
      </trkpt>
      <trkpt lat="45.53718" lon="5.81115">
        <ele>397.576207582</ele>
        <time>2015-07-07T13:12:45Z</time>
      </trkpt>
      <trkpt lat="45.53713" lon="5.81094">
        <ele>397.879888624</ele>
        <time>2015-07-07T13:12:50Z</time>
      </trkpt>
      <trkpt lat="45.53715" lon="5.81057">
        <ele>398.514185283</ele>
        <time>2015-07-07T13:13:00Z</time>
      </trkpt>
      <trkpt lat="45.53724" lon="5.81035">
        <ele>399.159757183</ele>
        <time>2015-07-07T13:13:05Z</time>
      </trkpt>
      <trkpt lat="45.53734" lon="5.81002">
        <ele>399.66501246</ele>
        <time>2015-07-07T13:13:15Z</time>
      </trkpt>
      <trkpt lat="45.53741" lon="5.80993">
        <ele>400.034213249</ele>
        <time>2015-07-07T13:13:20Z</time>
      </trkpt>
      <trkpt lat="45.53774" lon="5.80986">
        <ele>400.84835112</ele>
        <time>2015-07-07T13:13:30Z</time>
      </trkpt>
      <trkpt lat="45.53787" lon="5.80983">
        <ele>401.491818739</ele>
        <time>2015-07-07T13:13:35Z</time>
      </trkpt>
      <trkpt lat="45.53805" lon="5.80972">
        <ele>402.547818818</ele>
        <time>2015-07-07T13:13:41Z</time>
      </trkpt>
      <trkpt lat="45.53814" lon="5.80965">
        <ele>403.258775717</ele>
        <time>2015-07-07T13:13:45Z</time>
      </trkpt>
      <trkpt lat="45.53826" lon="5.8095">
        <ele>403.644510466</ele>
        <time>2015-07-07T13:13:50Z</time>
      </trkpt>
      <trkpt lat="45.53837" lon="5.80916">
        <ele>403.724521095</ele>
        <time>2015-07-07T13:14:01Z</time>
      </trkpt>
      <trkpt lat="45.53846" lon="5.80901">
        <ele>403.662059664</ele>
        <time>2015-07-07T13:14:06Z</time>
      </trkpt>
      <trkpt lat="45.53865" lon="5.80852">
        <ele>403.608997537</ele>
        <time>2015-07-07T13:14:15Z</time>
      </trkpt>
      <trkpt lat="45.5387" lon="5.80837">
        <ele>404.426785642</ele>
        <time>2015-07-07T13:14:20Z</time>
      </trkpt>
      <trkpt lat="45.53887" lon="5.80801">
        <ele>405.470240191</ele>
        <time>2015-07-07T13:14:30Z</time>
      </trkpt>
      <trkpt lat="45.53885" lon="5.80774">
        <ele>406.285248358</ele>
        <time>2015-07-07T13:14:35Z</time>
      </trkpt>
      <trkpt lat="45.53886" lon="5.80735">
        <ele>406.740114776</ele>
        <time>2015-07-07T13:14:45Z</time>
      </trkpt>
      <trkpt lat="45.53887" lon="5.80713">
        <ele>407.578689384</ele>
        <time>2015-07-07T13:14:50Z</time>
      </trkpt>
      <trkpt lat="45.5389" lon="5.80673">
        <ele>407.47173618</ele>
        <time>2015-07-07T13:15:00Z</time>
      </trkpt>
      <trkpt lat="45.53897" lon="5.80654">
        <ele>407.063944853</ele>
        <time>2015-07-07T13:15:05Z</time>
      </trkpt>
      <trkpt lat="45.53922" lon="5.8064">
        <ele>406.809554183</ele>
        <time>2015-07-07T13:15:15Z</time>
      </trkpt>
      <trkpt lat="45.53934" lon="5.80638">
        <ele>406.552724692</ele>
        <time>2015-07-07T13:15:20Z</time>
      </trkpt>
      <trkpt lat="45.5397" lon="5.80618">
        <ele>405.14044501</ele>
        <time>2015-07-07T13:15:35Z</time>
      </trkpt>
      <trkpt lat="45.53987" lon="5.80618">
        <ele>404.101783479</ele>
        <time>2015-07-07T13:15:40Z</time>
      </trkpt>
      <trkpt lat="45.54015" lon="5.80613">
        <ele>402.546779314</ele>
        <time>2015-07-07T13:15:50Z</time>
      </trkpt>
      <trkpt lat="45.5403" lon="5.80609">
        <ele>400.661178821</ele>
        <time>2015-07-07T13:15:55Z</time>
      </trkpt>
      <trkpt lat="45.54054" lon="5.80588">
        <ele>398.906318936</ele>
        <time>2015-07-07T13:16:05Z</time>
      </trkpt>
      <trkpt lat="45.54068" lon="5.80578">
        <ele>397.421125518</ele>
        <time>2015-07-07T13:16:11Z</time>
      </trkpt>
      <trkpt lat="45.54088" lon="5.80557">
        <ele>396.189501673</ele>
        <time>2015-07-07T13:16:20Z</time>
      </trkpt>
      <trkpt lat="45.54091" lon="5.8054">
        <ele>395.195857</ele>
        <time>2015-07-07T13:16:25Z</time>
      </trkpt>
      <trkpt lat="45.54098" lon="5.80526">
        <ele>393.992767884</ele>
        <time>2015-07-07T13:16:31Z</time>
      </trkpt>
      <trkpt lat="45.54109" lon="5.80493">
        <ele>392.454499369</ele>
        <time>2015-07-07T13:16:40Z</time>
      </trkpt>
      <trkpt lat="45.54127" lon="5.80478">
        <ele>391.330161639</ele>
        <time>2015-07-07T13:16:46Z</time>
      </trkpt>
      <trkpt lat="45.54126" lon="5.80439">
        <ele>389.727442945</ele>
        <time>2015-07-07T13:16:56Z</time>
      </trkpt>
      <trkpt lat="45.54123" lon="5.8043">
        <ele>389.727442945</ele>
        <time>2015-07-07T13:17:00Z</time>
      </trkpt>
      <trkpt lat="45.54091" lon="5.80402">
        <ele>387.68556966</ele>
        <time>2015-07-07T13:17:11Z</time>
      </trkpt>
      <trkpt lat="45.54081" lon="5.80389">
        <ele>385.530309949</ele>
        <time>2015-07-07T13:17:16Z</time>
      </trkpt>
      <trkpt lat="45.5406" lon="5.80364">
        <ele>383.707888253</ele>
        <time>2015-07-07T13:17:26Z</time>
      </trkpt>
      <trkpt lat="45.5405" lon="5.80355">
        <ele>382.054317702</ele>
        <time>2015-07-07T13:17:31Z</time>
      </trkpt>
      <trkpt lat="45.54042" lon="5.80341">
        <ele>380.849454656</ele>
        <time>2015-07-07T13:17:36Z</time>
      </trkpt>
      <trkpt lat="45.54024" lon="5.80314">
        <ele>379.918935588</ele>
        <time>2015-07-07T13:17:46Z</time>
      </trkpt>
      <trkpt lat="45.54015" lon="5.80299">
        <ele>379.244474276</ele>
        <time>2015-07-07T13:17:50Z</time>
      </trkpt>
      <trkpt lat="45.54" lon="5.8027">
        <ele>378.808336172</ele>
        <time>2015-07-07T13:18:00Z</time>
      </trkpt>
      <trkpt lat="45.53993" lon="5.80255">
        <ele>378.593349852</ele>
        <time>2015-07-07T13:18:05Z</time>
      </trkpt>
      <trkpt lat="45.53973" lon="5.80232">
        <ele>379.01525236</ele>
        <time>2015-07-07T13:18:15Z</time>
      </trkpt>
      <trkpt lat="45.53964" lon="5.80216">
        <ele>379.592728514</ele>
        <time>2015-07-07T13:18:20Z</time>
      </trkpt>
      <trkpt lat="45.53946" lon="5.80186">
        <ele>380.311667977</ele>
        <time>2015-07-07T13:18:30Z</time>
      </trkpt>
      <trkpt lat="45.53935" lon="5.80176">
        <ele>380.870339067</ele>
        <time>2015-07-07T13:18:35Z</time>
      </trkpt>
      <trkpt lat="45.53912" lon="5.80156">
        <ele>381.133707893</ele>
        <time>2015-07-07T13:18:45Z</time>
      </trkpt>
      <trkpt lat="45.53902" lon="5.80146">
        <ele>381.12158089</ele>
        <time>2015-07-07T13:18:50Z</time>
      </trkpt>
      <trkpt lat="45.53877" lon="5.80127">
        <ele>382.005962</ele>
        <time>2015-07-07T13:19:01Z</time>
      </trkpt>
      <trkpt lat="45.53867" lon="5.80112">
        <ele>383.285021851</ele>
        <time>2015-07-07T13:19:05Z</time>
      </trkpt>
      <trkpt lat="45.53851" lon="5.80084">
        <ele>385.069142384</ele>
        <time>2015-07-07T13:19:16Z</time>
      </trkpt>
      <trkpt lat="45.53847" lon="5.80068">
        <ele>386.306312165</ele>
        <time>2015-07-07T13:19:20Z</time>
      </trkpt>
      <trkpt lat="45.53835" lon="5.80037">
        <ele>387.608591618</ele>
        <time>2015-07-07T13:19:30Z</time>
      </trkpt>
      <trkpt lat="45.53828" lon="5.80022">
        <ele>388.822387971</ele>
        <time>2015-07-07T13:19:36Z</time>
      </trkpt>
      <trkpt lat="45.5381" lon="5.79981">
        <ele>389.949808313</ele>
        <time>2015-07-07T13:19:50Z</time>
      </trkpt>
      <trkpt lat="45.53795" lon="5.79948">
        <ele>390.849002172</ele>
        <time>2015-07-07T13:20:01Z</time>
      </trkpt>
      <trkpt lat="45.5379" lon="5.79932">
        <ele>391.533363473</ele>
        <time>2015-07-07T13:20:05Z</time>
      </trkpt>
      <trkpt lat="45.53773" lon="5.79881">
        <ele>392.160093578</ele>
        <time>2015-07-07T13:20:21Z</time>
      </trkpt>
      <trkpt lat="45.53767" lon="5.79869">
        <ele>393.019199769</ele>
        <time>2015-07-07T13:20:25Z</time>
      </trkpt>
      <trkpt lat="45.53763" lon="5.79845">
        <ele>393.658260904</ele>
        <time>2015-07-07T13:20:31Z</time>
      </trkpt>
      <trkpt lat="45.5376" lon="5.79832">
        <ele>394.235236753</ele>
        <time>2015-07-07T13:20:35Z</time>
      </trkpt>
      <trkpt lat="45.53758" lon="5.79811">
        <ele>395.329077191</ele>
        <time>2015-07-07T13:20:41Z</time>
      </trkpt>
      <trkpt lat="45.5376" lon="5.79776">
        <ele>396.466062554</ele>
        <time>2015-07-07T13:20:50Z</time>
      </trkpt>
      <trkpt lat="45.53762" lon="5.79755">
        <ele>397.207240648</ele>
        <time>2015-07-07T13:20:55Z</time>
      </trkpt>
      <trkpt lat="45.53761" lon="5.79717">
        <ele>397.579438561</ele>
        <time>2015-07-07T13:21:06Z</time>
      </trkpt>
      <trkpt lat="45.53761" lon="5.79699">
        <ele>398.040971742</ele>
        <time>2015-07-07T13:21:10Z</time>
      </trkpt>
      <trkpt lat="45.53765" lon="5.79662">
        <ele>398.439881685</ele>
        <time>2015-07-07T13:21:21Z</time>
      </trkpt>
      <trkpt lat="45.53767" lon="5.79646">
        <ele>398.491522594</ele>
        <time>2015-07-07T13:21:25Z</time>
      </trkpt>
      <trkpt lat="45.53769" lon="5.79628">
        <ele>398.365546996</ele>
        <time>2015-07-07T13:21:30Z</time>
      </trkpt>
      <trkpt lat="45.53767" lon="5.79617">
        <ele>398.365546996</ele>
        <time>2015-07-07T13:21:35Z</time>
      </trkpt>
      <trkpt lat="45.53771" lon="5.79596">
        <ele>397.355049738</ele>
        <time>2015-07-07T13:21:40Z</time>
      </trkpt>
      <trkpt lat="45.53775" lon="5.79575">
        <ele>396.10460046</ele>
        <time>2015-07-07T13:21:46Z</time>
      </trkpt>
      <trkpt lat="45.53778" lon="5.79559">
        <ele>395.068033604</ele>
        <time>2015-07-07T13:21:50Z</time>
      </trkpt>
      <trkpt lat="45.53785" lon="5.79549">
        <ele>394.23295152</ele>
        <time>2015-07-07T13:21:55Z</time>
      </trkpt>
      <trkpt lat="45.53791" lon="5.79526">
        <ele>393.299106536</ele>
        <time>2015-07-07T13:22:01Z</time>
      </trkpt>
      <trkpt lat="45.53794" lon="5.79519">
        <ele>393.299106536</ele>
        <time>2015-07-07T13:22:05Z</time>
      </trkpt>
      <trkpt lat="45.53815" lon="5.79464">
        <ele>392.13270992</ele>
        <time>2015-07-07T13:22:20Z</time>
      </trkpt>
      <trkpt lat="45.53818" lon="5.79447">
        <ele>391.042790624</ele>
        <time>2015-07-07T13:22:25Z</time>
      </trkpt>
      <trkpt lat="45.53822" lon="5.79425">
        <ele>390.315455964</ele>
        <time>2015-07-07T13:22:31Z</time>
      </trkpt>
      <trkpt lat="45.53822" lon="5.79409">
        <ele>389.782430686</ele>
        <time>2015-07-07T13:22:36Z</time>
      </trkpt>
      <trkpt lat="45.53821" lon="5.79393">
        <ele>389.719568441</ele>
        <time>2015-07-07T13:22:41Z</time>
      </trkpt>
      <trkpt lat="45.5382" lon="5.79365">
        <ele>389.948782122</ele>
        <time>2015-07-07T13:22:50Z</time>
      </trkpt>
      <trkpt lat="45.53819" lon="5.79348">
        <ele>390.880668277</ele>
        <time>2015-07-07T13:22:55Z</time>
      </trkpt>
      <trkpt lat="45.53818" lon="5.79308">
        <ele>392.173114245</ele>
        <time>2015-07-07T13:23:05Z</time>
      </trkpt>
      <trkpt lat="45.53817" lon="5.79288">
        <ele>392.499334209</ele>
        <time>2015-07-07T13:23:10Z</time>
      </trkpt>
      <trkpt lat="45.53817" lon="5.79259">
        <ele>392.217930654</ele>
        <time>2015-07-07T13:23:20Z</time>
      </trkpt>
      <trkpt lat="45.53819" lon="5.79241">
        <ele>391.806972306</ele>
        <time>2015-07-07T13:23:25Z</time>
      </trkpt>
      <trkpt lat="45.53823" lon="5.79201">
        <ele>391.565655185</ele>
        <time>2015-07-07T13:23:35Z</time>
      </trkpt>
      <trkpt lat="45.53826" lon="5.79182">
        <ele>391.626601545</ele>
        <time>2015-07-07T13:23:40Z</time>
      </trkpt>
      <trkpt lat="45.53829" lon="5.79147">
        <ele>391.823611504</ele>
        <time>2015-07-07T13:23:50Z</time>
      </trkpt>
      <trkpt lat="45.53835" lon="5.7913">
        <ele>392.290525272</ele>
        <time>2015-07-07T13:23:55Z</time>
      </trkpt>
      <trkpt lat="45.53839" lon="5.79073">
        <ele>392.141806874</ele>
        <time>2015-07-07T13:24:10Z</time>
      </trkpt>
      <trkpt lat="45.53847" lon="5.79018">
        <ele>392.143913233</ele>
        <time>2015-07-07T13:24:25Z</time>
      </trkpt>
      <trkpt lat="45.53851" lon="5.79003">
        <ele>392.141900481</ele>
        <time>2015-07-07T13:24:30Z</time>
      </trkpt>
      <trkpt lat="45.53866" lon="5.78972">
        <ele>391.848099628</ele>
        <time>2015-07-07T13:24:40Z</time>
      </trkpt>
      <trkpt lat="45.53874" lon="5.78957">
        <ele>391.429116649</ele>
        <time>2015-07-07T13:24:45Z</time>
      </trkpt>
      <trkpt lat="45.5389" lon="5.78932">
        <ele>391.90432747</ele>
        <time>2015-07-07T13:24:55Z</time>
      </trkpt>
      <trkpt lat="45.53897" lon="5.78919">
        <ele>392.198150738</ele>
        <time>2015-07-07T13:25:00Z</time>
      </trkpt>
      <trkpt lat="45.53904" lon="5.78882">
        <ele>392.179182995</ele>
        <time>2015-07-07T13:25:11Z</time>
      </trkpt>
      <trkpt lat="45.53907" lon="5.78874">
        <ele>392.179182995</ele>
        <time>2015-07-07T13:25:15Z</time>
      </trkpt>
      <trkpt lat="45.53909" lon="5.78856">
        <ele>391.726541821</ele>
        <time>2015-07-07T13:25:25Z</time>
      </trkpt>
      <trkpt lat="45.53912" lon="5.78844">
        <ele>391.726541821</ele>
        <time>2015-07-07T13:25:31Z</time>
      </trkpt>
      <trkpt lat="45.53914" lon="5.78824">
        <ele>391.594099533</ele>
        <time>2015-07-07T13:25:40Z</time>
      </trkpt>
      <trkpt lat="45.53912" lon="5.78814">
        <ele>391.594099533</ele>
        <time>2015-07-07T13:25:45Z</time>
      </trkpt>
      <trkpt lat="45.53912" lon="5.78782">
        <ele>391.902997607</ele>
        <time>2015-07-07T13:26:01Z</time>
      </trkpt>
      <trkpt lat="45.53911" lon="5.78774">
        <ele>391.902997607</ele>
        <time>2015-07-07T13:26:05Z</time>
      </trkpt>
      <trkpt lat="45.53908" lon="5.78758">
        <ele>391.467229632</ele>
        <time>2015-07-07T13:26:15Z</time>
      </trkpt>
      <trkpt lat="45.53909" lon="5.78743">
        <ele>390.775212292</ele>
        <time>2015-07-07T13:26:20Z</time>
      </trkpt>
      <trkpt lat="45.53913" lon="5.78706">
        <ele>389.271408523</ele>
        <time>2015-07-07T13:26:30Z</time>
      </trkpt>
      <trkpt lat="45.53922" lon="5.78686">
        <ele>388.893238393</ele>
        <time>2015-07-07T13:26:35Z</time>
      </trkpt>
      <trkpt lat="45.53924" lon="5.78651">
        <ele>388.982728936</ele>
        <time>2015-07-07T13:26:45Z</time>
      </trkpt>
      <trkpt lat="45.53926" lon="5.78636">
        <ele>388.928902654</ele>
        <time>2015-07-07T13:26:50Z</time>
      </trkpt>
      <trkpt lat="45.53929" lon="5.78618">
        <ele>389.030705559</ele>
        <time>2015-07-07T13:26:55Z</time>
      </trkpt>
      <trkpt lat="45.53926" lon="5.78601">
        <ele>388.988216009</ele>
        <time>2015-07-07T13:27:00Z</time>
      </trkpt>
      <trkpt lat="45.53926" lon="5.7856">
        <ele>389.244481585</ele>
        <time>2015-07-07T13:27:11Z</time>
      </trkpt>
      <trkpt lat="45.53927" lon="5.78541">
        <ele>389.200366242</ele>
        <time>2015-07-07T13:27:16Z</time>
      </trkpt>
      <trkpt lat="45.53925" lon="5.78489">
        <ele>390.030905093</ele>
        <time>2015-07-07T13:27:30Z</time>
      </trkpt>
      <trkpt lat="45.53922" lon="5.78434">
        <ele>391.525349582</ele>
        <time>2015-07-07T13:27:46Z</time>
      </trkpt>
      <trkpt lat="45.53907" lon="5.78406">
        <ele>392.333675184</ele>
        <time>2015-07-07T13:27:56Z</time>
      </trkpt>
      <trkpt lat="45.53908" lon="5.78387">
        <ele>393.224512752</ele>
        <time>2015-07-07T13:28:00Z</time>
      </trkpt>
      <trkpt lat="45.53907" lon="5.7837">
        <ele>393.901030751</ele>
        <time>2015-07-07T13:28:05Z</time>
      </trkpt>
      <trkpt lat="45.5391" lon="5.78325">
        <ele>395.097600348</ele>
        <time>2015-07-07T13:28:15Z</time>
      </trkpt>
      <trkpt lat="45.53916" lon="5.78302">
        <ele>395.763877303</ele>
        <time>2015-07-07T13:28:21Z</time>
      </trkpt>
      <trkpt lat="45.5392" lon="5.78275">
        <ele>396.225192051</ele>
        <time>2015-07-07T13:28:30Z</time>
      </trkpt>
      <trkpt lat="45.53922" lon="5.78266">
        <ele>396.225192051</ele>
        <time>2015-07-07T13:28:35Z</time>
      </trkpt>
      <trkpt lat="45.53925" lon="5.78257">
        <ele>396.351250041</ele>
        <time>2015-07-07T13:28:42Z</time>
      </trkpt>
      <trkpt lat="45.53922" lon="5.78251">
        <ele>396.351250041</ele>
        <time>2015-07-07T13:28:45Z</time>
      </trkpt>
      <trkpt lat="45.53923" lon="5.78243">
        <ele>396.598747252</ele>
        <time>2015-07-07T13:28:50Z</time>
      </trkpt>
      <trkpt lat="45.53924" lon="5.78233">
        <ele>396.598747252</ele>
        <time>2015-07-07T13:28:55Z</time>
      </trkpt>
      <trkpt lat="45.53923" lon="5.78224">
        <ele>396.52585681</ele>
        <time>2015-07-07T13:29:00Z</time>
      </trkpt>
      <trkpt lat="45.53923" lon="5.78213">
        <ele>396.52585681</ele>
        <time>2015-07-07T13:29:05Z</time>
      </trkpt>
      <trkpt lat="45.53924" lon="5.78178">
        <ele>396.300583046</ele>
        <time>2015-07-07T13:29:15Z</time>
      </trkpt>
      <trkpt lat="45.53927" lon="5.78153">
        <ele>396.367267491</ele>
        <time>2015-07-07T13:29:21Z</time>
      </trkpt>
      <trkpt lat="45.53927" lon="5.78118">
        <ele>396.560373197</ele>
        <time>2015-07-07T13:29:30Z</time>
      </trkpt>
      <trkpt lat="45.53926" lon="5.78094">
        <ele>396.582081182</ele>
        <time>2015-07-07T13:29:36Z</time>
      </trkpt>
      <trkpt lat="45.53926" lon="5.78058">
        <ele>396.301062864</ele>
        <time>2015-07-07T13:29:45Z</time>
      </trkpt>
      <trkpt lat="45.53926" lon="5.78038">
        <ele>396.172949255</ele>
        <time>2015-07-07T13:29:50Z</time>
      </trkpt>
      <trkpt lat="45.53927" lon="5.77979">
        <ele>396.331265689</ele>
        <time>2015-07-07T13:30:05Z</time>
      </trkpt>
      <trkpt lat="45.53939" lon="5.7792">
        <ele>396.466605335</ele>
        <time>2015-07-07T13:30:21Z</time>
      </trkpt>
      <trkpt lat="45.53942" lon="5.7791">
        <ele>396.466605335</ele>
        <time>2015-07-07T13:30:25Z</time>
      </trkpt>
      <trkpt lat="45.53951" lon="5.77868">
        <ele>396.580588668</ele>
        <time>2015-07-07T13:30:35Z</time>
      </trkpt>
      <trkpt lat="45.53957" lon="5.77848">
        <ele>396.963010447</ele>
        <time>2015-07-07T13:30:40Z</time>
      </trkpt>
      <trkpt lat="45.5396" lon="5.77833">
        <ele>397.016967808</ele>
        <time>2015-07-07T13:30:45Z</time>
      </trkpt>
      <trkpt lat="45.53967" lon="5.77814">
        <ele>396.622670306</ele>
        <time>2015-07-07T13:30:50Z</time>
      </trkpt>
      <trkpt lat="45.53979" lon="5.77763">
        <ele>395.526279742</ele>
        <time>2015-07-07T13:31:06Z</time>
      </trkpt>
      <trkpt lat="45.53986" lon="5.77746">
        <ele>394.359242273</ele>
        <time>2015-07-07T13:31:10Z</time>
      </trkpt>
      <trkpt lat="45.54015" lon="5.77754">
        <ele>392.842142247</ele>
        <time>2015-07-07T13:31:20Z</time>
      </trkpt>
      <trkpt lat="45.54032" lon="5.77763">
        <ele>391.293498755</ele>
        <time>2015-07-07T13:31:26Z</time>
      </trkpt>
      <trkpt lat="45.54046" lon="5.77739">
        <ele>390.440826854</ele>
        <time>2015-07-07T13:31:35Z</time>
      </trkpt>
      <trkpt lat="45.54049" lon="5.77727">
        <ele>390.440826854</ele>
        <time>2015-07-07T13:31:40Z</time>
      </trkpt>
      <trkpt lat="45.54062" lon="5.77691">
        <ele>388.938651908</ele>
        <time>2015-07-07T13:31:50Z</time>
      </trkpt>
      <trkpt lat="45.54069" lon="5.77669">
        <ele>387.127333863</ele>
        <time>2015-07-07T13:31:55Z</time>
      </trkpt>
      <trkpt lat="45.54079" lon="5.77635">
        <ele>385.755374003</ele>
        <time>2015-07-07T13:32:05Z</time>
      </trkpt>
      <trkpt lat="45.54088" lon="5.77619">
        <ele>383.929767996</ele>
        <time>2015-07-07T13:32:10Z</time>
      </trkpt>
      <trkpt lat="45.54111" lon="5.77608">
        <ele>382.409531917</ele>
        <time>2015-07-07T13:32:21Z</time>
      </trkpt>
      <trkpt lat="45.54118" lon="5.77611">
        <ele>382.409531917</ele>
        <time>2015-07-07T13:32:25Z</time>
      </trkpt>
    </trkseg>
  </trk>
</gpx>